Provisional Data: Starrucca Creek near Stevens Point, PA


Please select a monitoring station.
Please select start date.
Please select start date.

Toggle Unit: C/F Toggle Unit: C/F
Sample Time Temperature (C) Temperature (F) Specific Conductivity (mS/cm) pH   Turbidity (NTU+) DO (mg/L)
5/4/2021 12:00:00 AM 11.01 51.818 0.074 7.29 2.82 10.25
5/4/2021 12:15:00 AM 10.99 51.782 0.074 7.29 2.79 10.26
5/4/2021 12:30:00 AM 10.96 51.728 0.074 7.3 2.8 10.27
5/4/2021 12:45:00 AM 10.94 51.692 0.074 7.3 2.77 10.27
5/4/2021 1:00:00 AM 10.91 51.638 0.074 7.3 2.79 10.28
5/4/2021 1:15:00 AM 10.89 51.602 0.074 7.28 2.97 10.29
5/4/2021 1:30:00 AM 10.87 51.566 0.074 7.28 2.82 10.29
5/4/2021 1:45:00 AM 10.85 51.53 0.074 7.3 2.97 10.3
5/4/2021 2:00:00 AM 10.83 51.494 0.074 7.3 3.12 10.31
5/4/2021 2:15:00 AM 10.81 51.458 0.074 7.27 3.19 10.31
5/4/2021 2:30:00 AM 10.8 51.44 0.074 7.28 3.19 10.32
5/4/2021 2:45:00 AM 10.78 51.404 0.074 7.29 3.03 10.32
5/4/2021 3:00:00 AM 10.76 51.368 0.074 7.3 2.95 10.33
5/4/2021 3:15:00 AM 10.75 51.35 0.074 7.3 2.97 10.33
5/4/2021 3:30:00 AM 10.73 51.314 0.074 7.27 2.86 10.34
5/4/2021 3:45:00 AM 10.72 51.296 0.074 7.28 2.78 10.34
5/4/2021 4:00:00 AM 10.71 51.278 0.074 7.29 2.82 10.35
5/4/2021 4:15:00 AM 10.69 51.242 0.074 7.29 2.72 10.35
5/4/2021 4:30:00 AM 10.68 51.224 0.074 7.29 2.67 10.36
5/4/2021 4:45:00 AM 10.67 51.206 0.074 7.29 2.68 10.36
5/4/2021 5:00:00 AM 10.66 51.188 0.073 7.27 2.79 10.37
5/4/2021 5:15:00 AM 10.64 51.152 0.073 7.28 2.64 10.37
5/4/2021 5:30:00 AM 10.63 51.134 0.073 7.27 2.75 10.37
5/4/2021 5:45:00 AM 10.62 51.116 0.073 7.29 2.62 10.38
5/4/2021 6:00:00 AM 10.61 51.098 0.073 7.29 2.69 10.39
5/4/2021 6:15:00 AM 10.6 51.08 0.073 7.3 2.67 10.4
5/4/2021 6:30:00 AM 10.6 51.08 0.073 7.31 2.61 10.43
5/4/2021 6:45:00 AM 10.59 51.062 0.073 7.32 2.6 10.46
5/4/2021 7:00:00 AM 10.59 51.062 0.073 7.33 2.71 10.52
5/4/2021 7:15:00 AM 10.6 51.08 0.073 7.36 2.49 10.58
5/4/2021 7:30:00 AM 10.61 51.098 0.073 7.38 2.62 10.66
5/4/2021 7:45:00 AM 10.63 51.134 0.073 7.43 2.51 10.77
5/4/2021 8:00:00 AM 10.64 51.152 0.073 7.44 2.63 10.76
5/4/2021 8:15:00 AM 10.66 51.188 0.073 7.41 2.46 10.76
5/4/2021 8:30:00 AM 10.67 51.206 0.073 7.45 2.45 10.79
5/4/2021 8:45:00 AM 10.69 51.242 0.073 7.47 2.43 10.84
5/4/2021 9:00:00 AM 10.72 51.296 0.073 7.5 2.48 10.9
5/4/2021 9:15:00 AM 10.74 51.332 0.073 7.53 2.48 10.93
5/4/2021 9:30:00 AM 10.76 51.368 0.073 7.5 2.42 10.9
5/4/2021 9:45:00 AM 10.79 51.422 0.073 7.54 2.4 10.92
5/4/2021 10:00:00 AM 10.85 51.53 0.073 7.6 2.68 11.01
5/4/2021 10:15:00 AM 10.9 51.62 0.073 7.62 2.42 11.03
5/4/2021 10:30:00 AM 10.94 51.692 0.072 7.63 2.47 11.07
5/4/2021 10:45:00 AM 10.99 51.782 0.072 7.7 2.41 11.11
5/4/2021 11:00:00 AM 11.09 51.962 0.072 7.76 2.38 11.2
5/4/2021 11:15:00 AM 11.16 52.088 0.072 7.82 2.36 11.24
5/4/2021 11:30:00 AM 11.24 52.232 0.072 7.87 2.49 11.26
5/4/2021 11:45:00 AM 11.37 52.466 0.072 7.95 2.41 11.3
5/4/2021 12:00:00 PM 11.53 52.754 0.072 8.01 2.33 11.3
5/4/2021 12:15:00 PM 11.71 53.078 0.072 8.07 2.34 11.29
5/4/2021 12:30:00 PM 11.8 53.24 0.072 8.11 2.36 11.27
5/4/2021 12:45:00 PM 11.95 53.51 0.072 8.13 2.36 11.22
5/4/2021 1:00:00 PM 12.07 53.726 0.072 8.14 2.31 11.17
5/4/2021 1:15:00 PM 12.23 54.014 0.072 8.15 2.33 11.14
5/4/2021 1:30:00 PM 12.52 54.536 0.072 8.21 2.33 11.11
5/4/2021 1:45:00 PM 12.77 54.986 0.072 8.2 2.36 11.04
5/4/2021 2:00:00 PM 13.02 55.436 0.071 8.25 2.36 11
5/4/2021 2:15:00 PM 13.16 55.688 0.071 8.28 2.33 10.95
5/4/2021 2:30:00 PM 13.25 55.85 0.071 8.24 2.3 10.86
5/4/2021 2:45:00 PM 13.49 56.282 0.071 8.25 2.35 10.84
5/4/2021 3:00:00 PM 13.56 56.408 0.071 8.25 2.42 10.8
5/4/2021 3:15:00 PM 13.61 56.498 0.071 8.23 2.44 10.73
5/4/2021 3:30:00 PM 13.65 56.57 0.071 8.1 2.49 10.62
5/4/2021 3:45:00 PM 13.87 56.966 0.071 8.17 2.39 10.6
5/4/2021 4:00:00 PM 14.19 57.542 0.071 8.21 2.37 10.57
5/4/2021 4:15:00 PM 14.3 57.74 0.071 8.18 2.39 10.49
5/4/2021 4:30:00 PM 14.37 57.866 0.071 8.08 2.37 10.36
5/4/2021 4:45:00 PM 14.51 58.118 0.071 7.93 2.29 10.18
5/4/2021 5:00:00 PM 14.6 58.28 0.072 7.8 2.38 10.05
5/4/2021 5:15:00 PM 14.66 58.388 0.072 7.8 2.31 10.04
5/4/2021 5:30:00 PM 14.68 58.424 0.072 7.81 2.44 10.07
5/4/2021 5:45:00 PM 14.69 58.442 0.072 7.8 2.45 10.11
5/4/2021 6:00:00 PM 14.7 58.46 0.072 7.83 2.42 10.13
5/4/2021 6:15:00 PM 14.71 58.478 0.072 7.8 2.35 10.12
5/4/2021 6:30:00 PM 14.7 58.46 0.072 7.76 2.35 10.03
5/4/2021 6:45:00 PM 14.68 58.424 0.072 7.68 2.49 9.92
5/4/2021 7:00:00 PM 14.66 58.388 0.072 7.61 2.46 9.8
5/4/2021 7:15:00 PM 14.63 58.334 0.072 7.55 2.48 9.7
5/4/2021 7:30:00 PM 14.6 58.28 0.073 7.46 2.43 9.59
5/4/2021 7:45:00 PM 14.57 58.226 0.073 7.46 2.52 9.53
5/4/2021 8:00:00 PM 14.53 58.154 0.073 7.43 2.53 9.47
5/4/2021 8:15:00 PM 14.5 58.1 0.073 7.39 2.5 9.43
5/4/2021 8:30:00 PM 14.46 58.028 0.073 7.36 2.56 9.39
5/4/2021 8:45:00 PM 14.43 57.974 0.073 7.34 2.78 9.38
5/4/2021 9:00:00 PM 14.4 57.92 0.073 7.34 3.1 9.37
5/4/2021 9:15:00 PM 14.39 57.902 0.073 7.3 2.77 9.36
5/4/2021 9:30:00 PM 14.36 57.848 0.073 7.3 2.94 9.37
5/4/2021 9:45:00 PM 14.32 57.776 0.073 7.3 2.92 9.38
5/4/2021 10:00:00 PM 14.28 57.704 0.073 7.29 3.18 9.38
5/4/2021 10:15:00 PM 14.23 57.614 0.073 7.29 3.55 9.4
5/4/2021 10:30:00 PM 14.18 57.524 0.073 7.28 3.25 9.42
5/4/2021 10:45:00 PM 14.12 57.416 0.073 7.26 3.35 9.43
5/4/2021 11:00:00 PM 14.07 57.326 0.073 7.28 3.97 9.45
5/4/2021 11:15:00 PM 14 57.2 0.073 7.27 4.72 9.47
5/4/2021 11:30:00 PM 13.93 57.074 0.074 7.25 5.33 9.49
5/4/2021 11:45:00 PM 13.87 56.966 0.074 7.27 5.07 9.5
5/5/2021 12:00:00 AM 13.81 56.858 0.074 7.27 5.15 9.52
5/5/2021 12:15:00 AM 13.76 56.768 0.074 7.28 5.14 9.54
5/5/2021 12:30:00 AM 13.7 56.66 0.074 7.28 4.84 9.55
5/5/2021 12:45:00 AM 13.67 56.606 0.074 7.27 4.59 9.57
5/5/2021 1:00:00 AM 13.64 56.552 0.074 7.29 4.22 9.57
5/5/2021 1:15:00 AM 13.61 56.498 0.074 7.29 4.23 9.58
5/5/2021 1:30:00 AM 13.57 56.426 0.073 7.29 3.91 9.59
5/5/2021 1:45:00 AM 13.55 56.39 0.073 7.27 3.86 9.6
5/5/2021 2:00:00 AM 13.5 56.3 0.073 7.25 3.84 9.61
5/5/2021 2:15:00 AM 13.45 56.21 0.073 7.27 3.73 9.62
5/5/2021 2:30:00 AM 13.4 56.12 0.073 7.27 3.88 9.63
5/5/2021 2:45:00 AM 13.36 56.048 0.073 7.27 3.79 9.64
5/5/2021 3:00:00 AM 13.3 55.94 0.073 7.26 3.77 9.66
5/5/2021 3:15:00 AM 13.26 55.868 0.073 7.27 3.65 9.67
5/5/2021 3:30:00 AM 13.22 55.796 0.073 7.28 3.73 9.68
5/5/2021 3:45:00 AM 13.18 55.724 0.073 7.28 4.13 9.7
5/5/2021 4:00:00 AM 13.13 55.634 0.073 7.28 3.88 9.71
5/5/2021 4:15:00 AM 13.09 55.562 0.073 7.27 4.17 9.73
5/5/2021 4:30:00 AM 13.04 55.472 0.073 7.26 4.53 9.75
5/5/2021 4:45:00 AM 12.99 55.382 0.073 7.23 4.62 9.76
5/5/2021 5:00:00 AM 12.95 55.31 0.073 7.25 4.74 9.77
5/5/2021 5:15:00 AM 12.91 55.238 0.073 7.21 4.78 9.79
5/5/2021 5:30:00 AM 12.89 55.202 0.073 7.23 4.64 9.8
5/5/2021 5:45:00 AM 12.86 55.148 0.073 7.23 4.57 9.8
5/5/2021 6:00:00 AM 12.84 55.112 0.073 7.21 4.61 9.81
5/5/2021 6:15:00 AM 12.82 55.076 0.073 7.23 4.61 9.83
5/5/2021 6:30:00 AM 12.81 55.058 0.073 7.21 4.56 9.84
5/5/2021 6:45:00 AM 12.79 55.022 0.073 7.23 4.51 9.89
5/5/2021 7:00:00 AM 12.79 55.022 0.073 7.25 4.77 9.94
5/5/2021 7:15:00 AM 12.78 55.004 0.074 7.28 5.11 9.97
5/5/2021 7:30:00 AM 12.78 55.004 0.074 7.29 5.4 10.01
5/5/2021 7:45:00 AM 12.79 55.022 0.074 7.32 5.16 10.07
5/5/2021 8:00:00 AM 12.8 55.04 0.074 7.32 4.87 10.12
5/5/2021 8:15:00 AM 12.8 55.04 0.073 7.35 4.57 10.16
5/5/2021 8:30:00 AM 12.81 55.058 0.073 7.35 4.34 10.17
5/5/2021 8:45:00 AM 12.81 55.058 0.073 7.37 4.13 10.19
5/5/2021 9:00:00 AM 12.83 55.094 0.072 7.39 4.08 10.26
5/5/2021 9:15:00 AM 12.84 55.112 0.072 7.42 4.01 10.28
5/5/2021 9:30:00 AM 12.86 55.148 0.072 7.44 3.82 10.33
5/5/2021 9:45:00 AM 12.88 55.184 0.072 7.46 3.86 10.37
5/5/2021 10:00:00 AM 12.89 55.202 0.072 7.48 3.76 10.39
5/5/2021 10:15:00 AM 12.9 55.22 0.071 7.49 3.82 10.39
5/5/2021 10:30:00 AM 12.92 55.256 0.071 7.48 3.68 10.37
5/5/2021 10:45:00 AM 12.93 55.274 0.071 7.49 3.54 10.35
5/5/2021 11:00:00 AM 12.92 55.256 0.071 7.46 3.55 10.26
5/5/2021 11:15:00 AM 12.91 55.238 0.071 7.45 3.38 10.24
5/5/2021 11:30:00 AM 12.9 55.22 0.07 7.44 3.71 10.24
5/5/2021 11:45:00 AM 12.89 55.202 0.07 7.44 3.6 10.25
5/5/2021 12:00:00 PM 12.9 55.22 0.07 7.43 3.54 10.28
5/5/2021 12:15:00 PM 12.9 55.22 0.07 7.45 3.46 10.29
5/5/2021 12:30:00 PM 12.9 55.22 0.07 7.45 3.67 10.29
5/5/2021 12:45:00 PM 12.9 55.22 0.07 7.46 3.5 10.28
5/5/2021 1:00:00 PM 12.9 55.22 0.069 7.48 3.54 10.33
5/5/2021 1:15:00 PM 12.89 55.202 0.069 7.49 3.72 10.36
5/5/2021 1:30:00 PM 12.86 55.148 0.069 7.48 3.65 10.31
5/5/2021 1:45:00 PM 12.84 55.112 0.069 7.48 3.96 10.32
5/5/2021 2:00:00 PM 12.84 55.112 0.069 7.52 4.45 10.42
5/5/2021 2:15:00 PM 12.85 55.13 0.069 7.56 4.54 10.49
5/5/2021 2:30:00 PM 12.81 55.058 0.069 7.55 5.31 10.46
5/5/2021 2:45:00 PM 12.78 55.004 0.069 7.54 5.98 10.43
5/5/2021 3:00:00 PM 12.74 54.932 0.068 7.49 6.85 10.37
5/5/2021 3:15:00 PM 12.71 54.878 0.068 7.51 7.69 10.36
5/5/2021 3:30:00 PM 12.69 54.842 0.068 7.5 8.56 10.39
5/5/2021 3:45:00 PM 12.66 54.788 0.068 7.49 9.21 10.34
5/5/2021 4:00:00 PM 12.63 54.734 0.068 7.46 10.23 10.31
5/5/2021 4:15:00 PM 12.6 54.68 0.068 7.45 10.92 10.28
5/5/2021 4:30:00 PM 12.59 54.662 0.069 7.46 11.61 10.31
5/5/2021 4:45:00 PM 12.59 54.662 0.069 7.47 11.43 10.35
5/5/2021 5:00:00 PM 12.59 54.662 0.069 7.47 12.48 10.37
5/5/2021 5:15:00 PM 12.57 54.626 0.069 7.47 13.02 10.33
5/5/2021 5:30:00 PM 12.54 54.572 0.069 7.44 12.91 10.3
5/5/2021 5:45:00 PM 12.49 54.482 0.068 7.41 13.05 10.26
5/5/2021 6:00:00 PM 12.43 54.374 0.068 7.4 11.61 10.25
5/5/2021 6:15:00 PM 12.37 54.266 0.068 7.38 10.56 10.23
5/5/2021 6:30:00 PM 12.32 54.176 0.068 7.36 10.13 10.22
5/5/2021 6:45:00 PM 12.26 54.068 0.067 7.34 9.44 10.2
5/5/2021 7:00:00 PM 12.2 53.96 0.067 7.34 8.77 10.2
5/5/2021 7:15:00 PM 12.15 53.87 0.067 7.31 8.48 10.21
5/5/2021 7:30:00 PM 12.08 53.744 0.067 7.32 8.19 10.22
5/5/2021 7:45:00 PM 12.02 53.636 0.067 7.32 8.22 10.23
5/5/2021 8:00:00 PM 11.96 53.528 0.067 7.3 7.47 10.22
5/5/2021 8:15:00 PM 11.89 53.402 0.067 7.3 7.43 10.23
5/5/2021 8:30:00 PM 11.82 53.276 0.067 7.3 7.34 10.24
5/5/2021 8:45:00 PM 11.76 53.168 0.068 7.27 7.02 10.25
5/5/2021 9:00:00 PM 11.68 53.024 0.068 7.29 6.87 10.26
5/5/2021 9:15:00 PM 11.62 52.916 0.068 7.29 6.8 10.27
5/5/2021 9:30:00 PM 11.56 52.808 0.068 7.28 6.9 10.28
5/5/2021 9:45:00 PM 11.51 52.718 0.068 7.28 6.4 10.3
5/5/2021 10:00:00 PM 11.45 52.61 0.068 7.28 6.7 10.31
5/5/2021 10:15:00 PM 11.4 52.52 0.068 7.29 6.61 10.33
5/5/2021 10:30:00 PM 11.35 52.43 0.068 7.29 6.31 10.34
5/5/2021 10:45:00 PM 11.3 52.34 0.068 7.29 6.24 10.35
5/5/2021 11:00:00 PM 11.25 52.25 0.068 7.27 5.79 10.37
5/5/2021 11:15:00 PM 11.21 52.178 0.068 7.29 5.64 10.38
5/5/2021 11:30:00 PM 11.16 52.088 0.068 7.27 5.6 10.39
5/5/2021 11:45:00 PM 11.11 51.998 0.068 7.28 5.9 10.4
5/6/2021 12:00:00 AM 11.06 51.908 0.068 7.29 5.37 10.41
5/6/2021 12:15:00 AM 11.01 51.818 0.068 7.29 5.31 10.43
5/6/2021 12:30:00 AM 10.97 51.746 0.068 7.29 5.36 10.44
5/6/2021 12:45:00 AM 10.92 51.656 0.068 7.29 5.09 10.44
5/6/2021 1:00:00 AM 10.87 51.566 0.068 7.3 5.35 10.46
5/6/2021 1:15:00 AM 10.82 51.476 0.068 7.29 5.01 10.47
5/6/2021 1:30:00 AM 10.77 51.386 0.068 7.28 5.19 10.48
5/6/2021 1:45:00 AM 10.73 51.314 0.068 7.27 4.85 10.5
5/6/2021 2:00:00 AM 10.68 51.224 0.068 7.28 4.9 10.51
5/6/2021 2:15:00 AM 10.63 51.134 0.068 7.28 4.72 10.53
5/6/2021 2:30:00 AM 10.57 51.026 0.068 7.28 5.1 10.54
5/6/2021 2:45:00 AM 10.52 50.936 0.069 7.27 4.77 10.56
5/6/2021 3:00:00 AM 10.47 50.846 0.069 7.27 4.78 10.57
5/6/2021 3:15:00 AM 10.42 50.756 0.069 7.28 4.42 10.58
5/6/2021 3:30:00 AM 10.36 50.648 0.069 7.27 4.81 10.6
5/6/2021 3:45:00 AM 10.32 50.576 0.069 7.27 4.63 10.61
5/6/2021 4:00:00 AM 10.28 50.504 0.069 7.27 4.38 10.63
5/6/2021 4:15:00 AM 10.24 50.432 0.069 7.27 4.5 10.64
5/6/2021 4:30:00 AM 10.2 50.36 0.068 7.26 4.48 10.65
5/6/2021 4:45:00 AM 10.17 50.306 0.068 7.27 4.33 10.66
5/6/2021 5:00:00 AM 10.12 50.216 0.068 7.27 4.2 10.67
5/6/2021 5:15:00 AM 10.08 50.144 0.069 7.27 4.17 10.69
5/6/2021 5:30:00 AM 10.04 50.072 0.069 7.24 4.17 10.7
5/6/2021 5:45:00 AM 9.98 49.964 0.069 7.27 4.16 10.72
5/6/2021 6:00:00 AM 9.91 49.838 0.069 7.27 4.08 10.74
5/6/2021 6:15:00 AM 9.85 49.73 0.068 7.28 3.98 10.78
5/6/2021 6:30:00 AM 9.81 49.658 0.068 7.29 4.1 10.82
5/6/2021 6:45:00 AM 9.77 49.586 0.068 7.3 3.99 10.87
5/6/2021 7:00:00 AM 9.75 49.55 0.068 7.32 3.86 10.95
5/6/2021 7:15:00 AM 9.72 49.496 0.068 7.32 3.84 11.02
5/6/2021 7:30:00 AM 9.68 49.424 0.068 7.35 3.97 11.07
5/6/2021 7:45:00 AM 9.65 49.37 0.068 7.38 3.77 11.14
5/6/2021 8:00:00 AM 9.65 49.37 0.068 7.42 3.6 11.25
5/6/2021 8:15:00 AM 9.64 49.352 0.068 7.45 3.61 11.31
5/6/2021 8:30:00 AM 9.65 49.37 0.068 7.48 3.64 11.37
5/6/2021 8:45:00 AM 9.72 49.496 0.068 7.53 3.52 11.45
5/6/2021 9:00:00 AM 9.71 49.478 0.067 7.51 3.54 11.45
5/6/2021 9:15:00 AM 9.78 49.604 0.067 7.56 3.4 11.47
5/6/2021 9:30:00 AM 9.96 49.928 0.067 7.63 3.76 11.52
5/6/2021 9:45:00 AM 9.98 49.964 0.068 7.64 3.84 11.51
5/6/2021 10:00:00 AM 10.08 50.144 0.068 7.67 3.91 11.51
5/6/2021 10:15:00 AM 10.31 50.558 0.067 7.69 3.64 11.53
5/6/2021 10:30:00 AM 10.49 50.882 0.067 7.74 3.48 11.53
5/6/2021 10:45:00 AM 10.57 51.026 0.067 7.73 3.42 11.48
5/6/2021 11:00:00 AM 10.76 51.368 0.067 7.77 3.34 11.47
5/6/2021 11:15:00 AM 10.98 51.764 0.067 7.78 3.3 11.44
5/6/2021 11:30:00 AM 11.13 52.034 0.067 7.8 3.26 11.41
5/6/2021 11:45:00 AM 11.35 52.43 0.067 7.82 3.47 11.39
5/6/2021 12:00:00 PM 11.58 52.844 0.067 7.85 3.45 11.33
5/6/2021 12:15:00 PM 11.81 53.258 0.067 7.88 3.36 11.28
5/6/2021 12:30:00 PM 12.01 53.618 0.067 7.9 3.4 11.22
5/6/2021 12:45:00 PM 12.21 53.978 0.067 7.91 3.34 11.17
5/6/2021 1:00:00 PM 12.42 54.356 0.067 7.93 3.27 11.12
5/6/2021 1:15:00 PM 12.56 54.608 0.067 7.94 3.29 11.08
5/6/2021 1:30:00 PM 12.71 54.878 0.067 7.96 3.26 11.03
5/6/2021 1:45:00 PM 12.85 55.13 0.067 7.95 3.27 10.98
5/6/2021 2:00:00 PM 13.04 55.472 0.067 7.98 3.24 10.94
5/6/2021 2:15:00 PM 13.24 55.832 0.067 7.99 3.5 10.91
5/6/2021 2:30:00 PM 13.37 56.066 0.067 7.99 3.23 10.87
5/6/2021 2:45:00 PM 13.48 56.264 0.066 7.96 3.36 10.81
5/6/2021 3:00:00 PM 13.59 56.462 0.066 7.94 3.13 10.74
5/6/2021 3:15:00 PM 13.65 56.57 0.066 7.93 3.23 10.7
5/6/2021 3:30:00 PM 13.68 56.624 0.066 7.91 3.3 10.67
5/6/2021 3:45:00 PM 13.71 56.678 0.066 7.89 3.25 10.63
5/6/2021 4:00:00 PM 13.71 56.678 0.065 7.87 3.32 10.6
5/6/2021 4:15:00 PM 13.71 56.678 0.065 7.85 3.34 10.58
5/6/2021 4:30:00 PM 13.68 56.624 0.065 7.82 3.29 10.56
5/6/2021 4:45:00 PM 13.61 56.498 0.065 7.8 3.2 10.56
5/6/2021 5:00:00 PM 13.57 56.426 0.065 7.8 3.27 10.56
5/6/2021 5:15:00 PM 13.49 56.282 0.065 7.79 3.26 10.56
5/6/2021 5:30:00 PM 13.42 56.156 0.065 7.77 3.19 10.57
5/6/2021 5:45:00 PM 13.35 56.03 0.065 7.76 3.23 10.57
5/6/2021 6:00:00 PM 13.26 55.868 0.065 7.73 3.29 10.58
5/6/2021 6:15:00 PM 13.14 55.652 0.065 7.71 3.15 10.56
5/6/2021 6:30:00 PM 13.03 55.454 0.065 7.67 3.29 10.54
5/6/2021 6:45:00 PM 12.92 55.256 0.066 7.62 3.22 10.53
5/6/2021 7:00:00 PM 12.79 55.022 0.066 7.59 3.25 10.49
5/6/2021 7:15:00 PM 12.65 54.77 0.066 7.53 3.11 10.44
5/6/2021 7:30:00 PM 12.52 54.536 0.066 7.49 3.15 10.39
5/6/2021 7:45:00 PM 12.41 54.338 0.066 7.44 3.27 10.33
5/6/2021 8:00:00 PM 12.28 54.104 0.067 7.39 3.41 10.28
5/6/2021 8:15:00 PM 12.16 53.888 0.067 7.35 3.32 10.23
5/6/2021 8:30:00 PM 12.04 53.672 0.067 7.32 3.27 10.19
5/6/2021 8:45:00 PM 11.93 53.474 0.067 7.29 3.57 10.18
5/6/2021 9:00:00 PM 11.82 53.276 0.067 7.28 3.62 10.18
5/6/2021 9:15:00 PM 11.7 53.06 0.068 7.25 3.72 10.2
5/6/2021 9:30:00 PM 11.58 52.844 0.068 7.3 3.64 10.22
5/6/2021 9:45:00 PM 11.47 52.646 0.068 7.25 3.66 10.24
5/6/2021 10:00:00 PM 11.35 52.43 0.068 7.28 3.45 10.27
5/6/2021 10:15:00 PM 11.23 52.214 0.068 7.24 3.38 10.3
5/6/2021 10:30:00 PM 11.11 51.998 0.068 7.24 3.56 10.34
5/6/2021 10:45:00 PM 10.98 51.764 0.068 7.25 3.5 10.37
5/6/2021 11:00:00 PM 10.86 51.548 0.068 7.23 3.49 10.4
5/6/2021 11:15:00 PM 10.74 51.332 0.068 7.23 3.56 10.44
5/6/2021 11:30:00 PM 10.63 51.134 0.069 7.23 3.28 10.47
5/6/2021 11:45:00 PM 10.52 50.936 0.069 7.23 3.3 10.5
5/7/2021 12:00:00 AM 10.41 50.738 0.069 7.25 3.2 10.53
5/7/2021 12:15:00 AM 10.3 50.54 0.069 7.24 3.29 10.56
5/7/2021 12:30:00 AM 10.2 50.36 0.069 7.23 3.31 10.59
5/7/2021 12:45:00 AM 10.1 50.18 0.069 7.25 3.19 10.62
5/7/2021 1:00:00 AM 9.99 49.982 0.069 7.25 3 10.65
5/7/2021 1:15:00 AM 9.88 49.784 0.069 7.24 3.07 10.68
5/7/2021 1:30:00 AM 9.78 49.604 0.069 7.24 3.21 10.7
5/7/2021 1:45:00 AM 9.67 49.406 0.069 7.22 3.04 10.73
5/7/2021 2:00:00 AM 9.57 49.226 0.069 7.22 2.95 10.76
5/7/2021 2:15:00 AM 9.47 49.046 0.069 7.25 3 10.79
5/7/2021 2:30:00 AM 9.37 48.866 0.069 7.25 2.92 10.82
5/7/2021 2:45:00 AM 9.27 48.686 0.069 7.2 2.93 10.84
5/7/2021 3:00:00 AM 9.17 48.506 0.069 7.24 2.87 10.87
5/7/2021 3:15:00 AM 9.08 48.344 0.069 7.25 2.94 10.9
5/7/2021 3:30:00 AM 8.98 48.164 0.069 7.26 2.93 10.92
5/7/2021 3:45:00 AM 8.89 48.002 0.069 7.26 3.06 10.95
5/7/2021 4:00:00 AM 8.8 47.84 0.069 7.24 2.8 10.98
5/7/2021 4:15:00 AM 8.71 47.678 0.069 7.23 2.86 11
5/7/2021 4:30:00 AM 8.62 47.516 0.069 7.25 2.86 11.02
5/7/2021 4:45:00 AM 8.54 47.372 0.069 7.25 2.9 11.05
5/7/2021 5:00:00 AM 8.45 47.21 0.069 7.25 2.85 11.07
5/7/2021 5:15:00 AM 8.37 47.066 0.069 7.26 2.88 11.09
5/7/2021 5:30:00 AM 8.28 46.904 0.069 7.25 2.76 11.11
5/7/2021 5:45:00 AM 8.2 46.76 0.069 7.2 2.73 11.14
5/7/2021 6:00:00 AM 8.13 46.634 0.069 7.26 2.72 11.18
5/7/2021 6:15:00 AM 8.05 46.49 0.069 7.27 2.81 11.23
5/7/2021 6:30:00 AM 7.99 46.382 0.069 7.25 2.65 11.3
5/7/2021 6:45:00 AM 7.92 46.256 0.069 7.29 2.75 11.37
5/7/2021 7:00:00 AM 7.87 46.166 0.069 7.31 2.76 11.44
5/7/2021 7:15:00 AM 7.82 46.076 0.069 7.32 2.61 11.54
5/7/2021 7:30:00 AM 7.8 46.04 0.069 7.36 2.66 11.63
5/7/2021 7:45:00 AM 7.79 46.022 0.069 7.35 2.51 11.71
5/7/2021 8:00:00 AM 7.8 46.04 0.069 7.41 2.63 11.79
5/7/2021 8:15:00 AM 7.82 46.076 0.069 7.45 2.62 11.86
5/7/2021 8:30:00 AM 7.88 46.184 0.069 7.49 2.48 11.92
5/7/2021 8:45:00 AM 7.98 46.364 0.069 7.54 2.45 11.97
5/7/2021 9:00:00 AM 8.1 46.58 0.069 7.58 2.45 12.02
5/7/2021 9:15:00 AM 8.25 46.85 0.069 7.62 2.46 12.04
5/7/2021 9:30:00 AM 8.41 47.138 0.069 7.65 2.42 12.06
5/7/2021 9:45:00 AM 8.6 47.48 0.069 7.71 2.37 12.05
5/7/2021 10:00:00 AM 8.8 47.84 0.068 7.74 2.45 12.03
5/7/2021 10:15:00 AM 9 48.2 0.068 7.75 2.48 11.99
5/7/2021 10:30:00 AM 9.2 48.56 0.068 7.81 2.41 11.96
5/7/2021 10:45:00 AM 9.41 48.938 0.068 7.83 2.44 11.92
5/7/2021 11:00:00 AM 9.63 49.334 0.068 7.88 2.4 11.87
5/7/2021 11:15:00 AM 9.85 49.73 0.068 7.92 2.4 11.83
5/7/2021 11:30:00 AM 10.1 50.18 0.068 7.95 2.33 11.78
5/7/2021 11:45:00 AM 10.36 50.648 0.068 7.98 2.39 11.73
5/7/2021 12:00:00 PM 10.65 51.17 0.068 8.01 2.34 11.68
5/7/2021 12:15:00 PM 10.87 51.566 0.068 8.05 2.39 11.61
5/7/2021 12:30:00 PM 11.04 51.872 0.068 8.07 2.43 11.55
5/7/2021 12:45:00 PM 11.16 52.088 0.068 8.08 2.46 11.5
5/7/2021 1:00:00 PM 11.22 52.196 0.068 8.11 2.39 11.46
5/7/2021 1:15:00 PM 11.27 52.286 0.068 8.07 2.85 11.38
5/7/2021 1:30:00 PM 11.33 52.394 0.068 8.08 2.82 11.35
5/7/2021 1:45:00 PM 11.46 52.628 0.068 8.09 2.6 11.29
5/7/2021 2:00:00 PM 11.54 52.772 0.068 8.06 2.48 11.23
5/7/2021 2:15:00 PM 11.57 52.826 0.068 8.06 2.57 11.21
5/7/2021 2:30:00 PM 11.61 52.898 0.068 8.04 2.5 11.2
5/7/2021 2:45:00 PM 11.64 52.952 0.068 8.06 2.45 11.17
5/7/2021 3:00:00 PM 11.66 52.988 0.068 8.01 2.59 11.13
5/7/2021 3:15:00 PM 11.69 53.042 0.068 8.03 2.59 11.15
5/7/2021 3:30:00 PM 11.73 53.114 0.068 8.04 2.59 11.14
5/7/2021 3:45:00 PM 11.74 53.132 0.068 8.04 2.6 11.14
5/7/2021 4:00:00 PM 11.76 53.168 0.068 8.03 2.74 11.16
5/7/2021 4:15:00 PM 11.76 53.168 0.068 8.07 2.46 11.16
5/7/2021 4:30:00 PM 11.76 53.168 0.068 8.04 2.49 11.14
5/7/2021 4:45:00 PM 11.77 53.186 0.068 8.05 2.37 11.14
5/7/2021 5:00:00 PM 11.79 53.222 0.068 8.03 2.52 11.12
5/7/2021 5:15:00 PM 11.76 53.168 0.067 7.92 2.44 11
5/7/2021 5:30:00 PM 11.74 53.132 0.067 7.85 2.48 10.94
5/7/2021 5:45:00 PM 11.72 53.096 0.067 7.79 2.52 10.92
5/7/2021 6:00:00 PM 11.69 53.042 0.067 7.78 2.57 10.91
5/7/2021 6:15:00 PM 11.65 52.97 0.068 7.74 2.46 10.86
5/7/2021 6:30:00 PM 11.6 52.88 0.068 7.67 2.54 10.77
5/7/2021 6:45:00 PM 11.55 52.79 0.068 7.58 2.52 10.67
5/7/2021 7:00:00 PM 11.51 52.718 0.068 7.54 2.68 10.62
5/7/2021 7:15:00 PM 11.46 52.628 0.069 7.51 2.6 10.6
5/7/2021 7:30:00 PM 11.39 52.502 0.069 7.48 2.65 10.53
5/7/2021 7:45:00 PM 11.32 52.376 0.069 7.42 2.64 10.47
5/7/2021 8:00:00 PM 11.26 52.268 0.069 7.39 2.55 10.42
5/7/2021 8:15:00 PM 11.19 52.142 0.069 7.37 2.73 10.38
5/7/2021 8:30:00 PM 11.12 52.016 0.07 7.35 2.85 10.35
5/7/2021 8:45:00 PM 11.05 51.89 0.07 7.35 2.83 10.34
5/7/2021 9:00:00 PM 10.99 51.782 0.07 7.33 2.8 10.34
5/7/2021 9:15:00 PM 10.92 51.656 0.07 7.32 2.88 10.34
5/7/2021 9:30:00 PM 10.85 51.53 0.07 7.32 2.76 10.36
5/7/2021 9:45:00 PM 10.79 51.422 0.07 7.28 2.67 10.37
5/7/2021 10:00:00 PM 10.72 51.296 0.07 7.29 2.73 10.39
5/7/2021 10:15:00 PM 10.66 51.188 0.07 7.28 2.82 10.4
5/7/2021 10:30:00 PM 10.6 51.08 0.07 7.28 2.67 10.42
5/7/2021 10:45:00 PM 10.54 50.972 0.07 7.29 2.65 10.44
5/7/2021 11:00:00 PM 10.48 50.864 0.07 7.28 2.71 10.45
5/7/2021 11:15:00 PM 10.43 50.774 0.071 7.28 2.61 10.47
5/7/2021 11:30:00 PM 10.38 50.684 0.071 7.29 2.66 10.48
5/7/2021 11:45:00 PM 10.33 50.594 0.071 7.29 2.58 10.49
5/8/2021 12:00:00 AM 10.29 50.522 0.071 7.28 2.63 10.5
5/8/2021 12:15:00 AM 10.25 50.45 0.071 7.27 2.56 10.52
5/8/2021 12:30:00 AM 10.21 50.378 0.071 7.3 2.68 10.52
5/8/2021 12:45:00 AM 10.17 50.306 0.071 7.26 2.7 10.54
5/8/2021 1:00:00 AM 10.13 50.234 0.071 7.29 2.62 10.55
5/8/2021 1:15:00 AM 10.09 50.162 0.071 7.29 2.7 10.56
5/8/2021 1:30:00 AM 10.05 50.09 0.071 7.3 2.51 10.56
5/8/2021 1:45:00 AM 10.02 50.036 0.071 7.25 2.5 10.57
5/8/2021 2:00:00 AM 9.98 49.964 0.071 7.27 2.49 10.58
5/8/2021 2:15:00 AM 9.95 49.91 0.071 7.3 2.49 10.59
5/8/2021 2:30:00 AM 9.92 49.856 0.071 7.29 2.47 10.6
5/8/2021 2:45:00 AM 9.89 49.802 0.071 7.29 2.52 10.6
5/8/2021 3:00:00 AM 9.85 49.73 0.071 7.3 2.5 10.61
5/8/2021 3:15:00 AM 9.82 49.676 0.071 7.29 2.51 10.62
5/8/2021 3:30:00 AM 9.79 49.622 0.071 7.25 2.59 10.62
5/8/2021 3:45:00 AM 9.76 49.568 0.071 7.28 2.57 10.63
5/8/2021 4:00:00 AM 9.73 49.514 0.071 7.29 2.47 10.64
5/8/2021 4:15:00 AM 9.7 49.46 0.071 7.28 2.57 10.65
5/8/2021 4:30:00 AM 9.67 49.406 0.071 7.27 2.53 10.66
5/8/2021 4:45:00 AM 9.64 49.352 0.071 7.29 2.6 10.67
5/8/2021 5:00:00 AM 9.6 49.28 0.07 7.29 2.56 10.68
5/8/2021 5:15:00 AM 9.55 49.19 0.07 7.29 2.57 10.69
5/8/2021 5:30:00 AM 9.51 49.118 0.07 7.26 2.56 10.7
5/8/2021 5:45:00 AM 9.48 49.064 0.07 7.28 2.48 10.71
5/8/2021 6:00:00 AM 9.44 48.992 0.07 7.3 2.52 10.73
5/8/2021 6:15:00 AM 9.4 48.92 0.07 7.29 2.54 10.75
5/8/2021 6:30:00 AM 9.36 48.848 0.07 7.29 2.55 10.78
5/8/2021 6:45:00 AM 9.32 48.776 0.07 7.3 2.49 10.81
5/8/2021 7:00:00 AM 9.29 48.722 0.07 7.31 2.6 10.85
5/8/2021 7:15:00 AM 9.26 48.668 0.07 7.28 2.5 10.88
5/8/2021 7:30:00 AM 9.23 48.614 0.069 7.3 2.56 10.93
5/8/2021 7:45:00 AM 9.21 48.578 0.069 7.32 2.54 11
5/8/2021 8:00:00 AM 9.18 48.524 0.069 7.37 2.6 11.08
5/8/2021 8:15:00 AM 9.17 48.506 0.069 7.4 2.66 11.19
5/8/2021 8:30:00 AM 9.16 48.488 0.069 7.42 2.73 11.26
5/8/2021 8:45:00 AM 9.14 48.452 0.069 7.4 2.75 11.26
5/8/2021 9:00:00 AM 9.12 48.416 0.069 7.43 2.77 11.29
5/8/2021 9:15:00 AM 9.12 48.416 0.069 7.47 2.74 11.36
5/8/2021 9:30:00 AM 9.11 48.398 0.069 7.48 2.8 11.44
5/8/2021 9:45:00 AM 9.1 48.38 0.069 7.54 2.78 11.5
5/8/2021 10:00:00 AM 9.11 48.398 0.069 7.57 2.87 11.56
5/8/2021 10:15:00 AM 9.11 48.398 0.068 7.6 2.81 11.64
5/8/2021 10:30:00 AM 9.16 48.488 0.068 7.68 2.84 11.73
5/8/2021 10:45:00 AM 9.22 48.596 0.068 7.75 2.85 11.78
5/8/2021 11:00:00 AM 9.27 48.686 0.068 7.79 2.83 11.82
5/8/2021 11:15:00 AM 9.3 48.74 0.068 7.84 2.86 11.83
5/8/2021 11:30:00 AM 9.34 48.812 0.068 7.88 2.8 11.84
5/8/2021 11:45:00 AM 9.44 48.992 0.068 7.94 2.82 11.87
5/8/2021 12:00:00 PM 9.52 49.136 0.068 7.99 2.87 11.86
5/8/2021 12:15:00 PM 9.55 49.19 0.068 7.97 2.83 11.81
5/8/2021 12:30:00 PM 9.55 49.19 0.068 7.94 2.89 11.76
5/8/2021 12:45:00 PM 9.55 49.19 0.068 7.93 2.77 11.73
5/8/2021 1:00:00 PM 9.57 49.226 0.068 7.92 2.72 11.72
5/8/2021 1:15:00 PM 9.59 49.262 0.068 7.93 2.72 11.73
5/8/2021 1:30:00 PM 9.69 49.442 0.068 8.01 2.82 11.76
5/8/2021 1:45:00 PM 9.75 49.55 0.068 8.04 2.74 11.75
5/8/2021 2:00:00 PM 9.8 49.64 0.068 8.07 2.59 11.76
5/8/2021 2:15:00 PM 9.85 49.73 0.067 8.04 2.69 11.71
5/8/2021 2:30:00 PM 9.85 49.73 0.068 7.92 2.6 11.59
5/8/2021 2:45:00 PM 9.85 49.73 0.068 7.87 2.54 11.54
5/8/2021 3:00:00 PM 9.88 49.784 0.068 7.92 2.58 11.58
5/8/2021 3:15:00 PM 9.85 49.73 0.068 7.84 2.54 11.51
5/8/2021 3:30:00 PM 9.81 49.658 0.068 7.77 2.6 11.47
5/8/2021 3:45:00 PM 9.84 49.712 0.068 7.82 2.47 11.5
5/8/2021 4:00:00 PM 9.89 49.802 0.068 7.87 2.52 11.54
5/8/2021 4:15:00 PM 9.88 49.784 0.068 7.78 2.54 11.48
5/8/2021 4:30:00 PM 9.83 49.694 0.068 7.73 2.55 11.42
5/8/2021 4:45:00 PM 9.83 49.694 0.068 7.72 2.51 11.42
5/8/2021 5:00:00 PM 9.81 49.658 0.068 7.67 2.47 11.35
5/8/2021 5:15:00 PM 9.77 49.586 0.068 7.63 2.43 11.32
5/8/2021 5:30:00 PM 9.77 49.586 0.068 7.66 2.49 11.39
5/8/2021 5:45:00 PM 9.76 49.568 0.068 7.7 2.46 11.45
5/8/2021 6:00:00 PM 9.72 49.496 0.068 7.65 2.55 11.38
5/8/2021 6:15:00 PM 9.67 49.406 0.069 7.58 2.43 11.24
5/8/2021 6:30:00 PM 9.65 49.37 0.069 7.52 2.44 11.21
5/8/2021 6:45:00 PM 9.64 49.352 0.069 7.56 2.6 11.26
5/8/2021 7:00:00 PM 9.61 49.298 0.069 7.52 2.48 11.2
5/8/2021 7:15:00 PM 9.56 49.208 0.069 7.46 2.62 11.11
5/8/2021 7:30:00 PM 9.52 49.136 0.069 7.44 2.74 11.06
5/8/2021 7:45:00 PM 9.48 49.064 0.069 7.41 2.53 11.03
5/8/2021 8:00:00 PM 9.44 48.992 0.069 7.4 2.62 10.98
5/8/2021 8:15:00 PM 9.42 48.956 0.069 7.37 2.68 10.93
5/8/2021 8:30:00 PM 9.38 48.884 0.069 7.35 2.58 10.91
5/8/2021 8:45:00 PM 9.35 48.83 0.069 7.32 2.58 10.89
5/8/2021 9:00:00 PM 9.32 48.776 0.07 7.31 2.62 10.88
5/8/2021 9:15:00 PM 9.28 48.704 0.07 7.31 2.63 10.88
5/8/2021 9:30:00 PM 9.25 48.65 0.07 7.29 2.68 10.89
5/8/2021 9:45:00 PM 9.21 48.578 0.07 7.31 2.63 10.9
5/8/2021 10:00:00 PM 9.15 48.47 0.07 7.28 2.71 10.9
5/8/2021 10:15:00 PM 9.09 48.362 0.07 7.3 2.73 10.92
5/8/2021 10:30:00 PM 9.04 48.272 0.07 7.29 2.56 10.93
5/8/2021 10:45:00 PM 8.98 48.164 0.07 7.28 2.57 10.95
5/8/2021 11:00:00 PM 8.93 48.074 0.07 7.27 2.54 10.96
5/8/2021 11:15:00 PM 8.87 47.966 0.07 7.29 2.59 10.98
5/8/2021 11:30:00 PM 8.83 47.894 0.07 7.27 2.58 11
5/8/2021 11:45:00 PM 8.8 47.84 0.07 7.28 2.63 11.01
5/9/2021 12:00:00 AM 8.77 47.786 0.07 7.26 2.45 11.02
5/9/2021 12:15:00 AM 8.73 47.714 0.07 7.26 2.51 11.03
5/9/2021 12:30:00 AM 8.7 47.66 0.07 7.27 2.45 11.04
5/9/2021 12:45:00 AM 8.65 47.57 0.07 7.29 2.51 11.05
5/9/2021 1:00:00 AM 8.6 47.48 0.07 7.28 2.47 11.06
5/9/2021 1:15:00 AM 8.54 47.372 0.07 7.27 2.56 11.08
5/9/2021 1:30:00 AM 8.48 47.264 0.07 7.28 2.41 11.1
5/9/2021 1:45:00 AM 8.42 47.156 0.07 7.26 2.42 11.11
5/9/2021 2:00:00 AM 8.35 47.03 0.07 7.28 2.4 11.13
5/9/2021 2:15:00 AM 8.3 46.94 0.07 7.28 2.4 11.14
5/9/2021 2:30:00 AM 8.24 46.832 0.07 7.25 2.49 11.16
5/9/2021 2:45:00 AM 8.19 46.742 0.07 7.28 2.35 11.18
5/9/2021 3:00:00 AM 8.14 46.652 0.07 7.28 2.25 11.19
5/9/2021 3:15:00 AM 8.1 46.58 0.07 7.25 2.32 11.2
5/9/2021 3:30:00 AM 8.06 46.508 0.07 7.28 2.26 11.22
5/9/2021 3:45:00 AM 8.01 46.418 0.07 7.28 2.39 11.24
5/9/2021 4:00:00 AM 7.97 46.346 0.07 7.28 2.28 11.25
5/9/2021 4:15:00 AM 7.92 46.256 0.07 7.26 2.34 11.26
5/9/2021 4:30:00 AM 7.85 46.13 0.07 7.26 2.24 11.29
5/9/2021 4:45:00 AM 7.76 45.968 0.07 7.27 2.3 11.31
5/9/2021 5:00:00 AM 7.7 45.86 0.07 7.28 2.28 11.33
5/9/2021 5:15:00 AM 7.63 45.734 0.07 7.28 2.26 11.35
5/9/2021 5:30:00 AM 7.59 45.662 0.07 7.28 2.26 11.36
5/9/2021 5:45:00 AM 7.53 45.554 0.07 7.28 2.3 11.38
5/9/2021 6:00:00 AM 7.48 45.464 0.07 7.29 2.24 11.42
5/9/2021 6:15:00 AM 7.43 45.374 0.07 7.3 2.29 11.47
5/9/2021 6:30:00 AM 7.38 45.284 0.07 7.29 2.24 11.55
5/9/2021 6:45:00 AM 7.35 45.23 0.07 7.32 2.26 11.64
5/9/2021 7:00:00 AM 7.32 45.176 0.07 7.36 2.2 11.75
5/9/2021 7:15:00 AM 7.3 45.14 0.07 7.39 2.17 11.86
5/9/2021 7:30:00 AM 7.29 45.122 0.07 7.42 2.17 11.98
5/9/2021 7:45:00 AM 7.3 45.14 0.07 7.47 2.15 12.07
5/9/2021 8:00:00 AM 7.32 45.176 0.07 7.53 2.13 12.15
5/9/2021 8:15:00 AM 7.35 45.23 0.07 7.57 2.13 12.23
5/9/2021 8:30:00 AM 7.43 45.374 0.069 7.62 2.07 12.31
5/9/2021 8:45:00 AM 7.52 45.536 0.069 7.66 2.06 12.4
5/9/2021 9:00:00 AM 7.63 45.734 0.069 7.77 2.05 12.44
5/9/2021 9:15:00 AM 7.78 46.004 0.069 7.83 2.1 12.46
5/9/2021 9:30:00 AM 7.89 46.202 0.069 7.89 2.13 12.45
5/9/2021 9:45:00 AM 8.01 46.418 0.069 7.94 2.07 12.45
5/9/2021 10:00:00 AM 8.13 46.634 0.069 7.98 2.08 12.43
5/9/2021 10:15:00 AM 8.23 46.814 0.069 8.05 2.15 12.42
5/9/2021 10:30:00 AM 8.37 47.066 0.069 8.11 2.11 12.39
5/9/2021 10:45:00 AM 8.5 47.3 0.069 8.12 2.12 12.37
5/9/2021 11:00:00 AM 8.62 47.516 0.069 8.17 2.16 12.33
5/9/2021 11:15:00 AM 8.73 47.714 0.069 8.21 2.09 12.29
5/9/2021 11:30:00 AM 8.86 47.948 0.069 8.24 2.15 12.26
5/9/2021 11:45:00 AM 8.97 48.146 0.068 8.28 2.11 12.22
5/9/2021 12:00:00 PM 9.11 48.398 0.068 8.31 2.04 12.2
5/9/2021 12:15:00 PM 9.27 48.686 0.068 8.34 2.12 12.17
5/9/2021 12:30:00 PM 9.41 48.938 0.068 8.38 2.13 12.12
5/9/2021 12:45:00 PM 9.55 49.19 0.068 8.41 2.2 12.09
5/9/2021 1:00:00 PM 9.71 49.478 0.068 8.44 2.07 12.05
5/9/2021 1:15:00 PM 9.8 49.64 0.068 8.43 2.27 12
5/9/2021 1:30:00 PM 9.85 49.73 0.068 8.42 2.13 11.93
5/9/2021 1:45:00 PM 9.9 49.82 0.068 8.39 2.26 11.87
5/9/2021 2:00:00 PM 9.94 49.892 0.068 8.4 2.16 11.84
5/9/2021 2:15:00 PM 9.99 49.982 0.068 8.38 2.17 11.82
5/9/2021 2:30:00 PM 10.02 50.036 0.068 8.37 2.23 11.78
5/9/2021 2:45:00 PM 10.03 50.054 0.068 8.31 2.23 11.73
5/9/2021 3:00:00 PM 10.04 50.072 0.068 8.26 2.22 11.69
5/9/2021 3:15:00 PM 10.1 50.18 0.068 8.3 2.23 11.73
5/9/2021 3:30:00 PM 10.15 50.27 0.068 8.36 2.15 11.75
5/9/2021 3:45:00 PM 10.17 50.306 0.068 8.3 2.22 11.68
5/9/2021 4:00:00 PM 10.14 50.252 0.068 8.17 2.16 11.58
5/9/2021 4:15:00 PM 10.11 50.198 0.068 8 2.11 11.47
5/9/2021 4:30:00 PM 10.08 50.144 0.068 7.9 2.11 11.41
5/9/2021 4:45:00 PM 10.02 50.036 0.068 7.8 2.17 11.35
5/9/2021 5:00:00 PM 9.96 49.928 0.068 7.72 2.16 11.31
5/9/2021 5:15:00 PM 9.9 49.82 0.068 7.69 2.24 11.26
5/9/2021 5:30:00 PM 9.84 49.712 0.068 7.63 2.29 11.21
5/9/2021 5:45:00 PM 9.79 49.622 0.068 7.6 2.2 11.18
5/9/2021 6:00:00 PM 9.75 49.55 0.068 7.54 2.2 11.12
5/9/2021 6:15:00 PM 9.71 49.478 0.068 7.54 2.17 11.09
5/9/2021 6:30:00 PM 9.67 49.406 0.068 7.52 2.27 11.11
5/9/2021 6:45:00 PM 9.61 49.298 0.068 7.49 2.25 11.07
5/9/2021 7:00:00 PM 9.56 49.208 0.068 7.47 2.32 11.04
5/9/2021 7:15:00 PM 9.5 49.1 0.068 7.43 2.37 11.01
5/9/2021 7:30:00 PM 9.43 48.974 0.068 7.41 2.42 10.97
5/9/2021 7:45:00 PM 9.37 48.866 0.068 7.38 2.38 10.94
5/9/2021 8:00:00 PM 9.3 48.74 0.069 7.33 2.48 10.92
5/9/2021 8:15:00 PM 9.24 48.632 0.069 7.33 2.73 10.9
5/9/2021 8:30:00 PM 9.18 48.524 0.069 7.32 2.88 10.89
5/9/2021 8:45:00 PM 9.12 48.416 0.069 7.3 3.1 10.89
5/9/2021 9:00:00 PM 9.07 48.326 0.069 7.28 3.22 10.9
5/9/2021 9:15:00 PM 9.01 48.218 0.069 7.29 3.28 10.91
5/9/2021 9:30:00 PM 8.95 48.11 0.069 7.28 3.63 10.93
5/9/2021 9:45:00 PM 8.89 48.002 0.069 7.28 3.75 10.94
5/9/2021 10:00:00 PM 8.84 47.912 0.069 7.28 4.05 10.96
5/9/2021 10:15:00 PM 8.78 47.804 0.069 7.29 4.09 10.98
5/9/2021 10:30:00 PM 8.73 47.714 0.068 7.28 4.14 10.99
5/9/2021 10:45:00 PM 8.69 47.642 0.068 7.29 4.2 11.01
5/9/2021 11:00:00 PM 8.64 47.552 0.068 7.28 4.47 11.02
5/9/2021 11:15:00 PM 8.6 47.48 0.068 7.29 4.55 11.03
5/9/2021 11:30:00 PM 8.55 47.39 0.068 7.24 5.09 11.05
5/9/2021 11:45:00 PM 8.51 47.318 0.068 7.29 5.14 11.06
5/10/2021 12:00:00 AM 8.48 47.264 0.068 7.3 5.92 11.07
5/10/2021 12:15:00 AM 8.44 47.192 0.068 7.3 5.89 11.08
5/10/2021 12:30:00 AM 8.41 47.138 0.068 7.3 6.45 11.1
5/10/2021 12:45:00 AM 8.38 47.084 0.067 7.31 6.82 11.11
5/10/2021 1:00:00 AM 8.35 47.03 0.067 7.26 7.36 11.12
5/10/2021 1:15:00 AM 8.33 46.994 0.066 7.26 7.74 11.14
5/10/2021 1:30:00 AM 8.31 46.958 0.066 7.25 8.45 11.14
5/10/2021 1:45:00 AM 8.29 46.922 0.066 7.26 8.98 11.16
5/10/2021 2:00:00 AM 8.26 46.868 0.066 7.27 9.8 11.17
5/10/2021 2:15:00 AM 8.25 46.85 0.066 7.28 10.95 11.17
5/10/2021 2:30:00 AM 8.23 46.814 0.065 7.28 11.99 11.18
5/10/2021 2:45:00 AM 8.22 46.796 0.065 7.23 12.74 11.19
5/10/2021 3:00:00 AM 8.2 46.76 0.065 7.23 14.29 11.2
5/10/2021 3:15:00 AM 8.19 46.742 0.064 7.23 17.83 11.21
5/10/2021 3:30:00 AM 8.18 46.724 0.064 7.22 17.85 11.22
5/10/2021 3:45:00 AM 8.18 46.724 0.063 7.23 17.55 11.23
5/10/2021 4:00:00 AM 8.17 46.706 0.063 7.22 21.13 11.23
5/10/2021 4:15:00 AM 8.16 46.688 0.063 7.23 20.54 11.24
5/10/2021 4:30:00 AM 8.16 46.688 0.063 7.21 22.25 11.25
5/10/2021 4:45:00 AM 8.16 46.688 0.063 7.25 20.98 11.25
5/10/2021 5:00:00 AM 8.16 46.688 0.062 7.25 21.17 11.25
5/10/2021 5:15:00 AM 8.16 46.688 0.062 7.23 18.01 11.26
5/10/2021 5:30:00 AM 8.15 46.67 0.062 7.21 17.87 11.27
5/10/2021 5:45:00 AM 8.15 46.67 0.062 7.22 19.77 11.28
5/10/2021 6:00:00 AM 8.14 46.652 0.061 7.22 19.05 11.28
5/10/2021 6:15:00 AM 8.14 46.652 0.061 7.22 17.93 11.29
5/10/2021 6:30:00 AM 8.14 46.652 0.061 7.21 16.7 11.3
5/10/2021 6:45:00 AM 8.14 46.652 0.061 7.22 14.89 11.3
5/10/2021 7:00:00 AM 8.14 46.652 0.061 7.21 14.67 11.32
5/10/2021 7:15:00 AM 8.14 46.652 0.061 7.23 13.41 11.33
5/10/2021 7:30:00 AM 8.15 46.67 0.061 7.19 13.15 11.35
5/10/2021 7:45:00 AM 8.16 46.688 0.061 7.22 11.96 11.39
5/10/2021 8:00:00 AM 8.17 46.706 0.061 7.25 11.36 11.41
5/10/2021 8:15:00 AM 8.19 46.742 0.062 7.26 10.92 11.42
5/10/2021 8:30:00 AM 8.21 46.778 0.062 7.25 10.13 11.44
5/10/2021 8:45:00 AM 8.24 46.832 0.062 7.25 9.62 11.47
5/10/2021 9:00:00 AM 8.27 46.886 0.062 7.31 9.39 11.51
5/10/2021 9:15:00 AM 8.3 46.94 0.062 7.27 8.61 11.53
5/10/2021 9:30:00 AM 8.33 46.994 0.062 7.31 8.41 11.54
5/10/2021 9:45:00 AM 8.36 47.048 0.062 7.3 8.15 11.55
5/10/2021 10:00:00 AM 8.37 47.066 0.062 7.31 7.64 11.51
5/10/2021 10:15:00 AM 8.36 47.048 0.062 7.3 7.43 11.48
5/10/2021 10:30:00 AM 8.36 47.048 0.062 7.31 7.18 11.48
5/10/2021 10:45:00 AM 8.38 47.084 0.062 7.31 6.59 11.51
5/10/2021 11:00:00 AM 8.39 47.102 0.062 7.32 6.67 11.52
5/10/2021 11:15:00 AM 8.42 47.156 0.062 7.34 6.22 11.55
5/10/2021 11:30:00 AM 8.44 47.192 0.062 7.33 6.38 11.57
5/10/2021 11:45:00 AM 8.49 47.282 0.062 7.37 6.14 11.63
5/10/2021 12:00:00 PM 8.58 47.444 0.061 7.44 6.13 11.73
5/10/2021 12:15:00 PM 8.69 47.642 0.061 7.48 5.95 11.81
5/10/2021 12:30:00 PM 8.74 47.732 0.061 7.48 5.63 11.75
5/10/2021 12:45:00 PM 8.82 47.876 0.061 7.51 5.34 11.78
5/10/2021 1:00:00 PM 8.9 48.02 0.061 7.51 5.35 11.79
5/10/2021 1:15:00 PM 8.93 48.074 0.061 7.5 5.27 11.71
5/10/2021 1:30:00 PM 8.98 48.164 0.061 7.51 5.19 11.68
5/10/2021 1:45:00 PM 9.08 48.344 0.061 7.55 4.96 11.74
5/10/2021 2:00:00 PM 9.18 48.524 0.061 7.56 5.01 11.75
5/10/2021 2:15:00 PM 9.31 48.758 0.061 7.61 4.85 11.74
5/10/2021 2:30:00 PM 9.4 48.92 0.061 7.61 4.88 11.69
5/10/2021 2:45:00 PM 9.54 49.172 0.061 7.61 4.69 11.65
5/10/2021 3:00:00 PM 9.63 49.334 0.061 7.63 4.89 11.63
5/10/2021 3:15:00 PM 9.68 49.424 0.061 7.62 4.58 11.61
5/10/2021 3:30:00 PM 9.75 49.55 0.061 7.65 4.73 11.62
5/10/2021 3:45:00 PM 9.86 49.748 0.061 7.67 4.8 11.6
5/10/2021 4:00:00 PM 9.98 49.964 0.061 7.68 4.57 11.57
5/10/2021 4:15:00 PM 10.05 50.09 0.061 7.68 4.48 11.54
5/10/2021 4:30:00 PM 10.09 50.162 0.061 7.65 4.25 11.49
5/10/2021 4:45:00 PM 10.05 50.09 0.061 7.61 4.24 11.41
5/10/2021 5:00:00 PM 10.08 50.144 0.061 7.59 4.56 11.39
5/10/2021 5:15:00 PM 10.06 50.108 0.061 7.58 4.58 11.38
5/10/2021 5:30:00 PM 10.06 50.108 0.061 7.53 4.34 11.33
5/10/2021 5:45:00 PM 10.08 50.144 0.061 7.52 4.26 11.29
5/10/2021 6:00:00 PM 10.09 50.162 0.061 7.52 4.16 11.28
5/10/2021 6:15:00 PM 10.07 50.126 0.061 7.47 4.32 11.23
5/10/2021 6:30:00 PM 10.06 50.108 0.062 7.44 4.37 11.19
5/10/2021 6:45:00 PM 10.04 50.072 0.062 7.44 4.23 11.16
5/10/2021 7:00:00 PM 10.03 50.054 0.062 7.41 4.16 11.11
5/10/2021 7:15:00 PM 10 50 0.062 7.39 4.3 11.07
5/10/2021 7:30:00 PM 9.96 49.928 0.062 7.36 4.13 11.02
5/10/2021 7:45:00 PM 9.92 49.856 0.062 7.31 4.28 10.97
5/10/2021 8:00:00 PM 9.87 49.766 0.062 7.3 4.39 10.93
5/10/2021 8:15:00 PM 9.82 49.676 0.062 7.26 4.18 10.9
5/10/2021 8:30:00 PM 9.76 49.568 0.062 7.26 4.23 10.87
5/10/2021 8:45:00 PM 9.69 49.442 0.063 7.23 4.22 10.86
5/10/2021 9:00:00 PM 9.62 49.316 0.063 7.23 4.42 10.86
5/10/2021 9:15:00 PM 9.57 49.226 0.063 7.22 4.47 10.86
5/10/2021 9:30:00 PM 9.51 49.118 0.063 7.21 4.52 10.87
5/10/2021 9:45:00 PM 9.45 49.01 0.063 7.2 4.38 10.89
5/10/2021 10:00:00 PM 9.39 48.902 0.063 7.2 4.32 10.91
5/10/2021 10:15:00 PM 9.32 48.776 0.063 7.2 4.43 10.93
5/10/2021 10:30:00 PM 9.26 48.668 0.063 7.2 4.37 10.95
5/10/2021 10:45:00 PM 9.19 48.542 0.063 7.2 4.29 10.97
5/10/2021 11:00:00 PM 9.13 48.434 0.063 7.2 4.28 10.99
5/10/2021 11:15:00 PM 9.07 48.326 0.063 7.2 4.1 11.01
5/10/2021 11:30:00 PM 9 48.2 0.063 7.18 4 11.02
5/10/2021 11:45:00 PM 8.94 48.092 0.063 7.2 4.08 11.04
5/11/2021 12:00:00 AM 8.88 47.984 0.063 7.2 4.02 11.06
5/11/2021 12:15:00 AM 8.82 47.876 0.063 7.21 4.07 11.08
5/11/2021 12:30:00 AM 8.75 47.75 0.063 7.18 4.2 11.1
5/11/2021 12:45:00 AM 8.69 47.642 0.064 7.2 3.97 11.12
5/11/2021 1:00:00 AM 8.63 47.534 0.064 7.19 3.9 11.14
5/11/2021 1:15:00 AM 8.56 47.408 0.064 7.2 4.01 11.15
5/11/2021 1:30:00 AM 8.5 47.3 0.064 7.18 3.79 11.17
5/11/2021 1:45:00 AM 8.44 47.192 0.064 7.18 3.91 11.19
5/11/2021 2:00:00 AM 8.38 47.084 0.064 7.2 3.71 11.21
5/11/2021 2:15:00 AM 8.31 46.958 0.064 7.18 3.73 11.23
5/11/2021 2:30:00 AM 8.26 46.868 0.064 7.18 3.82 11.24
5/11/2021 2:45:00 AM 8.19 46.742 0.064 7.21 3.6 11.26
5/11/2021 3:00:00 AM 8.13 46.634 0.064 7.21 3.65 11.28
5/11/2021 3:15:00 AM 8.08 46.544 0.064 7.18 3.6 11.29
5/11/2021 3:30:00 AM 8.03 46.454 0.064 7.18 3.44 11.31
5/11/2021 3:45:00 AM 7.98 46.364 0.064 7.21 3.37 11.32
5/11/2021 4:00:00 AM 7.93 46.274 0.064 7.2 3.43 11.34
5/11/2021 4:15:00 AM 7.88 46.184 0.064 7.2 3.52 11.36
5/11/2021 4:30:00 AM 7.82 46.076 0.064 7.21 3.48 11.37
5/11/2021 4:45:00 AM 7.76 45.968 0.064 7.2 3.54 11.38
5/11/2021 5:00:00 AM 7.71 45.878 0.064 7.21 3.4 11.4
5/11/2021 5:15:00 AM 7.65 45.77 0.064 7.21 3.36 11.42
5/11/2021 5:30:00 AM 7.59 45.662 0.064 7.2 3.49 11.43
5/11/2021 5:45:00 AM 7.54 45.572 0.064 7.21 3.31 11.45
5/11/2021 6:00:00 AM 7.48 45.464 0.064 7.21 3.45 11.48
5/11/2021 6:15:00 AM 7.44 45.392 0.064 7.21 3.36 11.51
5/11/2021 6:30:00 AM 7.39 45.302 0.064 7.23 3.19 11.56
5/11/2021 6:45:00 AM 7.34 45.212 0.064 7.22 3.02 11.62
5/11/2021 7:00:00 AM 7.3 45.14 0.064 7.26 3.19 11.69
5/11/2021 7:15:00 AM 7.26 45.068 0.064 7.24 2.98 11.78
5/11/2021 7:30:00 AM 7.25 45.05 0.064 7.3 2.93 11.86
5/11/2021 7:45:00 AM 7.25 45.05 0.064 7.33 2.83 11.92
5/11/2021 8:00:00 AM 7.27 45.086 0.064 7.32 2.91 11.98
5/11/2021 8:15:00 AM 7.32 45.176 0.064 7.38 2.88 12.05
5/11/2021 8:30:00 AM 7.4 45.32 0.064 7.43 2.8 12.11
5/11/2021 8:45:00 AM 7.48 45.464 0.064 7.46 2.73 12.16
5/11/2021 9:00:00 AM 7.59 45.662 0.064 7.52 2.76 12.21
5/11/2021 9:15:00 AM 7.71 45.878 0.064 7.53 2.69 12.25
5/11/2021 9:30:00 AM 7.84 46.112 0.063 7.58 2.63 12.26
5/11/2021 9:45:00 AM 7.99 46.382 0.063 7.64 2.55 12.27
5/11/2021 10:00:00 AM 8.15 46.67 0.063 7.66 2.62 12.25
5/11/2021 10:15:00 AM 8.31 46.958 0.063 7.69 2.55 12.23
5/11/2021 10:30:00 AM 8.47 47.246 0.063 7.73 2.53 12.19
5/11/2021 10:45:00 AM 8.69 47.642 0.063 7.76 2.54 12.15
5/11/2021 11:00:00 AM 8.92 48.056 0.063 7.79 2.59 12.11
5/11/2021 11:15:00 AM 9.14 48.452 0.063 7.82 2.5 12.07
5/11/2021 11:30:00 AM 9.23 48.614 0.063 7.8 2.65 11.98
5/11/2021 11:45:00 AM 9.33 48.794 0.063 7.83 2.55 11.95
5/11/2021 12:00:00 PM 9.42 48.956 0.063 7.83 2.67 11.91
5/11/2021 12:15:00 PM 9.49 49.082 0.063 7.86 2.52 11.87
5/11/2021 12:30:00 PM 9.53 49.154 0.063 7.87 2.71 11.85
5/11/2021 12:45:00 PM 9.59 49.262 0.063 7.86 2.54 11.82
5/11/2021 1:00:00 PM 9.71 49.478 0.063 7.93 2.51 11.83
5/11/2021 1:15:00 PM 9.81 49.658 0.063 7.94 2.63 11.8
5/11/2021 1:30:00 PM 9.96 49.928 0.063 7.98 2.74 11.81
5/11/2021 1:45:00 PM 10.09 50.162 0.063 7.99 2.67 11.78
5/11/2021 2:00:00 PM 10.21 50.378 0.063 8.02 2.63 11.77
5/11/2021 2:15:00 PM 10.41 50.738 0.063 8.02 2.55 11.72
5/11/2021 2:30:00 PM 10.53 50.954 0.063 8.04 2.67 11.71
5/11/2021 2:45:00 PM 10.58 51.044 0.063 8.01 2.59 11.65
5/11/2021 3:00:00 PM 10.68 51.224 0.063 8 2.6 11.6
5/11/2021 3:15:00 PM 10.8 51.44 0.063 8 2.61 11.55
5/11/2021 3:30:00 PM 10.81 51.458 0.063 7.97 2.56 11.51
5/11/2021 3:45:00 PM 10.81 51.458 0.063 7.94 2.61 11.48
5/11/2021 4:00:00 PM 10.86 51.548 0.063 7.89 2.55 11.42
5/11/2021 4:15:00 PM 10.89 51.602 0.063 7.9 2.61 11.39
5/11/2021 4:30:00 PM 10.95 51.71 0.063 7.91 2.73 11.39
5/11/2021 4:45:00 PM 10.89 51.602 0.063 7.9 2.77 11.4
5/11/2021 5:00:00 PM 10.84 51.512 0.063 7.89 2.7 11.41
5/11/2021 5:15:00 PM 10.86 51.548 0.063 7.88 2.62 11.39
5/11/2021 5:30:00 PM 10.86 51.548 0.063 7.84 2.7 11.34
5/11/2021 5:45:00 PM 10.8 51.44 0.063 7.78 2.56 11.29
5/11/2021 6:00:00 PM 10.76 51.368 0.063 7.7 2.78 11.24
5/11/2021 6:15:00 PM 10.67 51.206 0.063 7.64 2.67 11.17
5/11/2021 6:30:00 PM 10.59 51.062 0.063 7.57 2.63 11.14
5/11/2021 6:45:00 PM 10.5 50.9 0.063 7.56 2.82 11.12
5/11/2021 7:00:00 PM 10.4 50.72 0.063 7.48 2.84 11.09
5/11/2021 7:15:00 PM 10.31 50.558 0.063 7.46 2.66 11.05
5/11/2021 7:30:00 PM 10.22 50.396 0.063 7.44 2.75 10.99
5/11/2021 7:45:00 PM 10.12 50.216 0.063 7.4 2.8 10.94
5/11/2021 8:00:00 PM 10.01 50.018 0.064 7.37 3 10.89
5/11/2021 8:15:00 PM 9.91 49.838 0.064 7.31 2.94 10.85
5/11/2021 8:30:00 PM 9.81 49.658 0.064 7.31 2.9 10.83
5/11/2021 8:45:00 PM 9.72 49.496 0.064 7.29 2.91 10.82
5/11/2021 9:00:00 PM 9.63 49.334 0.064 7.28 2.99 10.82
5/11/2021 9:15:00 PM 9.53 49.154 0.064 7.23 2.96 10.84
5/11/2021 9:30:00 PM 9.43 48.974 0.064 7.26 2.9 10.86
5/11/2021 9:45:00 PM 9.33 48.794 0.064 7.25 2.87 10.89
5/11/2021 10:00:00 PM 9.23 48.614 0.064 7.25 2.96 10.92
5/11/2021 10:15:00 PM 9.13 48.434 0.064 7.24 2.92 10.95
5/11/2021 10:30:00 PM 9.04 48.272 0.064 7.24 2.82 10.98
5/11/2021 10:45:00 PM 8.95 48.11 0.064 7.2 2.93 11
5/11/2021 11:00:00 PM 8.86 47.948 0.064 7.24 2.76 11.03
5/11/2021 11:15:00 PM 8.78 47.804 0.065 7.22 2.81 11.05
5/11/2021 11:30:00 PM 8.7 47.66 0.065 7.22 2.7 11.08
5/11/2021 11:45:00 PM 8.62 47.516 0.065 7.24 2.98 11.1
5/12/2021 12:00:00 AM 8.55 47.39 0.065 7.23 2.68 11.12
5/12/2021 12:15:00 AM 8.48 47.264 0.065 7.23 2.68 11.15
5/12/2021 12:30:00 AM 8.41 47.138 0.065 7.24 2.7 11.17
5/12/2021 12:45:00 AM 8.34 47.012 0.065 7.24 2.61 11.19
5/12/2021 1:00:00 AM 8.27 46.886 0.065 7.22 2.84 11.21
5/12/2021 1:15:00 AM 8.19 46.742 0.065 7.19 2.58 11.24
5/12/2021 1:30:00 AM 8.13 46.634 0.065 7.23 2.58 11.25
5/12/2021 1:45:00 AM 8.06 46.508 0.065 7.23 2.53 11.28
5/12/2021 2:00:00 AM 7.99 46.382 0.065 7.19 2.56 11.29
5/12/2021 2:15:00 AM 7.92 46.256 0.065 7.21 2.68 11.31
5/12/2021 2:30:00 AM 7.86 46.148 0.065 7.21 2.53 11.33
5/12/2021 2:45:00 AM 7.79 46.022 0.065 7.23 2.58 11.34
5/12/2021 3:00:00 AM 7.72 45.896 0.065 7.23 2.56 11.36
5/12/2021 3:15:00 AM 7.66 45.788 0.065 7.18 2.57 11.38
5/12/2021 3:30:00 AM 7.6 45.68 0.065 7.23 2.51 11.4
5/12/2021 3:45:00 AM 7.54 45.572 0.065 7.23 2.44 11.41
5/12/2021 4:00:00 AM 7.49 45.482 0.065 7.2 2.46 11.43
5/12/2021 4:15:00 AM 7.46 45.428 0.065 7.22 2.41 11.44
5/12/2021 4:30:00 AM 7.43 45.374 0.065 7.22 2.47 11.46
5/12/2021 4:45:00 AM 7.41 45.338 0.065 7.22 2.47 11.47
5/12/2021 5:00:00 AM 7.39 45.302 0.065 7.19 2.61 11.48
5/12/2021 5:15:00 AM 7.37 45.266 0.065 7.23 2.44 11.48
5/12/2021 5:30:00 AM 7.35 45.23 0.065 7.22 2.44 11.49
5/12/2021 5:45:00 AM 7.33 45.194 0.065 7.22 2.38 11.5
5/12/2021 6:00:00 AM 7.32 45.176 0.066 7.22 2.43 11.52
5/12/2021 6:15:00 AM 7.3 45.14 0.066 7.24 2.41 11.54
5/12/2021 6:30:00 AM 7.29 45.122 0.066 7.23 2.31 11.56
5/12/2021 6:45:00 AM 7.29 45.122 0.066 7.25 2.42 11.6
5/12/2021 7:00:00 AM 7.29 45.122 0.066 7.26 2.36 11.65
5/12/2021 7:15:00 AM 7.29 45.122 0.066 7.25 2.35 11.7
5/12/2021 7:30:00 AM 7.3 45.14 0.066 7.28 2.34 11.76
5/12/2021 7:45:00 AM 7.3 45.14 0.066 7.31 2.32 11.79
5/12/2021 8:00:00 AM 7.31 45.158 0.066 7.29 2.28 11.83
5/12/2021 8:15:00 AM 7.33 45.194 0.066 7.35 2.33 11.91
5/12/2021 8:30:00 AM 7.35 45.23 0.065 7.4 2.24 12.01
5/12/2021 8:45:00 AM 7.4 45.32 0.065 7.46 2.28 12.15
5/12/2021 9:00:00 AM 7.47 45.446 0.065 7.51 2.15 12.27
5/12/2021 9:15:00 AM 7.61 45.698 0.065 7.56 2.26 12.38
5/12/2021 9:30:00 AM 7.74 45.932 0.065 7.65 2.16 12.41
5/12/2021 9:45:00 AM 7.74 45.932 0.065 7.67 2.23 12.4
5/12/2021 10:00:00 AM 7.82 46.076 0.065 7.71 2.2 12.41
5/12/2021 10:15:00 AM 7.95 46.31 0.065 7.74 2.09 12.41
5/12/2021 10:30:00 AM 8.22 46.796 0.065 7.82 2.15 12.4
5/12/2021 10:45:00 AM 8.47 47.246 0.065 7.86 2.16 12.38
5/12/2021 11:00:00 AM 8.64 47.552 0.065 7.88 2.17 12.34
5/12/2021 11:15:00 AM 8.85 47.93 0.065 7.91 2.23 12.3
5/12/2021 11:30:00 AM 9.15 48.47 0.065 7.95 2.12 12.25
5/12/2021 11:45:00 AM 9.48 49.064 0.065 7.99 2.29 12.19
5/12/2021 12:00:00 PM 9.81 49.658 0.064 8.04 2.17 12.11
5/12/2021 12:15:00 PM 10.15 50.27 0.064 8.09 2.23 12.03
5/12/2021 12:30:00 PM 10.45 50.81 0.064 8.09 2.22 11.92
5/12/2021 12:45:00 PM 10.75 51.35 0.064 8.13 2.26 11.83
5/12/2021 1:00:00 PM 10.98 51.764 0.064 8.11 2.2 11.71
5/12/2021 1:15:00 PM 11.18 52.124 0.064 8.08 2.15 11.63
5/12/2021 1:30:00 PM 11.47 52.646 0.064 8.18 2.29 11.6
5/12/2021 1:45:00 PM 11.56 52.808 0.064 8.15 2.31 11.52
5/12/2021 2:00:00 PM 11.63 52.934 0.064 8.16 2.3 11.49
5/12/2021 2:15:00 PM 11.7 53.06 0.064 8.14 2.27 11.44
5/12/2021 2:30:00 PM 11.67 53.006 0.064 8.17 2.16 11.45
5/12/2021 2:45:00 PM 11.81 53.258 0.064 8.23 2.3 11.43
5/12/2021 3:00:00 PM 11.82 53.276 0.064 8.22 2.29 11.41
5/12/2021 3:15:00 PM 11.76 53.168 0.064 8.22 2.32 11.4
5/12/2021 3:30:00 PM 11.81 53.258 0.064 8.24 2.39 11.39
5/12/2021 3:45:00 PM 11.83 53.294 0.064 8.2 2.37 11.36
5/12/2021 4:00:00 PM 11.78 53.204 0.064 8.17 2.4 11.34
5/12/2021 4:15:00 PM 11.8 53.24 0.064 8.2 2.34 11.35
5/12/2021 4:30:00 PM 11.78 53.204 0.064 8.13 2.32 11.32
5/12/2021 4:45:00 PM 11.8 53.24 0.064 8.14 2.54 11.32
5/12/2021 5:00:00 PM 11.86 53.348 0.064 8.1 2.25 11.28
5/12/2021 5:15:00 PM 11.88 53.384 0.064 8.06 2.29 11.25
5/12/2021 5:30:00 PM 11.97 53.546 0.064 8.07 2.31 11.24
5/12/2021 5:45:00 PM 12 53.6 0.064 8.05 2.33 11.23
5/12/2021 6:00:00 PM 11.96 53.528 0.065 7.98 2.33 11.18
5/12/2021 6:15:00 PM 11.89 53.402 0.065 7.87 2.33 11.09
5/12/2021 6:30:00 PM 11.81 53.258 0.065 7.76 2.3 10.99
5/12/2021 6:45:00 PM 11.71 53.078 0.065 7.65 2.29 10.89
5/12/2021 7:00:00 PM 11.6 52.88 0.065 7.56 2.34 10.82
5/12/2021 7:15:00 PM 11.49 52.682 0.065 7.53 2.39 10.77
5/12/2021 7:30:00 PM 11.38 52.484 0.065 7.44 2.39 10.7
5/12/2021 7:45:00 PM 11.26 52.268 0.065 7.42 2.56 10.67
5/12/2021 8:00:00 PM 11.15 52.07 0.065 7.39 2.56 10.63
5/12/2021 8:15:00 PM 11.05 51.89 0.066 7.36 2.58 10.58
5/12/2021 8:30:00 PM 10.95 51.71 0.066 7.32 2.59 10.54
5/12/2021 8:45:00 PM 10.84 51.512 0.066 7.3 2.52 10.53
5/12/2021 9:00:00 PM 10.74 51.332 0.066 7.26 2.55 10.53
5/12/2021 9:15:00 PM 10.62 51.116 0.066 7.27 2.49 10.55
5/12/2021 9:30:00 PM 10.5 50.9 0.066 7.23 2.81 10.57
5/12/2021 9:45:00 PM 10.37 50.666 0.066 7.24 2.56 10.6
5/12/2021 10:00:00 PM 10.24 50.432 0.066 7.23 2.9 10.64
5/12/2021 10:15:00 PM 10.12 50.216 0.067 7.23 2.76 10.67
5/12/2021 10:30:00 PM 9.99 49.982 0.067 7.21 2.74 10.71
5/12/2021 10:45:00 PM 9.87 49.766 0.067 7.22 2.6 10.74
5/12/2021 11:00:00 PM 9.75 49.55 0.067 7.23 2.56 10.77
5/12/2021 11:15:00 PM 9.64 49.352 0.067 7.22 2.67 10.81
5/12/2021 11:30:00 PM 9.52 49.136 0.067 7.22 2.61 10.84
5/12/2021 11:45:00 PM 9.41 48.938 0.067 7.2 2.56 10.87
5/13/2021 12:00:00 AM 9.3 48.74 0.067 7.21 2.43 10.91
5/13/2021 12:15:00 AM 9.2 48.56 0.067 7.22 2.51 10.94
5/13/2021 12:30:00 AM 9.09 48.362 0.067 7.22 2.53 10.97
5/13/2021 12:45:00 AM 8.98 48.164 0.067 7.22 2.54 11
5/13/2021 1:00:00 AM 8.88 47.984 0.067 7.22 2.65 11.04
5/13/2021 1:15:00 AM 8.78 47.804 0.067 7.22 2.5 11.07
5/13/2021 1:30:00 AM 8.67 47.606 0.067 7.22 2.46 11.1
5/13/2021 1:45:00 AM 8.57 47.426 0.067 7.21 2.48 11.13
5/13/2021 2:00:00 AM 8.48 47.264 0.067 7.18 2.34 11.15
5/13/2021 2:15:00 AM 8.38 47.084 0.067 7.21 2.39 11.18
5/13/2021 2:30:00 AM 8.29 46.922 0.067 7.22 2.37 11.21
5/13/2021 2:45:00 AM 8.2 46.76 0.067 7.22 2.59 11.23
5/13/2021 3:00:00 AM 8.11 46.598 0.067 7.2 2.32 11.26
5/13/2021 3:15:00 AM 8.02 46.436 0.067 7.22 2.3 11.28
5/13/2021 3:30:00 AM 7.93 46.274 0.068 7.22 2.36 11.31
5/13/2021 3:45:00 AM 7.85 46.13 0.068 7.22 2.28 11.33
5/13/2021 4:00:00 AM 7.77 45.986 0.068 7.22 2.23 11.36
5/13/2021 4:15:00 AM 7.68 45.824 0.068 7.22 2.26 11.38
5/13/2021 4:30:00 AM 7.6 45.68 0.068 7.22 2.28 11.41
5/13/2021 4:45:00 AM 7.52 45.536 0.068 7.2 2.32 11.43
5/13/2021 5:00:00 AM 7.44 45.392 0.068 7.22 2.3 11.46
5/13/2021 5:15:00 AM 7.37 45.266 0.068 7.21 2.23 11.48
5/13/2021 5:30:00 AM 7.29 45.122 0.068 7.2 2.22 11.5
5/13/2021 5:45:00 AM 7.22 44.996 0.068 7.22 2.26 11.54
5/13/2021 6:00:00 AM 7.15 44.87 0.068 7.22 2.21 11.58
5/13/2021 6:15:00 AM 7.08 44.744 0.068 7.24 2.2 11.65
5/13/2021 6:30:00 AM 7.02 44.636 0.068 7.23 2.2 11.72
5/13/2021 6:45:00 AM 6.96 44.528 0.068 7.26 2.11 11.8
5/13/2021 7:00:00 AM 6.91 44.438 0.068 7.28 2.2 11.89
5/13/2021 7:15:00 AM 6.88 44.384 0.068 7.29 2.11 12
5/13/2021 7:30:00 AM 6.88 44.384 0.067 7.34 2.16 12.11
5/13/2021 7:45:00 AM 6.88 44.384 0.067 7.39 2.04 12.2
5/13/2021 8:00:00 AM 6.89 44.402 0.067 7.42 2.11 12.28
5/13/2021 8:15:00 AM 6.94 44.492 0.067 7.46 2.09 12.37
5/13/2021 8:30:00 AM 7.03 44.654 0.067 7.52 2.08 12.46
5/13/2021 8:45:00 AM 7.14 44.852 0.067 7.57 1.97 12.53
5/13/2021 9:00:00 AM 7.29 45.122 0.067 7.63 2.02 12.58
5/13/2021 9:15:00 AM 7.46 45.428 0.067 7.69 2.15 12.6
5/13/2021 9:30:00 AM 7.66 45.788 0.067 7.76 2.04 12.6
5/13/2021 9:45:00 AM 7.87 46.166 0.067 7.81 2.03 12.58
5/13/2021 10:00:00 AM 8.08 46.544 0.067 7.86 1.98 12.56
5/13/2021 10:15:00 AM 8.31 46.958 0.067 7.93 1.98 12.53
5/13/2021 10:30:00 AM 8.56 47.408 0.067 7.98 2.05 12.5
5/13/2021 10:45:00 AM 8.82 47.876 0.066 8.03 2.07 12.45
5/13/2021 11:00:00 AM 9.08 48.344 0.066 8.09 2 12.4
5/13/2021 11:15:00 AM 9.34 48.812 0.066 8.11 2.09 12.32
5/13/2021 11:30:00 AM 9.56 49.208 0.066 8.14 2.06 12.24
5/13/2021 11:45:00 AM 9.84 49.712 0.066 8.19 2.02 12.17
5/13/2021 12:00:00 PM 9.98 49.964 0.066 8.15 2.06 12.07
5/13/2021 12:15:00 PM 10.23 50.414 0.066 8.22 2.01 12.03
5/13/2021 12:30:00 PM 10.59 51.062 0.066 8.32 2.06 11.98
5/13/2021 12:45:00 PM 10.76 51.368 0.066 8.26 2.03 11.87
5/13/2021 1:00:00 PM 11.01 51.818 0.066 8.39 2.14 11.82
5/13/2021 1:15:00 PM 11.15 52.07 0.066 8.43 2.02 11.77
5/13/2021 1:30:00 PM 11.27 52.286 0.066 8.48 2.21 11.77
5/13/2021 1:45:00 PM 11.45 52.61 0.066 8.54 2.1 11.74
5/13/2021 2:00:00 PM 11.54 52.772 0.066 8.59 2.12 11.71
5/13/2021 2:15:00 PM 11.74 53.132 0.066 8.65 2.06 11.71
5/13/2021 2:30:00 PM 11.95 53.51 0.066 8.67 2.15 11.65
5/13/2021 2:45:00 PM 12.02 53.636 0.066 8.68 2.15 11.6
5/13/2021 3:00:00 PM 12.19 53.942 0.066 8.71 2.09 11.57
5/13/2021 3:15:00 PM 12.29 54.122 0.066 8.7 2.15 11.52
5/13/2021 3:30:00 PM 12.3 54.14 0.066 8.7 2.12 11.48
5/13/2021 3:45:00 PM 12.36 54.248 0.066 8.67 2.22 11.41
5/13/2021 4:00:00 PM 12.4 54.32 0.066 8.63 2.23 11.35
5/13/2021 4:15:00 PM 12.39 54.302 0.065 8.59 2.32 11.31
5/13/2021 4:30:00 PM 12.42 54.356 0.065 8.54 2.21 11.26
5/13/2021 4:45:00 PM 12.31 54.158 0.065 8.36 2.26 11.17
5/13/2021 5:00:00 PM 12.33 54.194 0.065 8.34 2.26 11.19
5/13/2021 5:15:00 PM 12.32 54.176 0.065 8.32 2.25 11.19
5/13/2021 5:30:00 PM 12.24 54.032 0.066 8.14 2.17 11.12
5/13/2021 5:45:00 PM 12.19 53.942 0.066 8.12 2.1 11.13
5/13/2021 6:00:00 PM 12.24 54.032 0.066 8.17 2.22 11.17
5/13/2021 6:15:00 PM 12.18 53.924 0.066 8.09 2.24 11.14
5/13/2021 6:30:00 PM 12.08 53.744 0.066 7.99 2.2 11.12
5/13/2021 6:45:00 PM 11.99 53.582 0.066 7.85 2.18 10.99
5/13/2021 7:00:00 PM 11.88 53.384 0.066 7.72 2.19 10.85
5/13/2021 7:15:00 PM 11.77 53.186 0.067 7.62 2.2 10.76
5/13/2021 7:30:00 PM 11.66 52.988 0.067 7.56 2.12 10.7
5/13/2021 7:45:00 PM 11.56 52.808 0.067 7.49 2.19 10.65
5/13/2021 8:00:00 PM 11.46 52.628 0.067 7.44 2.21 10.58
5/13/2021 8:15:00 PM 11.36 52.448 0.067 7.4 2.21 10.51
5/13/2021 8:30:00 PM 11.27 52.286 0.068 7.36 2.3 10.45
5/13/2021 8:45:00 PM 11.18 52.124 0.068 7.3 2.3 10.42
5/13/2021 9:00:00 PM 11.08 51.944 0.068 7.3 2.25 10.41
5/13/2021 9:15:00 PM 10.98 51.764 0.068 7.29 2.35 10.41
5/13/2021 9:30:00 PM 10.89 51.602 0.068 7.27 2.33 10.42
5/13/2021 9:45:00 PM 10.8 51.44 0.068 7.27 2.32 10.44
5/13/2021 10:00:00 PM 10.7 51.26 0.069 7.27 2.24 10.46
5/13/2021 10:15:00 PM 10.59 51.062 0.069 7.24 2.35 10.49
5/13/2021 10:30:00 PM 10.48 50.864 0.069 7.26 2.37 10.53
5/13/2021 10:45:00 PM 10.36 50.648 0.069 7.25 2.33 10.56
5/13/2021 11:00:00 PM 10.25 50.45 0.069 7.25 2.33 10.59
5/13/2021 11:15:00 PM 10.13 50.234 0.069 7.25 2.24 10.63
5/13/2021 11:30:00 PM 10.02 50.036 0.069 7.25 2.29 10.66
5/13/2021 11:45:00 PM 9.91 49.838 0.069 7.23 2.24 10.69
5/14/2021 12:00:00 AM 9.8 49.64 0.069 7.26 2.25 10.72
5/14/2021 12:15:00 AM 9.69 49.442 0.069 7.23 2.2 10.76
5/14/2021 12:30:00 AM 9.59 49.262 0.069 7.24 2.16 10.79
5/14/2021 12:45:00 AM 9.48 49.064 0.069 7.25 2.16 10.82
5/14/2021 1:00:00 AM 9.38 48.884 0.069 7.25 2.19 10.85
5/14/2021 1:15:00 AM 9.29 48.722 0.069 7.25 2.15 10.88
5/14/2021 1:30:00 AM 9.19 48.542 0.069 7.25 2.21 10.91
5/14/2021 1:45:00 AM 9.09 48.362 0.069 7.25 2.13 10.94
5/14/2021 2:00:00 AM 9 48.2 0.069 7.25 2.14 10.96
5/14/2021 2:15:00 AM 8.9 48.02 0.069 7.25 2.13 10.99
5/14/2021 2:30:00 AM 8.81 47.858 0.069 7.25 2.1 11.02
5/14/2021 2:45:00 AM 8.72 47.696 0.069 7.22 2.12 11.05
5/14/2021 3:00:00 AM 8.63 47.534 0.069 7.24 2.03 11.08
5/14/2021 3:15:00 AM 8.54 47.372 0.069 7.25 2.1 11.1
5/14/2021 3:30:00 AM 8.45 47.21 0.069 7.23 2.13 11.13
5/14/2021 3:45:00 AM 8.37 47.066 0.07 7.25 2.21 11.15
5/14/2021 4:00:00 AM 8.28 46.904 0.07 7.25 2.18 11.18
5/14/2021 4:15:00 AM 8.2 46.76 0.07 7.26 2.21 11.2
5/14/2021 4:30:00 AM 8.12 46.616 0.07 7.26 2.13 11.23
5/14/2021 4:45:00 AM 8.04 46.472 0.07 7.25 2.14 11.25
5/14/2021 5:00:00 AM 7.97 46.346 0.07 7.22 2.08 11.28
5/14/2021 5:15:00 AM 7.89 46.202 0.07 7.25 2.1 11.3
5/14/2021 5:30:00 AM 7.82 46.076 0.07 7.25 2.08 11.32
5/14/2021 5:45:00 AM 7.74 45.932 0.07 7.25 2.11 11.35
5/14/2021 6:00:00 AM 7.67 45.806 0.07 7.26 2.04 11.41
5/14/2021 6:15:00 AM 7.61 45.698 0.07 7.27 2.08 11.48
5/14/2021 6:30:00 AM 7.55 45.59 0.069 7.29 2.03 11.56
5/14/2021 6:45:00 AM 7.49 45.482 0.069 7.28 2.01 11.65
5/14/2021 7:00:00 AM 7.45 45.41 0.069 7.33 1.97 11.74
5/14/2021 7:15:00 AM 7.42 45.356 0.069 7.36 2.06 11.85
5/14/2021 7:30:00 AM 7.42 45.356 0.069 7.38 1.95 11.96
5/14/2021 7:45:00 AM 7.43 45.374 0.069 7.44 2.01 12.06
5/14/2021 8:00:00 AM 7.46 45.428 0.069 7.49 1.92 12.16
5/14/2021 8:15:00 AM 7.52 45.536 0.069 7.53 1.93 12.27
5/14/2021 8:30:00 AM 7.61 45.698 0.069 7.58 1.93 12.36
5/14/2021 8:45:00 AM 7.73 45.914 0.069 7.66 1.92 12.43
5/14/2021 9:00:00 AM 7.89 46.202 0.068 7.74 1.88 12.47
5/14/2021 9:15:00 AM 8.08 46.544 0.068 7.8 1.92 12.48
5/14/2021 9:30:00 AM 8.29 46.922 0.068 7.89 1.91 12.49
5/14/2021 9:45:00 AM 8.51 47.318 0.068 7.98 1.9 12.49
5/14/2021 10:00:00 AM 8.75 47.75 0.068 8.05 1.86 12.47
5/14/2021 10:15:00 AM 8.99 48.182 0.068 8.13 1.97 12.44
5/14/2021 10:30:00 AM 9.25 48.65 0.068 8.2 1.94 12.4
5/14/2021 10:45:00 AM 9.52 49.136 0.068 8.25 1.97 12.34
5/14/2021 11:00:00 AM 9.8 49.64 0.068 8.33 1.91 12.28
5/14/2021 11:15:00 AM 10.1 50.18 0.068 8.41 2.01 12.2
5/14/2021 11:30:00 AM 10.42 50.756 0.068 8.46 1.94 12.13
5/14/2021 11:45:00 AM 10.75 51.35 0.068 8.53 1.96 12.06
5/14/2021 12:00:00 PM 10.79 51.422 0.068 8.36 1.97 11.86
5/14/2021 12:15:00 PM 11.18 52.124 0.068 8.54 1.91 11.9
5/14/2021 12:30:00 PM 11.68 53.024 0.067 8.68 2 11.9
5/14/2021 12:45:00 PM 12.14 53.852 0.067 8.76 1.96 11.8
5/14/2021 1:00:00 PM 12.37 54.266 0.067 8.79 1.95 11.71
5/14/2021 1:15:00 PM 12.5 54.5 0.067 8.81 2.04 11.64
5/14/2021 1:30:00 PM 12.5 54.5 0.067 8.8 2.09 11.53
5/14/2021 1:45:00 PM 12.48 54.464 0.067 8.8 2.1 11.52
5/14/2021 2:00:00 PM 12.51 54.518 0.067 8.82 2.04 11.56
5/14/2021 2:15:00 PM 12.62 54.716 0.067 8.84 2.01 11.58
5/14/2021 2:30:00 PM 12.57 54.626 0.068 8.76 2.05 11.41
5/14/2021 2:45:00 PM 12.43 54.374 0.067 8.48 2.04 11.18
5/14/2021 3:00:00 PM 12.3 54.14 0.067 8.24 2.02 11.06
5/14/2021 3:15:00 PM 12.31 54.158 0.067 8.14 2.09 11.01
5/14/2021 3:30:00 PM 12.25 54.05 0.068 8.08 2.11 11.02
5/14/2021 3:45:00 PM 12.15 53.87 0.068 8.07 2.07 11.09
5/14/2021 4:00:00 PM 12.09 53.762 0.068 8.12 2.04 11.18
5/14/2021 4:15:00 PM 12.1 53.78 0.068 8.26 2.04 11.27
5/14/2021 4:30:00 PM 12.14 53.852 0.068 8.37 2.01 11.33
5/14/2021 4:45:00 PM 12.19 53.942 0.068 8.43 1.99 11.33
5/14/2021 5:00:00 PM 12.22 53.996 0.068 8.42 2.12 11.3
5/14/2021 5:15:00 PM 12.25 54.05 0.068 8.31 2.11 11.18
5/14/2021 5:30:00 PM 12.31 54.158 0.068 8.19 2.18 11.07
5/14/2021 5:45:00 PM 12.37 54.266 0.068 8.08 2.04 10.99
5/14/2021 6:00:00 PM 12.46 54.428 0.068 8.03 1.97 10.95
5/14/2021 6:15:00 PM 12.53 54.554 0.068 7.95 1.98 10.88
5/14/2021 6:30:00 PM 12.56 54.608 0.068 7.85 1.95 10.8
5/14/2021 6:45:00 PM 12.59 54.662 0.068 7.76 2.07 10.7
5/14/2021 7:00:00 PM 12.6 54.68 0.068 7.69 2.05 10.61
5/14/2021 7:15:00 PM 12.58 54.644 0.068 7.62 2.03 10.54
5/14/2021 7:30:00 PM 12.53 54.554 0.069 7.56 2 10.45
5/14/2021 7:45:00 PM 12.45 54.41 0.069 7.52 2.08 10.39
5/14/2021 8:00:00 PM 12.37 54.266 0.069 7.47 2.04 10.34
5/14/2021 8:15:00 PM 12.27 54.086 0.069 7.42 2.07 10.29
5/14/2021 8:30:00 PM 12.14 53.852 0.07 7.38 2.04 10.23
5/14/2021 8:45:00 PM 12.01 53.618 0.07 7.35 2.16 10.19
5/14/2021 9:00:00 PM 11.88 53.384 0.07 7.29 2.21 10.18
5/14/2021 9:15:00 PM 11.76 53.168 0.07 7.31 2.14 10.18
5/14/2021 9:30:00 PM 11.63 52.934 0.07 7.29 2.17 10.19
5/14/2021 9:45:00 PM 11.51 52.718 0.07 7.29 2.17 10.22
5/14/2021 10:00:00 PM 11.38 52.484 0.07 7.28 2.17 10.25
5/14/2021 10:15:00 PM 11.26 52.268 0.07 7.29 2.18 10.28
5/14/2021 10:30:00 PM 11.14 52.052 0.071 7.27 2.24 10.31
5/14/2021 10:45:00 PM 11.02 51.836 0.071 7.25 2.23 10.34
5/14/2021 11:00:00 PM 10.91 51.638 0.071 7.28 2.17 10.37
5/14/2021 11:15:00 PM 10.79 51.422 0.071 7.27 2.1 10.41
5/14/2021 11:30:00 PM 10.68 51.224 0.071 7.24 2.16 10.44
5/14/2021 11:45:00 PM 10.56 51.008 0.071 7.27 2.06 10.48
5/15/2021 12:00:00 AM 10.45 50.81 0.071 7.27 2.02 10.51
5/15/2021 12:15:00 AM 10.35 50.63 0.071 7.27 2.01 10.54
5/15/2021 12:30:00 AM 10.24 50.432 0.071 7.24 2.1 10.57
5/15/2021 12:45:00 AM 10.14 50.252 0.071 7.27 2.12 10.6
5/15/2021 1:00:00 AM 10.04 50.072 0.071 7.26 2.05 10.63
5/15/2021 1:15:00 AM 9.94 49.892 0.071 7.27 2.11 10.66
5/15/2021 1:30:00 AM 9.84 49.712 0.071 7.28 2.12 10.69
5/15/2021 1:45:00 AM 9.74 49.532 0.071 7.24 2.03 10.71
5/15/2021 2:00:00 AM 9.64 49.352 0.071 7.27 2.14 10.74
5/15/2021 2:15:00 AM 9.55 49.19 0.071 7.27 2 10.77
5/15/2021 2:30:00 AM 9.46 49.028 0.071 7.27 2.01 10.8
5/15/2021 2:45:00 AM 9.36 48.848 0.071 7.28 2.02 10.83
5/15/2021 3:00:00 AM 9.27 48.686 0.071 7.27 2.04 10.86
5/15/2021 3:15:00 AM 9.18 48.524 0.071 7.28 2.08 10.89
5/15/2021 3:30:00 AM 9.09 48.362 0.071 7.28 2.03 10.91
5/15/2021 3:45:00 AM 9 48.2 0.071 7.27 2.02 10.94
5/15/2021 4:00:00 AM 8.91 48.038 0.071 7.28 2.07 10.96
5/15/2021 4:15:00 AM 8.83 47.894 0.071 7.28 2.12 10.99
5/15/2021 4:30:00 AM 8.75 47.75 0.072 7.27 2.01 11.02
5/15/2021 4:45:00 AM 8.66 47.588 0.072 7.28 2.04 11.04
5/15/2021 5:00:00 AM 8.58 47.444 0.072 7.27 2.11 11.06
5/15/2021 5:15:00 AM 8.5 47.3 0.072 7.24 1.97 11.09
5/15/2021 5:30:00 AM 8.42 47.156 0.072 7.27 1.9 11.12
5/15/2021 5:45:00 AM 8.35 47.03 0.072 7.28 2.03 11.15
5/15/2021 6:00:00 AM 8.27 46.886 0.072 7.29 1.97 11.2
5/15/2021 6:15:00 AM 8.2 46.76 0.072 7.3 1.92 11.28
5/15/2021 6:30:00 AM 8.14 46.652 0.071 7.27 1.93 11.37
5/15/2021 6:45:00 AM 8.07 46.526 0.071 7.34 1.89 11.47
5/15/2021 7:00:00 AM 8.02 46.436 0.071 7.36 1.92 11.57
5/15/2021 7:15:00 AM 7.99 46.382 0.071 7.4 1.97 11.69
5/15/2021 7:30:00 AM 7.98 46.364 0.071 7.44 1.84 11.81
5/15/2021 7:45:00 AM 8 46.4 0.071 7.48 1.85 11.94
5/15/2021 8:00:00 AM 8.03 46.454 0.071 7.51 1.86 12.06
5/15/2021 8:15:00 AM 8.08 46.544 0.071 7.61 1.91 12.18
5/15/2021 8:30:00 AM 8.16 46.688 0.07 7.68 1.9 12.26
5/15/2021 8:45:00 AM 8.28 46.904 0.07 7.76 1.82 12.32
5/15/2021 9:00:00 AM 8.44 47.192 0.07 7.86 1.94 12.37
5/15/2021 9:15:00 AM 8.61 47.498 0.07 7.94 1.83 12.41
5/15/2021 9:30:00 AM 8.83 47.894 0.07 8.05 1.86 12.43
5/15/2021 9:45:00 AM 9.06 48.308 0.07 8.15 1.82 12.43
5/15/2021 10:00:00 AM 9.29 48.722 0.07 8.23 1.76 12.4
5/15/2021 10:15:00 AM 9.53 49.154 0.07 8.34 1.82 12.35
5/15/2021 10:30:00 AM 9.79 49.622 0.07 8.43 1.89 12.3
5/15/2021 10:45:00 AM 10.04 50.072 0.07 8.5 1.9 12.25
5/15/2021 11:00:00 AM 10.32 50.576 0.07 8.57 1.94 12.2
5/15/2021 11:15:00 AM 10.61 51.098 0.07 8.64 1.95 12.14
5/15/2021 11:30:00 AM 10.93 51.674 0.069 8.7 1.9 12.08
5/15/2021 11:45:00 AM 11.26 52.268 0.069 8.76 1.93 12.03
5/15/2021 12:00:00 PM 11.61 52.898 0.069 8.83 1.97 11.97
5/15/2021 12:15:00 PM 11.78 53.204 0.069 8.82 1.99 11.85
5/15/2021 12:30:00 PM 11.8 53.24 0.069 8.73 1.95 11.65
5/15/2021 12:45:00 PM 11.77 53.186 0.069 8.69 1.97 11.55
5/15/2021 1:00:00 PM 11.8 53.24 0.069 8.76 2.09 11.59
5/15/2021 1:15:00 PM 11.81 53.258 0.069 8.66 2.01 11.45
5/15/2021 1:30:00 PM 11.79 53.222 0.069 8.44 2.14 11.3
5/15/2021 1:45:00 PM 11.87 53.366 0.069 8.51 1.9 11.41
5/15/2021 2:00:00 PM 12.03 53.654 0.069 8.71 2.12 11.5
5/15/2021 2:15:00 PM 12.22 53.996 0.069 8.81 1.93 11.54
5/15/2021 2:30:00 PM 12.43 54.374 0.069 8.89 1.95 11.56
5/15/2021 2:45:00 PM 12.68 54.824 0.069 8.93 2.06 11.55
5/15/2021 3:00:00 PM 12.91 55.238 0.069 9.02 2.1 11.53
5/15/2021 3:15:00 PM 13.15 55.67 0.069 9.07 2.07 11.49
5/15/2021 3:30:00 PM 13.26 55.868 0.069 9.07 2.09 11.39
5/15/2021 3:45:00 PM 13.33 55.994 0.069 9.06 2.09 11.32
5/15/2021 4:00:00 PM 13.5 56.3 0.069 9.08 2.05 11.3
5/15/2021 4:15:00 PM 13.58 56.444 0.069 9.09 2.02 11.27
5/15/2021 4:30:00 PM 13.54 56.372 0.069 9.07 1.98 11.24
5/15/2021 4:45:00 PM 13.49 56.282 0.069 9.05 2.03 11.21
5/15/2021 5:00:00 PM 13.51 56.318 0.069 8.99 1.99 11.15
5/15/2021 5:15:00 PM 13.54 56.372 0.069 8.99 2 11.09
5/15/2021 5:30:00 PM 13.56 56.408 0.069 8.92 2.13 11.04
5/15/2021 5:45:00 PM 13.6 56.48 0.069 8.92 1.9 11
5/15/2021 6:00:00 PM 13.61 56.498 0.069 8.85 1.9 10.95
5/15/2021 6:15:00 PM 13.6 56.48 0.069 8.77 2 10.85
5/15/2021 6:30:00 PM 13.53 56.354 0.07 8.51 2.05 10.69
5/15/2021 6:45:00 PM 13.4 56.12 0.07 8.19 1.92 10.56
5/15/2021 7:00:00 PM 13.31 55.958 0.07 8 2 10.51
5/15/2021 7:15:00 PM 13.24 55.832 0.07 7.87 1.91 10.46
5/15/2021 7:30:00 PM 13.16 55.688 0.07 7.76 2.01 10.4
5/15/2021 7:45:00 PM 13.08 55.544 0.071 7.67 2 10.32
5/15/2021 8:00:00 PM 13.01 55.418 0.071 7.58 1.96 10.22
5/15/2021 8:15:00 PM 12.94 55.292 0.071 7.53 1.91 10.13
5/15/2021 8:30:00 PM 12.86 55.148 0.071 7.47 1.97 10.06
5/15/2021 8:45:00 PM 12.77 54.986 0.071 7.42 1.97 9.99
5/15/2021 9:00:00 PM 12.66 54.788 0.072 7.39 2.03 9.96
5/15/2021 9:15:00 PM 12.56 54.608 0.072 7.37 2.07 9.94
5/15/2021 9:30:00 PM 12.46 54.428 0.072 7.35 2.02 9.93
5/15/2021 9:45:00 PM 12.36 54.248 0.072 7.3 2.11 9.94
5/15/2021 10:00:00 PM 12.28 54.104 0.072 7.33 2.12 9.95
5/15/2021 10:15:00 PM 12.19 53.942 0.072 7.3 2.26 9.97
5/15/2021 10:30:00 PM 12.1 53.78 0.073 7.32 2.21 9.99
5/15/2021 10:45:00 PM 12 53.6 0.073 7.31 2.13 10.01
5/15/2021 11:00:00 PM 11.92 53.456 0.073 7.3 2.22 10.04
5/15/2021 11:15:00 PM 11.84 53.312 0.073 7.3 2.14 10.06
5/15/2021 11:30:00 PM 11.77 53.186 0.073 7.31 2.13 10.08
5/15/2021 11:45:00 PM 11.68 53.024 0.073 7.3 2.04 10.11
5/16/2021 12:00:00 AM 11.61 52.898 0.073 7.31 2.19 10.13
5/16/2021 12:15:00 AM 11.52 52.736 0.073 7.27 2.19 10.16
5/16/2021 12:30:00 AM 11.45 52.61 0.073 7.3 2.08 10.18
5/16/2021 12:45:00 AM 11.37 52.466 0.073 7.3 1.96 10.2
5/16/2021 1:00:00 AM 11.29 52.322 0.073 7.31 1.97 10.23
5/16/2021 1:15:00 AM 11.22 52.196 0.073 7.31 2.06 10.25
5/16/2021 1:30:00 AM 11.15 52.07 0.073 7.3 2.11 10.27
5/16/2021 1:45:00 AM 11.08 51.944 0.073 7.3 1.91 10.29
5/16/2021 2:00:00 AM 11.01 51.818 0.073 7.27 2.18 10.31
5/16/2021 2:15:00 AM 10.94 51.692 0.073 7.29 1.99 10.33
5/16/2021 2:30:00 AM 10.87 51.566 0.074 7.28 1.99 10.35
5/16/2021 2:45:00 AM 10.8 51.44 0.074 7.28 2.01 10.37
5/16/2021 3:00:00 AM 10.72 51.296 0.074 7.3 1.93 10.4
5/16/2021 3:15:00 AM 10.64 51.152 0.074 7.3 2 10.42
5/16/2021 3:30:00 AM 10.56 51.008 0.074 7.29 1.98 10.44
5/16/2021 3:45:00 AM 10.48 50.864 0.074 7.26 2.22 10.47
5/16/2021 4:00:00 AM 10.41 50.738 0.074 7.27 1.87 10.49
5/16/2021 4:15:00 AM 10.34 50.612 0.074 7.29 1.95 10.51
5/16/2021 4:30:00 AM 10.28 50.504 0.074 7.29 2.11 10.53
5/16/2021 4:45:00 AM 10.22 50.396 0.074 7.3 2.04 10.54
5/16/2021 5:00:00 AM 10.15 50.27 0.074 7.3 2.13 10.56
5/16/2021 5:15:00 AM -99999.99 -179968 -99999.99 -99999.99 -99999.99 -99999.99
5/16/2021 5:30:00 AM -99999.99 -179968 -99999.99 -99999.99 -99999.99 -99999.99
5/16/2021 5:45:00 AM 9.94 49.892 0.074 7.29 1.87 10.63
5/16/2021 6:00:00 AM 9.87 49.766 0.074 7.26 2.08 10.68
5/16/2021 6:15:00 AM 9.8 49.64 0.074 7.32 1.94 10.76
5/16/2021 6:30:00 AM 9.73 49.514 0.074 7.34 1.88 10.85
5/16/2021 6:45:00 AM 9.67 49.406 0.074 7.35 1.89 10.95
5/16/2021 7:00:00 AM 9.62 49.316 0.074 7.36 1.83 11.06
5/16/2021 7:15:00 AM 9.6 49.28 0.073 7.44 1.89 11.23
5/16/2021 7:30:00 AM 9.59 49.262 0.073 7.49 1.87 11.38
5/16/2021 7:45:00 AM 9.61 49.298 0.073 7.54 1.9 11.53
5/16/2021 8:00:00 AM 9.65 49.37 0.073 7.61 1.79 11.63
5/16/2021 8:15:00 AM 9.71 49.478 0.072 7.71 1.95 11.79
5/16/2021 8:30:00 AM 9.75 49.55 0.072 7.77 1.84 11.9
5/16/2021 8:45:00 AM 9.85 49.73 0.072 7.92 1.91 12.02
5/16/2021 9:00:00 AM 9.99 49.982 0.072 8.08 1.93 12.09
5/16/2021 9:15:00 AM 10.12 50.216 0.072 8.19 2.21 12.11
5/16/2021 9:30:00 AM 10.24 50.432 0.072 8.32 1.85 12.11
5/16/2021 9:45:00 AM 10.43 50.774 0.071 8.44 1.94 12.11
5/16/2021 10:00:00 AM 10.63 51.134 0.071 8.56 2.13 12.09
5/16/2021 10:15:00 AM 10.8 51.44 0.071 8.64 1.91 12.08
5/16/2021 10:30:00 AM 11.05 51.89 0.071 8.76 2.04 12.08
5/16/2021 10:45:00 AM 11.25 52.25 0.071 8.83 2.02 12.04
5/16/2021 11:00:00 AM 11.5 52.7 0.071 8.88 2.02 12
5/16/2021 11:15:00 AM 11.75 53.15 0.071 8.96 1.98 11.96
5/16/2021 11:30:00 AM 11.99 53.582 0.071 9.01 1.99 11.88
5/16/2021 11:45:00 AM 12.11 53.798 0.071 8.99 1.96 11.73
5/16/2021 12:00:00 PM 12.13 53.834 0.071 8.92 1.9 11.61
5/16/2021 12:15:00 PM 12.28 54.104 0.071 8.99 1.94 11.64
5/16/2021 12:30:00 PM 12.33 54.194 0.071 8.97 2.18 11.51
5/16/2021 12:45:00 PM 12.25 54.05 0.071 8.83 2.03 11.34
5/16/2021 1:00:00 PM 12.15 53.87 0.071 8.58 1.96 11.14
5/16/2021 1:15:00 PM 12.14 53.852 0.071 8.25 2.07 10.94
5/16/2021 1:30:00 PM 12.17 53.906 0.071 8.02 2 10.8
5/16/2021 1:45:00 PM 12.18 53.924 0.071 7.93 2.23 10.79
5/16/2021 2:00:00 PM 12.16 53.888 0.071 7.97 2.1 10.96
5/16/2021 2:15:00 PM 12.18 53.924 0.071 8.15 2.19 11.15
5/16/2021 2:30:00 PM 12.24 54.032 0.071 8.35 2.45 11.32
5/16/2021 2:45:00 PM 12.35 54.23 0.071 8.53 2.43 11.46
5/16/2021 3:00:00 PM 12.47 54.446 0.07 8.67 3.15 11.53
5/16/2021 3:15:00 PM 12.6 54.68 0.071 8.79 3.83 11.58
5/16/2021 3:30:00 PM 12.77 54.986 0.071 8.86 3.05 11.58
5/16/2021 3:45:00 PM 12.85 55.13 0.071 8.91 2.55 11.52
5/16/2021 4:00:00 PM 12.85 55.13 0.07 8.95 2.4 11.51
5/16/2021 4:15:00 PM 12.89 55.202 0.07 8.99 2.38 11.47
5/16/2021 4:30:00 PM 12.94 55.292 0.07 8.98 2.53 11.41
5/16/2021 4:45:00 PM 12.94 55.292 0.07 8.99 2.66 11.4
5/16/2021 5:00:00 PM 12.92 55.256 0.07 8.95 3.38 11.34
5/16/2021 5:15:00 PM 12.9 55.22 0.07 8.88 2.99 11.21
5/16/2021 5:30:00 PM 12.84 55.112 0.07 8.75 2.96 11.07
5/16/2021 5:45:00 PM 12.85 55.13 0.07 8.63 2.62 10.96
5/16/2021 6:00:00 PM 12.87 55.166 0.071 8.46 2.61 10.88
5/16/2021 6:15:00 PM 12.86 55.148 0.07 8.29 2.63 10.83
5/16/2021 6:30:00 PM 12.82 55.076 0.071 8.11 2.97 10.77
5/16/2021 6:45:00 PM 12.77 54.986 0.071 7.91 3.1 10.67
5/16/2021 7:00:00 PM 12.73 54.914 0.071 7.78 3.19 10.56
5/16/2021 7:15:00 PM 12.7 54.86 0.071 7.67 2.94 10.46
5/16/2021 7:30:00 PM 12.66 54.788 0.071 7.62 3.09 10.38
5/16/2021 7:45:00 PM 12.6 54.68 0.071 7.57 2.98 10.32
5/16/2021 8:00:00 PM 12.53 54.554 0.071 7.52 2.91 10.26
5/16/2021 8:15:00 PM 12.46 54.428 0.072 7.47 2.86 10.19
5/16/2021 8:30:00 PM 12.4 54.32 0.072 7.43 2.65 10.13
5/16/2021 8:45:00 PM 12.33 54.194 0.072 7.37 2.53 10.09
5/16/2021 9:00:00 PM 12.26 54.068 0.072 7.38 2.53 10.06
5/16/2021 9:15:00 PM 12.18 53.924 0.072 7.36 2.49 10.04
5/16/2021 9:30:00 PM 12.1 53.78 0.072 7.35 2.43 10.04
5/16/2021 9:45:00 PM 12.02 53.636 0.072 7.33 2.54 10.05
5/16/2021 10:00:00 PM 11.94 53.492 0.071 7.33 2.4 10.06
5/16/2021 10:15:00 PM 11.86 53.348 0.071 7.32 2.41 10.07
5/16/2021 10:30:00 PM 11.77 53.186 0.071 7.28 2.33 10.1
5/16/2021 10:45:00 PM 11.68 53.024 0.071 7.29 2.35 10.12
5/16/2021 11:00:00 PM 11.59 52.862 0.071 7.32 2.34 10.14
5/16/2021 11:15:00 PM 11.5 52.7 0.072 7.31 2.46 10.17
5/16/2021 11:30:00 PM 11.41 52.538 0.072 7.31 2.38 10.19
5/16/2021 11:45:00 PM 11.33 52.394 0.072 7.27 2.46 10.21
5/17/2021 12:00:00 AM 11.25 52.25 0.072 7.29 2.28 10.24
5/17/2021 12:15:00 AM 11.17 52.106 0.072 7.31 2.28 10.26
5/17/2021 12:30:00 AM 11.1 51.98 0.072 7.28 2.28 10.29
5/17/2021 12:45:00 AM 11.02 51.836 0.072 7.31 2.4 10.31
5/17/2021 1:00:00 AM 10.94 51.692 0.072 7.31 2.19 10.33
5/17/2021 1:15:00 AM 10.85 51.53 0.072 7.31 2.14 10.36
5/17/2021 1:30:00 AM 10.77 51.386 0.072 7.31 2.15 10.38
5/17/2021 1:45:00 AM 10.68 51.224 0.072 7.31 2.08 10.41
5/17/2021 2:00:00 AM 10.6 51.08 0.072 7.31 2.13 10.44
5/17/2021 2:15:00 AM 10.52 50.936 0.072 7.31 2.23 10.46
5/17/2021 2:30:00 AM 10.43 50.774 0.073 7.26 2.16 10.48
5/17/2021 2:45:00 AM 10.35 50.63 0.073 7.3 2.3 10.51
5/17/2021 3:00:00 AM 10.26 50.468 0.073 7.29 2.03 10.54
5/17/2021 3:15:00 AM 10.18 50.324 0.073 7.31 2.11 10.56
5/17/2021 3:30:00 AM 10.1 50.18 0.073 7.31 1.98 10.59
5/17/2021 3:45:00 AM 10.02 50.036 0.073 7.3 2.1 10.61
5/17/2021 4:00:00 AM 9.94 49.892 0.073 7.27 2.06 10.63
5/17/2021 4:15:00 AM 9.86 49.748 0.073 7.3 2.12 10.65
5/17/2021 4:30:00 AM 9.78 49.604 0.073 7.3 2.09 10.68
5/17/2021 4:45:00 AM 9.7 49.46 0.073 7.31 2.15 10.7
5/17/2021 5:00:00 AM 9.62 49.316 0.073 7.3 1.99 10.72
5/17/2021 5:15:00 AM 9.54 49.172 0.073 7.27 2.22 10.75
5/17/2021 5:30:00 AM 9.47 49.046 0.073 7.3 1.98 10.77
5/17/2021 5:45:00 AM 9.39 48.902 0.073 7.29 1.9 10.8
5/17/2021 6:00:00 AM 9.32 48.776 0.073 7.31 1.97 10.86
5/17/2021 6:15:00 AM 9.25 48.65 0.073 7.31 1.97 10.93
5/17/2021 6:30:00 AM 9.19 48.542 0.073 7.33 1.88 11.02
5/17/2021 6:45:00 AM 9.13 48.434 0.073 7.37 1.84 11.11
5/17/2021 7:00:00 AM 9.09 48.362 0.073 7.4 1.99 11.21
5/17/2021 7:15:00 AM 9.06 48.308 0.073 7.43 1.86 11.36
5/17/2021 7:30:00 AM 9.05 48.29 0.073 7.48 1.94 11.5
5/17/2021 7:45:00 AM 9.07 48.326 0.072 7.53 1.88 11.63
5/17/2021 8:00:00 AM 9.11 48.398 0.072 7.59 1.89 11.74
5/17/2021 8:15:00 AM 9.17 48.506 0.072 7.65 1.81 11.83
5/17/2021 8:30:00 AM 9.26 48.668 0.072 7.7 1.77 11.91
5/17/2021 8:45:00 AM 9.36 48.848 0.072 7.79 1.83 11.99
5/17/2021 9:00:00 AM 9.51 49.118 0.072 7.88 1.94 12.05
5/17/2021 9:15:00 AM 9.7 49.46 0.071 7.94 1.93 12.09
5/17/2021 9:30:00 AM 9.92 49.856 0.071 8.07 1.93 12.1
5/17/2021 9:45:00 AM 10.15 50.27 0.071 8.19 1.93 12.08
5/17/2021 10:00:00 AM 10.39 50.702 0.071 8.29 1.83 12.05
5/17/2021 10:15:00 AM 10.65 51.17 0.071 8.41 1.91 12.02
5/17/2021 10:30:00 AM 10.92 51.656 0.071 8.49 1.85 11.99
5/17/2021 10:45:00 AM 11.19 52.142 0.071 8.57 2.69 11.95
5/17/2021 11:00:00 AM 11.48 52.664 0.071 8.66 1.94 11.91
5/17/2021 11:15:00 AM 11.78 53.204 0.071 8.7 1.88 11.87
5/17/2021 11:30:00 AM 12.09 53.762 0.071 8.79 1.88 11.8
5/17/2021 11:45:00 AM 12.42 54.356 0.071 8.87 1.92 11.74
5/17/2021 12:00:00 PM 12.76 54.968 0.071 8.91 2.32 11.68
5/17/2021 12:15:00 PM 13.13 55.634 0.071 8.99 1.91 11.62
5/17/2021 12:30:00 PM 13.5 56.3 0.071 9.05 1.94 11.56
5/17/2021 12:45:00 PM 13.78 56.804 0.071 9.06 1.88 11.41
5/17/2021 1:00:00 PM 14.13 57.434 0.071 9.09 1.97 11.37
5/17/2021 1:15:00 PM 14.18 57.524 0.071 9.04 2.21 11.17
5/17/2021 1:30:00 PM 14.34 57.812 0.071 9.06 1.98 11.15
5/17/2021 1:45:00 PM 14.29 57.722 0.071 9.04 2.04 11
5/17/2021 2:00:00 PM 14.4 57.92 0.071 9.06 1.97 10.99
5/17/2021 2:15:00 PM 14.43 57.974 0.071 9.01 2.02 10.89
5/17/2021 2:30:00 PM 14.39 57.902 0.071 9 2.01 10.87
5/17/2021 2:45:00 PM 14.37 57.866 0.071 8.96 1.97 10.82
5/17/2021 3:00:00 PM 14.46 58.028 0.071 8.99 2.04 10.87
5/17/2021 3:15:00 PM 14.49 58.082 0.071 8.94 2.13 10.75
5/17/2021 3:30:00 PM 14.59 58.262 0.071 8.9 2.05 10.72
5/17/2021 3:45:00 PM 14.6 58.28 0.071 8.83 1.94 10.64
5/17/2021 4:00:00 PM 14.66 58.388 0.071 8.74 1.94 10.55
5/17/2021 4:15:00 PM 14.7 58.46 0.071 8.6 2.04 10.43
5/17/2021 4:30:00 PM 14.67 58.406 0.071 8.45 1.9 10.41
5/17/2021 4:45:00 PM 14.63 58.334 0.071 8.43 2.01 10.5
5/17/2021 5:00:00 PM 14.66 58.388 0.071 8.56 2.06 10.66
5/17/2021 5:15:00 PM 14.66 58.388 0.071 8.62 2.09 10.74
5/17/2021 5:30:00 PM 14.61 58.298 0.071 8.61 2.04 10.74
5/17/2021 5:45:00 PM 14.5 58.1 0.071 8.6 1.93 10.77
5/17/2021 6:00:00 PM 14.43 57.974 0.071 8.59 2.07 10.74
5/17/2021 6:15:00 PM 14.38 57.884 0.071 8.48 1.97 10.64
5/17/2021 6:30:00 PM 14.34 57.812 0.071 8.43 2.22 10.62
5/17/2021 6:45:00 PM 14.3 57.74 0.071 8.39 2.02 10.62
5/17/2021 7:00:00 PM 14.19 57.542 0.072 8.25 1.96 10.52
5/17/2021 7:15:00 PM 14.06 57.308 0.072 8.01 1.9 10.37
5/17/2021 7:30:00 PM 13.92 57.056 0.072 7.83 1.98 10.22
5/17/2021 7:45:00 PM 13.81 56.858 0.072 7.71 2.12 10.12
5/17/2021 8:00:00 PM 13.69 56.642 0.073 7.63 2 10.02
5/17/2021 8:15:00 PM 13.56 56.408 0.073 7.54 1.95 9.93
5/17/2021 8:30:00 PM 13.44 56.192 0.073 7.49 1.87 9.86
5/17/2021 8:45:00 PM 13.33 55.994 0.074 7.45 2.12 9.81
5/17/2021 9:00:00 PM 13.25 55.85 0.074 7.42 1.94 9.78
5/17/2021 9:15:00 PM 13.18 55.724 0.074 7.39 1.98 9.75
5/17/2021 9:30:00 PM 13.11 55.598 0.074 7.37 2.03 9.75
5/17/2021 9:45:00 PM 13.04 55.472 0.074 7.33 2.09 9.75
5/17/2021 10:00:00 PM 12.96 55.328 0.074 7.34 2.08 9.76
5/17/2021 10:15:00 PM 12.88 55.184 0.074 7.34 2.05 9.78
5/17/2021 10:30:00 PM 12.79 55.022 0.074 7.34 2.06 9.8
5/17/2021 10:45:00 PM 12.71 54.878 0.074 7.33 2.07 9.82
5/17/2021 11:00:00 PM 12.62 54.716 0.075 7.34 1.94 9.84
5/17/2021 11:15:00 PM 12.53 54.554 0.075 7.33 1.92 9.87
5/17/2021 11:30:00 PM 12.42 54.356 0.075 7.33 2.05 9.89
5/17/2021 11:45:00 PM 12.32 54.176 0.075 7.32 1.96 9.92
5/18/2021 12:00:00 AM 12.21 53.978 0.075 7.33 2.18 9.95
5/18/2021 12:15:00 AM 12.1 53.78 0.075 7.33 2.11 9.97
5/18/2021 12:30:00 AM 11.99 53.582 0.075 7.33 2.01 10
5/18/2021 12:45:00 AM 11.89 53.402 0.075 7.32 2.07 10.03
5/18/2021 1:00:00 AM 11.78 53.204 0.075 7.32 2.04 10.06
5/18/2021 1:15:00 AM 11.68 53.024 0.075 7.28 2.14 10.09
5/18/2021 1:30:00 AM 11.59 52.862 0.075 7.32 1.98 10.12
5/18/2021 1:45:00 AM 11.49 52.682 0.075 7.31 2.28 10.14
5/18/2021 2:00:00 AM 11.4 52.52 0.075 7.32 2.04 10.17
5/18/2021 2:15:00 AM 11.31 52.358 0.075 7.31 1.95 10.19
5/18/2021 2:30:00 AM 11.21 52.178 0.075 7.3 2.03 10.22
5/18/2021 2:45:00 AM 11.12 52.016 0.075 7.31 1.98 10.25
5/18/2021 3:00:00 AM 11.03 51.854 0.075 7.31 1.96 10.28
5/18/2021 3:15:00 AM 10.94 51.692 0.076 7.29 2.03 10.3
5/18/2021 3:30:00 AM 10.85 51.53 0.076 7.3 1.93 10.33
5/18/2021 3:45:00 AM 10.76 51.368 0.076 7.31 1.94 10.36
5/18/2021 4:00:00 AM 10.68 51.224 0.076 7.31 2.19 10.38
5/18/2021 4:15:00 AM 10.59 51.062 0.076 7.31 2.06 10.41
5/18/2021 4:30:00 AM 10.51 50.918 0.076 7.32 1.95 10.44
5/18/2021 4:45:00 AM 10.42 50.756 0.076 7.28 1.99 10.46
5/18/2021 5:00:00 AM 10.34 50.612 0.076 7.31 1.89 10.49
5/18/2021 5:15:00 AM 10.26 50.468 0.076 7.31 1.95 10.51
5/18/2021 5:30:00 AM 10.17 50.306 0.076 7.28 1.97 10.54
5/18/2021 5:45:00 AM 10.09 50.162 0.076 7.31 2 10.58
5/18/2021 6:00:00 AM 10.01 50.018 0.076 7.32 2.04 10.63
5/18/2021 6:15:00 AM 9.94 49.892 0.076 7.33 1.95 10.7
5/18/2021 6:30:00 AM 9.88 49.784 0.076 7.35 1.91 10.79
5/18/2021 6:45:00 AM 9.81 49.658 0.076 7.37 1.84 10.88
5/18/2021 7:00:00 AM 9.76 49.568 0.076 7.4 2.1 10.98
5/18/2021 7:15:00 AM 9.74 49.532 0.076 7.44 1.98 11.13
5/18/2021 7:30:00 AM 9.73 49.514 0.076 7.45 2.06 11.27
5/18/2021 7:45:00 AM 9.75 49.55 0.075 7.53 1.81 11.39
5/18/2021 8:00:00 AM 9.8 49.64 0.075 7.57 1.9 11.49
5/18/2021 8:15:00 AM 9.86 49.748 0.075 7.62 1.87 11.6
5/18/2021 8:30:00 AM 9.95 49.91 0.075 7.7 1.86 11.69
5/18/2021 8:45:00 AM 10.05 50.09 0.075 7.76 1.87 11.77
5/18/2021 9:00:00 AM 10.2 50.36 0.074 7.83 1.9 11.82
5/18/2021 9:15:00 AM 10.39 50.702 0.074 7.94 1.97 11.85
5/18/2021 9:30:00 AM 10.61 51.098 0.074 8.01 1.91 11.86
5/18/2021 9:45:00 AM 10.85 51.53 0.074 8.13 1.87 11.86
5/18/2021 10:00:00 AM 11.1 51.98 0.074 8.25 1.83 11.85
5/18/2021 10:15:00 AM 11.36 52.448 0.074 8.35 2.17 11.82
5/18/2021 10:30:00 AM 11.62 52.916 0.074 8.42 1.99 11.77
5/18/2021 10:45:00 AM 11.91 53.438 0.073 8.5 1.98 11.73
5/18/2021 11:00:00 AM 12.21 53.978 0.073 8.6 1.94 11.68
5/18/2021 11:15:00 AM 12.5 54.5 0.073 8.68 3.27 11.62
5/18/2021 11:30:00 AM 12.8 55.04 0.073 8.72 2.03 11.55
5/18/2021 11:45:00 AM 13.11 55.598 0.073 8.8 2.02 11.49
5/18/2021 12:00:00 PM 13.45 56.21 0.073 8.88 1.96 11.45
5/18/2021 12:15:00 PM 13.78 56.804 0.073 8.91 1.9 11.4
5/18/2021 12:30:00 PM 14.08 57.344 0.073 8.97 2.03 11.3
5/18/2021 12:45:00 PM 14.37 57.866 0.073 9 1.94 11.22
5/18/2021 1:00:00 PM 14.66 58.388 0.073 9.04 2.15 11.17
5/18/2021 1:15:00 PM 14.91 58.838 0.073 9.06 2.04 11.07
5/18/2021 1:30:00 PM 15.07 59.126 0.073 9.05 2.02 10.98
5/18/2021 1:45:00 PM 15.13 59.234 0.073 9.01 2.01 10.91
5/18/2021 2:00:00 PM 15.36 59.648 0.073 9.04 2.03 10.89
5/18/2021 2:15:00 PM 15.61 60.098 0.073 9.09 2.14 10.89
5/18/2021 2:30:00 PM 15.79 60.422 0.073 9.07 1.98 10.81
5/18/2021 2:45:00 PM 15.91 60.638 0.073 9.09 2.11 10.73
5/18/2021 3:00:00 PM 15.96 60.728 0.073 9.06 1.99 10.64
5/18/2021 3:15:00 PM 16.03 60.854 0.073 9.06 2.09 10.62
5/18/2021 3:30:00 PM 16.18 61.124 0.073 9.07 2.05 10.61
5/18/2021 3:45:00 PM 16.29 61.322 0.073 9.03 2.14 10.47
5/18/2021 4:00:00 PM 16.31 61.358 0.073 8.97 2.65 10.39
5/18/2021 4:15:00 PM 16.28 61.304 0.073 8.89 2.19 10.29
5/18/2021 4:30:00 PM 16.37 61.466 0.074 8.89 2.14 10.3
5/18/2021 4:45:00 PM 16.46 61.628 0.074 8.88 2.09 10.28
5/18/2021 5:00:00 PM 16.48 61.664 0.074 8.83 2.11 10.25
5/18/2021 5:15:00 PM 16.49 61.682 0.074 8.77 2.25 10.23
5/18/2021 5:30:00 PM 16.49 61.682 0.074 8.69 2.15 10.16
5/18/2021 5:45:00 PM 16.45 61.61 0.074 8.54 2.13 10.06
5/18/2021 6:00:00 PM 16.38 61.484 0.074 8.35 2.12 9.94
5/18/2021 6:15:00 PM 16.3 61.34 0.074 8.18 2.48 9.87
5/18/2021 6:30:00 PM 16.28 61.304 0.074 8.07 1.94 9.83
5/18/2021 6:45:00 PM 16.21 61.178 0.075 7.96 2.07 9.77
5/18/2021 7:00:00 PM 16.09 60.962 0.075 7.83 1.91 9.7
5/18/2021 7:15:00 PM 15.97 60.746 0.075 7.75 2.17 9.62
5/18/2021 7:30:00 PM 15.82 60.476 0.075 7.64 2.07 9.54
5/18/2021 7:45:00 PM 15.71 60.278 0.075 7.6 2.03 9.48
5/18/2021 8:00:00 PM 15.62 60.116 0.076 7.56 2.15 9.43
5/18/2021 8:15:00 PM 15.52 59.936 0.076 7.51 2.16 9.37
5/18/2021 8:30:00 PM 15.41 59.738 0.076 7.46 2.13 9.3
5/18/2021 8:45:00 PM 15.31 59.558 0.076 7.42 2.3 9.25
5/18/2021 9:00:00 PM 15.19 59.342 0.076 7.39 2.7 9.21
5/18/2021 9:15:00 PM 15.09 59.162 0.077 7.37 2.53 9.21
5/18/2021 9:30:00 PM 14.97 58.946 0.077 7.35 2.39 9.2
5/18/2021 9:45:00 PM 14.86 58.748 0.077 7.32 2.2 9.21
5/18/2021 10:00:00 PM 14.75 58.55 0.077 7.34 2.24 9.24
5/18/2021 10:15:00 PM 14.62 58.316 0.077 7.33 2.65 9.26
5/18/2021 10:30:00 PM 14.5 58.1 0.077 7.33 2.34 9.3
5/18/2021 10:45:00 PM 14.37 57.866 0.077 7.3 2.31 9.32
5/18/2021 11:00:00 PM 14.25 57.65 0.077 7.29 2.12 9.36
5/18/2021 11:15:00 PM 14.14 57.452 0.077 7.32 2.18 9.39
5/18/2021 11:30:00 PM 14.01 57.218 0.077 7.32 2.17 9.41
5/18/2021 11:45:00 PM 13.9 57.02 0.077 7.32 2.6 9.46
5/19/2021 12:00:00 AM 13.78 56.804 0.077 7.31 2.11 9.5
5/19/2021 12:15:00 AM 13.66 56.588 0.077 7.32 2.31 9.53
5/19/2021 12:30:00 AM 13.54 56.372 0.077 7.31 2.14 9.56
5/19/2021 12:45:00 AM 13.41 56.138 0.078 7.31 2.09 9.59
5/19/2021 1:00:00 AM 13.29 55.922 0.078 7.31 2.64 9.62
5/19/2021 1:15:00 AM 13.18 55.724 0.078 7.3 2.12 9.66
5/19/2021 1:30:00 AM 13.05 55.49 0.078 7.31 2.09 9.68
5/19/2021 1:45:00 AM 12.93 55.274 0.078 7.31 2.55 9.72
5/19/2021 2:00:00 AM 12.82 55.076 0.078 7.32 2.14 9.75
5/19/2021 2:15:00 AM 12.7 54.86 0.078 7.29 2.06 9.78
5/19/2021 2:30:00 AM 12.58 54.644 0.078 7.3 2.18 9.81
5/19/2021 2:45:00 AM 12.47 54.446 0.078 7.3 2.2 9.85
5/19/2021 3:00:00 AM 12.35 54.23 0.078 7.31 2.28 9.87
5/19/2021 3:15:00 AM 12.25 54.05 0.078 7.29 2.21 9.9
5/19/2021 3:30:00 AM 12.14 53.852 0.078 7.29 2.2 9.93
5/19/2021 3:45:00 AM 12.04 53.672 0.078 7.31 2.53 9.96
5/19/2021 4:00:00 AM 11.93 53.474 0.078 7.29 2.14 9.99
5/19/2021 4:15:00 AM 11.84 53.312 0.078 7.32 2.15 10.02
5/19/2021 4:30:00 AM 11.74 53.132 0.078 7.31 2.39 10.05
5/19/2021 4:45:00 AM 11.64 52.952 0.078 7.31 2.09 10.07
5/19/2021 5:00:00 AM 11.55 52.79 0.078 7.31 2.23 10.11
5/19/2021 5:15:00 AM 11.46 52.628 0.078 7.31 2.33 10.14
5/19/2021 5:30:00 AM 11.37 52.466 0.078 7.31 2.31 10.17
5/19/2021 5:45:00 AM 11.28 52.304 0.078 7.29 2.06 10.2
5/19/2021 6:00:00 AM 11.2 52.16 0.078 7.3 2.3 10.25
5/19/2021 6:15:00 AM 11.12 52.016 0.078 7.34 1.97 10.34
5/19/2021 6:30:00 AM 11.05 51.89 0.078 7.35 2.02 10.43
5/19/2021 6:45:00 AM 10.98 51.764 0.078 7.34 2.11 10.52
5/19/2021 7:00:00 AM 10.93 51.674 0.078 7.39 2.18 10.65
5/19/2021 7:15:00 AM 10.9 51.62 0.078 7.44 2.18 10.78
5/19/2021 7:30:00 AM 10.88 51.584 0.078 7.47 1.92 10.9
5/19/2021 7:45:00 AM 10.9 51.62 0.078 7.51 1.96 11.02
5/19/2021 8:00:00 AM 10.93 51.674 0.077 7.57 2.05 11.12
5/19/2021 8:15:00 AM 11 51.8 0.077 7.62 2 11.24
5/19/2021 8:30:00 AM 11.08 51.944 0.077 7.67 2.01 11.34
5/19/2021 8:45:00 AM 11.18 52.124 0.077 7.75 2.23 11.41
5/19/2021 9:00:00 AM 11.32 52.376 0.077 7.83 2.38 11.46
5/19/2021 9:15:00 AM 11.5 52.7 0.076 7.91 2.07 11.5
5/19/2021 9:30:00 AM 11.71 53.078 0.076 7.97 2.26 11.53
5/19/2021 9:45:00 AM 11.95 53.51 0.076 8.08 2 11.55
5/19/2021 10:00:00 AM 12.2 53.96 0.076 8.21 2.03 11.53
5/19/2021 10:15:00 AM 12.46 54.428 0.076 8.3 1.98 11.48
5/19/2021 10:30:00 AM 12.75 54.95 0.076 8.39 1.95 11.45
5/19/2021 10:45:00 AM 13.04 55.472 0.076 8.5 2.31 11.4
5/19/2021 11:00:00 AM 13.34 56.012 0.076 8.57 2.02 11.36
5/19/2021 11:15:00 AM 13.66 56.588 0.075 8.67 2.2 11.32
5/19/2021 11:30:00 AM 13.98 57.164 0.075 8.71 2.06 11.26
5/19/2021 11:45:00 AM 14.31 57.758 0.075 8.81 2.14 11.21
5/19/2021 12:00:00 PM 14.62 58.316 0.075 8.85 2.15 11.14
5/19/2021 12:15:00 PM 14.96 58.928 0.075 8.92 2.21 11.07
5/19/2021 12:30:00 PM 15.3 59.54 0.075 8.95 2.35 11.01
5/19/2021 12:45:00 PM 15.63 60.134 0.075 8.99 2.13 10.94
5/19/2021 1:00:00 PM 15.96 60.728 0.075 9.03 2.14 10.86
5/19/2021 1:15:00 PM 16.27 61.286 0.075 9.06 2.19 10.8
5/19/2021 1:30:00 PM 16.58 61.844 0.075 9.08 2.46 10.71
5/19/2021 1:45:00 PM 16.85 62.33 0.076 9.11 2.11 10.62
5/19/2021 2:00:00 PM 17.13 62.834 0.076 9.1 2.1 10.53
5/19/2021 2:15:00 PM 17.38 63.284 0.076 9.13 2.09 10.46
5/19/2021 2:30:00 PM 17.61 63.698 0.076 9.13 2.09 10.37
5/19/2021 2:45:00 PM 17.83 64.094 0.075 9.14 2.11 10.3
5/19/2021 3:00:00 PM 18 64.4 0.075 9.13 2.09 10.23
5/19/2021 3:15:00 PM 18.2 64.76 0.075 9.12 2.08 10.2
5/19/2021 3:30:00 PM 18.33 64.994 0.075 9.11 2.14 10.12
5/19/2021 3:45:00 PM 18.38 65.084 0.075 9.06 2.35 9.96
5/19/2021 4:00:00 PM 18.48 65.264 0.075 9.05 2.18 9.95
5/19/2021 4:15:00 PM 18.56 65.408 0.076 9.03 2.2 9.94
5/19/2021 4:30:00 PM 18.55 65.39 0.076 8.96 2.13 9.83
5/19/2021 4:45:00 PM 18.63 65.534 0.076 8.96 2.15 9.86
5/19/2021 5:00:00 PM 18.58 65.444 0.076 8.89 2.87 9.78
5/19/2021 5:15:00 PM 18.55 65.39 0.076 8.77 2.09 9.73
5/19/2021 5:30:00 PM 18.51 65.318 0.076 8.71 2.17 9.68
5/19/2021 5:45:00 PM 18.44 65.192 0.076 8.56 2.21 9.6
5/19/2021 6:00:00 PM 18.4 65.12 0.077 8.44 2.24 9.55
5/19/2021 6:15:00 PM 18.27 64.886 0.077 8.17 2.36 9.42
5/19/2021 6:30:00 PM 18.21 64.778 0.077 8.03 2.55 9.35
5/19/2021 6:45:00 PM 18.09 64.562 0.077 7.88 2.37 9.28
5/19/2021 7:00:00 PM 17.98 64.364 0.077 7.81 2.73 9.23
5/19/2021 7:15:00 PM 17.9 64.22 0.078 7.75 2.26 9.21
5/19/2021 7:30:00 PM 17.8 64.04 0.078 7.69 2.21 9.17
5/19/2021 7:45:00 PM 17.7 63.86 0.078 7.62 2.14 9.1
5/19/2021 8:00:00 PM 17.59 63.662 0.078 7.55 2.16 8.98
5/19/2021 8:15:00 PM 17.46 63.428 0.079 7.48 1.98 8.87
5/19/2021 8:30:00 PM 17.34 63.212 0.079 7.44 2.94 8.8
5/19/2021 8:45:00 PM 17.24 63.032 0.079 7.41 2.34 8.76
5/19/2021 9:00:00 PM 17.12 62.816 0.079 7.36 2.78 8.72
5/19/2021 9:15:00 PM 17.01 62.618 0.079 7.37 2.23 8.74
5/19/2021 9:30:00 PM 16.88 62.384 0.079 7.32 2.15 8.72
5/19/2021 9:45:00 PM 16.76 62.168 0.08 7.32 2.21 8.75
5/19/2021 10:00:00 PM 16.64 61.952 0.08 7.31 2.44 8.77
5/19/2021 10:15:00 PM 16.52 61.736 0.08 7.32 2.24 8.79
5/19/2021 10:30:00 PM 16.38 61.484 0.08 7.3 2.14 8.8
5/19/2021 10:45:00 PM 16.23 61.214 0.08 7.3 2.28 8.83
5/19/2021 11:00:00 PM 16.12 61.016 0.08 7.31 2.24 8.88
5/19/2021 11:15:00 PM 15.98 60.764 0.08 7.31 2.21 8.9
5/19/2021 11:30:00 PM 15.83 60.494 0.08 7.28 2.15 8.92
5/19/2021 11:45:00 PM 15.72 60.296 0.08 7.3 2.27 8.98
5/20/2021 12:00:00 AM 15.59 60.062 0.08 7.29 2.14 9.01
5/20/2021 12:15:00 AM 15.46 59.828 0.08 7.3 2.22 9.03
5/20/2021 12:30:00 AM 15.33 59.594 0.08 7.29 2.25 9.07
5/20/2021 12:45:00 AM 15.2 59.36 0.08 7.29 2.38 9.09
5/20/2021 1:00:00 AM 15.07 59.126 0.08 7.29 2.51 9.13
5/20/2021 1:15:00 AM 14.94 58.892 0.08 7.3 2.31 9.17
5/20/2021 1:30:00 AM 14.82 58.676 0.08 7.29 2.24 9.21
5/20/2021 1:45:00 AM 14.69 58.442 0.08 7.31 2.19 9.24
5/20/2021 2:00:00 AM 14.56 58.208 0.081 7.28 2.33 9.27
5/20/2021 2:15:00 AM 14.43 57.974 0.081 7.31 2.27 9.3
5/20/2021 2:30:00 AM 14.32 57.776 0.081 7.29 2.55 9.34
5/20/2021 2:45:00 AM 14.2 57.56 0.081 7.29 2.41 9.37
5/20/2021 3:00:00 AM 14.08 57.344 0.081 7.3 2.35 9.41
5/20/2021 3:15:00 AM 13.97 57.146 0.081 7.3 2.18 9.44
5/20/2021 3:30:00 AM 13.86 56.948 0.081 7.27 2.25 9.47
5/20/2021 3:45:00 AM 13.75 56.75 0.081 7.3 2.34 9.5
5/20/2021 4:00:00 AM 13.65 56.57 0.081 7.31 2.21 9.54
5/20/2021 4:15:00 AM 13.55 56.39 0.081 7.27 2.05 9.56
5/20/2021 4:30:00 AM 13.46 56.228 0.081 7.31 2.31 9.58
5/20/2021 4:45:00 AM 13.38 56.084 0.081 7.31 2.68 9.62
5/20/2021 5:00:00 AM 13.3 55.94 0.081 7.28 2.37 9.64
5/20/2021 5:15:00 AM 13.22 55.796 0.081 7.3 2.28 9.66
5/20/2021 5:30:00 AM 13.13 55.634 0.081 7.29 2.3 9.66
5/20/2021 5:45:00 AM 13.07 55.526 0.081 7.31 2.34 9.7
5/20/2021 6:00:00 AM 13.01 55.418 0.081 7.32 2.29 9.75
5/20/2021 6:15:00 AM 12.95 55.31 0.081 7.32 2.33 9.82
5/20/2021 6:30:00 AM 12.89 55.202 0.081 7.32 2.42 9.9
5/20/2021 6:45:00 AM 12.84 55.112 0.081 7.35 2.1 10.02
5/20/2021 7:00:00 AM 12.8 55.04 0.081 7.4 2.25 10.13
5/20/2021 7:15:00 AM 12.77 54.986 0.08 7.43 2.16 10.26
5/20/2021 7:30:00 AM 12.75 54.95 0.08 7.47 2.13 10.4
5/20/2021 7:45:00 AM 12.75 54.95 0.08 7.51 2.17 10.53
5/20/2021 8:00:00 AM 12.76 54.968 0.08 7.55 2.17 10.62
5/20/2021 8:15:00 AM 12.79 55.022 0.08 7.6 2.19 10.74
5/20/2021 8:30:00 AM 12.86 55.148 0.08 7.65 2.13 10.83
5/20/2021 8:45:00 AM 12.94 55.292 0.079 7.69 2.21 10.9
5/20/2021 9:00:00 AM 13.05 55.49 0.079 7.77 2.14 10.97
5/20/2021 9:15:00 AM 13.22 55.796 0.079 7.82 2.06 11.01
5/20/2021 9:30:00 AM 13.41 56.138 0.079 7.93 2.22 11.04
5/20/2021 9:45:00 AM 13.64 56.552 0.079 7.99 2.05 11.06
5/20/2021 10:00:00 AM 13.87 56.966 0.078 8.08 2.37 11.08
5/20/2021 10:15:00 AM 14.1 57.38 0.078 8.19 2.08 11.04
5/20/2021 10:30:00 AM 14.38 57.884 0.078 8.26 2.06 11.03
5/20/2021 10:45:00 AM 14.68 58.424 0.078 8.4 2.29 11
5/20/2021 11:00:00 AM 14.98 58.964 0.078 8.5 2.29 10.98
5/20/2021 11:15:00 AM 15.3 59.54 0.078 8.59 2.1 10.92
5/20/2021 11:30:00 AM 15.59 60.062 0.078 8.64 2.17 10.83
5/20/2021 11:45:00 AM 15.91 60.638 0.078 8.73 2.27 10.78
5/20/2021 12:00:00 PM 16.27 61.286 0.078 8.79 2.24 10.73
5/20/2021 12:15:00 PM 16.6 61.88 0.078 8.87 2.27 10.7
5/20/2021 12:30:00 PM 16.94 62.492 0.078 8.93 2.88 10.63
5/20/2021 12:45:00 PM 16.97 62.546 0.078 8.85 3.87 10.39
5/20/2021 1:00:00 PM 17.18 62.924 0.078 8.89 3.2 10.35
5/20/2021 1:15:00 PM 17.37 63.266 0.078 8.85 2.7 10.29
5/20/2021 1:30:00 PM 17.62 63.716 0.078 8.92 2.32 10.23
5/20/2021 1:45:00 PM 17.89 64.202 0.078 8.94 2.51 10.2
5/20/2021 2:00:00 PM 18.17 64.706 0.078 8.96 2.59 10.11
5/20/2021 2:15:00 PM 18.25 64.85 0.078 8.94 2.36 10.03
5/20/2021 2:30:00 PM 18.3 64.94 0.078 8.98 2.45 10.06
5/20/2021 2:45:00 PM 18.47 65.246 0.078 8.98 2.32 10.05
5/20/2021 3:00:00 PM 18.59 65.462 0.078 9.03 2.33 10.02
5/20/2021 3:15:00 PM 18.79 65.82201 0.078 9.02 2.39 9.97
5/20/2021 3:30:00 PM 18.87 65.966 0.078 8.97 2.44 9.88
5/20/2021 3:45:00 PM 18.86 65.948 0.078 8.89 2.24 9.76
5/20/2021 4:00:00 PM 18.77 65.786 0.078 8.81 2.23 9.67
5/20/2021 4:15:00 PM 18.97 66.146 0.078 8.83 2.3 9.72
5/20/2021 4:30:00 PM 19.1 66.38 0.078 8.82 2.36 9.65
5/20/2021 4:45:00 PM 19.2 66.56 0.078 8.75 2.16 9.58
5/20/2021 5:00:00 PM 19.31 66.758 0.078 8.71 2.24 9.53
5/20/2021 5:15:00 PM 19.32 66.776 0.078 8.64 2.26 9.46
5/20/2021 5:30:00 PM 19.27 66.686 0.079 8.5 2.21 9.38
5/20/2021 5:45:00 PM 19.22 66.596 0.079 8.38 2.25 9.33
5/20/2021 6:00:00 PM 19.18 66.524 0.079 8.14 2.12 9.2
5/20/2021 6:15:00 PM 19.11 66.398 0.079 7.98 2.19 9.04
5/20/2021 6:30:00 PM 19.01 66.218 0.079 7.84 2.22 8.97
5/20/2021 6:45:00 PM 18.93 66.074 0.08 7.75 2.5 8.89
5/20/2021 7:00:00 PM 18.85 65.93 0.08 7.67 2.26 8.87
5/20/2021 7:15:00 PM 18.73 65.714 0.08 7.63 2.78 8.82
5/20/2021 7:30:00 PM 18.6 65.48 0.08 7.57 2.3 8.79
5/20/2021 7:45:00 PM 18.47 65.246 0.081 7.54 3.84 8.74
5/20/2021 8:00:00 PM 18.32 64.976 0.081 7.47 2.32 8.69
5/20/2021 8:15:00 PM 18.19 64.742 0.081 7.45 2.28 8.63
5/20/2021 8:30:00 PM 18.1 64.58 0.081 7.41 2.41 8.58
5/20/2021 8:45:00 PM 17.98 64.364 0.081 7.37 2.43 8.53
5/20/2021 9:00:00 PM 17.88 64.184 0.082 7.36 2.2 8.53
5/20/2021 9:15:00 PM 17.77 63.986 0.082 7.34 2.29 8.53
5/20/2021 9:30:00 PM 17.67 63.806 0.082 7.34 2.4 8.51
5/20/2021 9:45:00 PM 17.55 63.59 0.082 7.33 2.42 8.54
5/20/2021 10:00:00 PM 17.44 63.392 0.082 7.32 2.33 8.56
5/20/2021 10:15:00 PM 17.3 63.14 0.082 7.31 2.64 8.56
5/20/2021 10:30:00 PM 17.21 62.978 0.082 7.32 2.57 8.63
5/20/2021 10:45:00 PM 17.06 62.708 0.082 7.3 2.32 8.63
5/20/2021 11:00:00 PM 16.94 62.492 0.082 7.3 2.38 8.66
5/20/2021 11:15:00 PM 16.82 62.276 0.082 7.3 2.58 8.71
5/20/2021 11:30:00 PM 16.68 62.024 0.082 7.3 2.36 8.73
5/20/2021 11:45:00 PM 16.57 61.826 0.082 7.28 2.44 8.78
5/21/2021 12:00:00 AM 16.41 61.538 0.082 7.29 2.3 8.77
5/21/2021 12:15:00 AM 16.29 61.322 0.082 7.3 2.53 8.81
5/21/2021 12:30:00 AM 16.17 61.106 0.082 7.28 2.4 8.87
5/21/2021 12:45:00 AM 16.02 60.836 0.082 7.29 2.4 8.88
5/21/2021 1:00:00 AM 15.9 60.62 0.082 7.3 2.53 8.92
5/21/2021 1:15:00 AM 15.77 60.386 0.082 7.29 2.33 8.95
5/21/2021 1:30:00 AM 15.66 60.188 0.082 7.3 2.45 8.99
5/21/2021 1:45:00 AM 15.53 59.954 0.082 7.3 2.72 9.02
5/21/2021 2:00:00 AM 15.4 59.72 0.082 7.28 2.34 9.04
5/21/2021 2:15:00 AM 15.28 59.504 0.082 7.29 2.3 9.07
5/21/2021 2:30:00 AM 15.16 59.288 0.082 7.27 2.33 9.09
5/21/2021 2:45:00 AM 15.05 59.09 0.082 7.28 2.41 9.13
5/21/2021 3:00:00 AM 14.93 58.874 0.082 7.28 2.45 9.16
5/21/2021 3:15:00 AM 14.82 58.676 0.083 7.3 2.59 9.2
5/21/2021 3:30:00 AM 14.7 58.46 0.083 7.29 2.94 9.22
5/21/2021 3:45:00 AM 14.59 58.262 0.083 7.29 2.44 9.24
5/21/2021 4:00:00 AM 14.49 58.082 0.083 7.28 2.5 9.27
5/21/2021 4:15:00 AM 14.39 57.902 0.083 7.28 2.48 9.31
5/21/2021 4:30:00 AM 14.27 57.686 0.083 7.29 2.65 9.33
5/21/2021 4:45:00 AM 14.17 57.506 0.083 7.29 2.5 9.35
5/21/2021 5:00:00 AM 14.07 57.326 0.083 7.28 2.32 9.38
5/21/2021 5:15:00 AM 13.98 57.164 0.083 7.3 2.67 9.43
5/21/2021 5:30:00 AM 13.87 56.966 0.083 7.29 4.09 9.44
5/21/2021 5:45:00 AM 13.77 56.786 0.083 7.29 3.94 9.47
5/21/2021 6:00:00 AM 13.69 56.642 0.083 7.31 3.94 9.53
5/21/2021 6:15:00 AM 13.61 56.498 0.083 7.32 3.86 9.61
5/21/2021 6:30:00 AM 13.52 56.336 0.082 7.33 4.05 9.69
5/21/2021 6:45:00 AM 13.44 56.192 0.082 7.34 3.62 9.78
5/21/2021 7:00:00 AM 13.4 56.12 0.082 7.36 3.85 9.9
5/21/2021 7:15:00 AM 13.38 56.084 0.082 7.4 3.8 10.03
5/21/2021 7:30:00 AM 13.34 56.012 0.082 7.43 3.54 10.15
5/21/2021 7:45:00 AM 13.35 56.03 0.082 7.48 3.64 10.27
5/21/2021 8:00:00 AM 13.36 56.048 0.082 7.47 3.68 10.36
5/21/2021 8:15:00 AM 13.44 56.192 0.082 7.55 2.97 10.49
5/21/2021 8:30:00 AM 13.5 56.3 0.081 7.59 2.91 10.58
5/21/2021 8:45:00 AM 13.59 56.462 0.081 7.63 2.74 10.67
5/21/2021 9:00:00 AM 13.69 56.642 0.081 7.71 2.82 10.67
5/21/2021 9:15:00 AM 13.83 56.894 0.081 7.71 2.74 10.72
5/21/2021 9:30:00 AM 14 57.2 0.081 7.79 2.64 10.76
5/21/2021 9:45:00 AM 14.22 57.596 0.081 7.83 2.93 10.79
5/21/2021 10:00:00 AM 14.44 57.992 0.081 7.9 2.61 10.78
5/21/2021 10:15:00 AM 14.72 58.496 0.081 7.99 2.76 10.81
5/21/2021 10:30:00 AM 14.99 58.982 0.08 8.08 2.99 10.77
5/21/2021 10:45:00 AM 15.27 59.486 0.08 8.19 2.75 10.74
5/21/2021 11:00:00 AM 15.54 59.972 0.08 8.13 2.79 10.69
5/21/2021 11:15:00 AM 15.86 60.548 0.08 8.33 2.93 10.65
5/21/2021 11:30:00 AM 16.2 61.16 0.08 8.43 2.86 10.63
5/21/2021 11:45:00 AM 16.49 61.682 0.08 8.55 2.82 10.55
5/21/2021 12:00:00 PM 16.8 62.24 0.08 8.54 2.87 10.5
5/21/2021 12:15:00 PM 17.16 62.888 0.08 8.7 2.84 10.46
5/21/2021 12:30:00 PM 17.52 63.536 0.08 8.8 2.84 10.42
5/21/2021 12:45:00 PM 17.8 64.04 0.08 8.81 2.98 10.36
5/21/2021 1:00:00 PM 18.14 64.652 0.08 8.88 3.57 10.29
5/21/2021 1:15:00 PM 18.39 65.102 0.08 8.86 3.5 10.22
5/21/2021 1:30:00 PM 18.68 65.624 0.08 8.9 3.15 10.15
5/21/2021 1:45:00 PM 18.96 66.128 0.08 8.94 2.88 10.05
5/21/2021 2:00:00 PM 19.14 66.452 0.079 8.93 3.06 9.95
5/21/2021 2:15:00 PM 19.43 66.974 0.08 8.96 2.8 9.89
5/21/2021 2:30:00 PM 19.67 67.406 0.08 8.99 2.72 9.82
5/21/2021 2:45:00 PM 19.87 67.766 0.08 8.99 2.61 9.79
5/21/2021 3:00:00 PM 20.08 68.144 0.08 8.99 2.58 9.79
5/21/2021 3:15:00 PM 20.25 68.45 0.08 9.01 2.57 9.73
5/21/2021 3:30:00 PM 20.34 68.612 0.08 8.98 2.69 9.57
5/21/2021 3:45:00 PM 20.45 68.81 0.08 8.97 2.6 9.56
5/21/2021 4:00:00 PM 20.45 68.81 0.08 8.91 2.68 9.51
5/21/2021 4:15:00 PM 20.52 68.936 0.08 8.91 2.66 9.46
5/21/2021 4:30:00 PM 20.6 69.08 0.08 8.91 2.57 9.41
5/21/2021 4:45:00 PM 20.68 69.224 0.08 8.86 2.62 9.35
5/21/2021 5:00:00 PM 20.58 69.044 0.081 8.73 2.63 9.29
5/21/2021 5:15:00 PM 20.54 68.972 0.081 8.55 2.88 9.09
5/21/2021 5:30:00 PM 20.51 68.918 0.081 8.33 2.73 8.98
5/21/2021 5:45:00 PM 20.42 68.756 0.081 8.15 2.67 8.9
5/21/2021 6:00:00 PM 20.38 68.684 0.081 8 2.64 8.84
5/21/2021 6:15:00 PM 20.36 68.648 0.081 7.9 2.85 8.84
5/21/2021 6:30:00 PM 20.33 68.594 0.081 7.89 2.7 8.88
5/21/2021 6:45:00 PM 20.24 68.432 0.082 7.82 2.57 8.87
5/21/2021 7:00:00 PM 20.16 68.288 0.082 7.76 2.54 8.83
5/21/2021 7:15:00 PM 20.03 68.054 0.082 7.66 2.53 8.72
5/21/2021 7:30:00 PM 19.9 67.82 0.082 7.6 2.42 8.63
5/21/2021 7:45:00 PM 19.8 67.64 0.083 7.57 2.82 8.55
5/21/2021 8:00:00 PM 19.71 67.478 0.083 7.52 2.5 8.51
5/21/2021 8:15:00 PM 19.6 67.28 0.083 7.46 2.57 8.4
5/21/2021 8:30:00 PM 19.48 67.064 0.083 7.44 2.64 8.3
5/21/2021 8:45:00 PM 19.33 66.794 0.083 7.38 2.52 8.24
5/21/2021 9:00:00 PM 19.21 66.578 0.083 7.38 2.17 8.22
5/21/2021 9:15:00 PM 19.02 66.236 0.084 7.31 2.42 8.2
5/21/2021 9:30:00 PM 18.9 66.02 0.084 7.33 2.29 8.21
5/21/2021 9:45:00 PM 18.75 65.75 0.084 7.3 2.38 8.22
5/21/2021 10:00:00 PM 18.61 65.498 0.084 7.31 2.44 8.24
5/21/2021 10:15:00 PM 18.47 65.246 0.084 7.31 2.27 8.25
5/21/2021 10:30:00 PM 18.33 64.994 0.084 7.3 2.4 8.29
5/21/2021 10:45:00 PM 18.19 64.742 0.084 7.28 2.67 8.31
5/21/2021 11:00:00 PM 18.05 64.49 0.084 7.28 2.3 8.34
5/21/2021 11:15:00 PM 17.93 64.274 0.084 7.29 2.48 8.36
5/21/2021 11:30:00 PM 17.8 64.04 0.084 7.28 2.4 8.38
5/21/2021 11:45:00 PM 17.71 63.878 0.084 7.29 2.39 8.43
5/22/2021 12:00:00 AM 17.61 63.698 0.084 7.28 2.45 8.47
5/22/2021 12:15:00 AM 17.49 63.482 0.084 7.29 2.52 8.48
5/22/2021 12:30:00 AM 17.36 63.248 0.084 7.28 2.5 8.49
5/22/2021 12:45:00 AM 17.24 63.032 0.084 7.28 2.51 8.5
5/22/2021 1:00:00 AM 17.12 62.816 0.084 7.27 2.64 8.55
5/22/2021 1:15:00 AM 17.01 62.618 0.084 7.29 2.57 8.59
5/22/2021 1:30:00 AM 16.88 62.384 0.084 7.28 3.37 8.62
5/22/2021 1:45:00 AM 16.75 62.15 0.084 7.27 2.33 8.65
5/22/2021 2:00:00 AM 16.63 61.934 0.084 7.29 2.57 8.68
5/22/2021 2:15:00 AM 16.5 61.7 0.084 7.28 2.51 8.7
5/22/2021 2:30:00 AM 16.4 61.52 0.084 7.28 2.52 8.74
5/22/2021 2:45:00 AM 16.28 61.304 0.085 7.26 2.34 8.76
5/22/2021 3:00:00 AM 16.17 61.106 0.085 7.27 2.72 8.8
5/22/2021 3:15:00 AM 16.06 60.908 0.085 7.28 2.42 8.82
5/22/2021 3:30:00 AM 15.97 60.746 0.085 7.27 2.5 8.86
5/22/2021 3:45:00 AM 15.86 60.548 0.085 7.28 2.75 8.87
5/22/2021 4:00:00 AM 15.78 60.404 0.085 7.28 2.79 8.91
5/22/2021 4:15:00 AM 15.67 60.206 0.085 7.28 2.34 8.92
5/22/2021 4:30:00 AM 15.57 60.026 0.085 7.28 2.49 8.94
5/22/2021 4:45:00 AM 15.48 59.864 0.085 7.27 2.45 8.96
5/22/2021 5:00:00 AM 15.39 59.702 0.085 7.28 2.66 9
5/22/2021 5:15:00 AM 15.28 59.504 0.085 7.28 2.33 9.01
5/22/2021 5:30:00 AM 15.21 59.378 0.085 7.29 2.55 9.05
5/22/2021 5:45:00 AM 15.11 59.198 0.085 7.25 2.34 9.08
5/22/2021 6:00:00 AM 15.03 59.054 0.085 7.27 2.44 9.13
5/22/2021 6:15:00 AM 14.92 58.856 0.085 7.28 2.31 9.19
5/22/2021 6:30:00 AM 14.86 58.748 0.085 7.3 2.4 9.32
5/22/2021 6:45:00 AM 14.8 58.64 0.085 7.33 2.31 9.45
5/22/2021 7:00:00 AM 14.75 58.55 0.085 7.35 2.35 9.56
5/22/2021 7:15:00 AM 14.72 58.496 0.085 7.4 2.46 9.69
5/22/2021 7:30:00 AM 14.69 58.442 0.085 7.42 2.33 9.83
5/22/2021 7:45:00 AM 14.69 58.442 0.084 7.46 2.29 9.97
5/22/2021 8:00:00 AM 14.73 58.514 0.084 7.54 2.44 10.17
5/22/2021 8:15:00 AM 14.78 58.604 0.084 7.58 2.33 10.27
5/22/2021 8:30:00 AM 14.85 58.73 0.084 7.63 2.31 10.36
5/22/2021 8:45:00 AM 14.93 58.874 0.083 7.73 2.22 10.46
5/22/2021 9:00:00 AM 15.03 59.054 0.083 7.77 2.61 10.53
5/22/2021 9:15:00 AM 15.1 59.18 0.083 7.79 2.19 10.52
5/22/2021 9:30:00 AM 15.19 59.342 0.083 7.88 2.4 10.59
5/22/2021 9:45:00 AM 15.31 59.558 0.083 7.98 2.57 10.63
5/22/2021 10:00:00 AM 15.44 59.792 0.083 8.03 2.39 10.63
5/22/2021 10:15:00 AM 15.57 60.026 0.082 8.16 2.25 10.61
5/22/2021 10:30:00 AM 15.75 60.35 0.082 8.26 2.35 10.63
5/22/2021 10:45:00 AM 15.94 60.692 0.082 8.37 2.52 10.66
5/22/2021 11:00:00 AM 16.11 60.998 0.082 8.46 2.58 10.63
5/22/2021 11:15:00 AM 16.37 61.466 0.082 8.59 2.44 10.65
5/22/2021 11:30:00 AM 16.56 61.808 0.082 8.67 2.57 10.63
5/22/2021 11:45:00 AM 16.72 62.096 0.082 8.74 2.29 10.57
5/22/2021 12:00:00 PM 16.86 62.348 0.082 8.83 2.43 10.54
5/22/2021 12:15:00 PM 17.06 62.708 0.082 8.89 2.37 10.57
5/22/2021 12:30:00 PM 17.23 63.014 0.082 8.96 2.39 10.53
5/22/2021 12:45:00 PM 17.39 63.302 0.082 8.97 2.24 10.49
5/22/2021 1:00:00 PM 17.63 63.734 0.081 9.06 2.4 10.48
5/22/2021 1:15:00 PM 17.82 64.076 0.081 9.09 2.48 10.44
5/22/2021 1:30:00 PM 18.02 64.436 0.081 9.09 2.42 10.35
5/22/2021 1:45:00 PM 18.22 64.796 0.081 9.12 2.46 10.33
5/22/2021 2:00:00 PM 18.44 65.192 0.081 9.16 2.51 10.29
5/22/2021 2:15:00 PM 18.63 65.534 0.081 9.17 2.23 10.21
5/22/2021 2:30:00 PM 18.77 65.786 0.081 9.17 2.41 10.17
5/22/2021 2:45:00 PM 18.97 66.146 0.082 9.2 2.42 10.15
5/22/2021 3:00:00 PM 19.1 66.38 0.082 9.19 2.27 10.02
5/22/2021 3:15:00 PM 19.24 66.632 0.081 9.2 2.59 9.94
5/22/2021 3:30:00 PM 19.33 66.794 0.082 9.16 2.4 9.83
5/22/2021 3:45:00 PM 19.35 66.83 0.082 9.13 2.43 9.8
5/22/2021 4:00:00 PM 19.43 66.974 0.082 9.1 2.34 9.81
5/22/2021 4:15:00 PM 19.47 67.046 0.082 9.09 2.29 9.78
5/22/2021 4:30:00 PM 19.5 67.1 0.082 9.08 2.51 9.72
5/22/2021 4:45:00 PM 19.46 67.028 0.082 8.98 2.31 9.58
5/22/2021 5:00:00 PM 19.48 67.064 0.082 8.95 2.54 9.55
5/22/2021 5:15:00 PM 19.49 67.082 0.082 8.9 2.2 9.49
5/22/2021 5:30:00 PM 19.42 66.956 0.083 8.8 2.38 9.41
5/22/2021 5:45:00 PM 19.38 66.884 0.083 8.69 2.42 9.33
5/22/2021 6:00:00 PM 19.32 66.776 0.083 8.57 2.35 9.24
5/22/2021 6:15:00 PM 19.33 66.794 0.083 8.42 2.32 9.23
5/22/2021 6:30:00 PM 19.24 66.632 0.083 8.18 2.3 9.07
5/22/2021 6:45:00 PM 19.15 66.47 0.084 7.96 2.28 8.94
5/22/2021 7:00:00 PM 19.13 66.434 0.084 7.88 2.29 8.89
5/22/2021 7:15:00 PM 19.02 66.236 0.084 7.76 2.27 8.77
5/22/2021 7:30:00 PM 18.98 66.164 0.084 7.71 2.29 8.74
5/22/2021 7:45:00 PM 18.92 66.056 0.085 7.66 2.57 8.65
5/22/2021 8:00:00 PM 18.83 65.894 0.085 7.58 2.21 8.52
5/22/2021 8:15:00 PM 18.71 65.67799 0.085 7.51 2.21 8.45
5/22/2021 8:30:00 PM 18.62 65.516 0.085 7.48 2.38 8.38
5/22/2021 8:45:00 PM 18.57 65.426 0.086 7.45 2.48 8.33
5/22/2021 9:00:00 PM 18.48 65.264 0.086 7.43 3.01 8.28
5/22/2021 9:15:00 PM 18.42 65.156 0.086 7.42 2.66 8.29
5/22/2021 9:30:00 PM 18.31 64.958 0.086 7.38 2.38 8.24
5/22/2021 9:45:00 PM 18.26 64.868 0.086 7.38 2.27 8.25
5/22/2021 10:00:00 PM 18.2 64.76 0.086 7.39 2.56 8.26
5/22/2021 10:15:00 PM 18.11 64.598 0.086 7.38 2.39 8.28
5/22/2021 10:30:00 PM 18.05 64.49 0.086 7.36 2.4 8.31
5/22/2021 10:45:00 PM 17.98 64.364 0.086 7.34 2.25 8.32
5/22/2021 11:00:00 PM 17.88 64.184 0.086 7.34 2.39 8.29
5/22/2021 11:15:00 PM 17.84 64.112 0.086 7.33 2.4 8.34
5/22/2021 11:30:00 PM 17.76 63.968 0.086 7.34 2.28 8.33
5/22/2021 11:45:00 PM 17.72 63.896 0.086 7.34 2.52 8.37
5/23/2021 12:00:00 AM 17.63 63.734 0.086 7.33 2.46 8.35
5/23/2021 12:15:00 AM 17.56 63.608 0.087 7.31 2.61 8.37
5/23/2021 12:30:00 AM 17.48 63.464 0.086 7.3 2.34 8.37
5/23/2021 12:45:00 AM 17.4 63.32 0.087 7.3 2.75 8.39
5/23/2021 1:00:00 AM 17.32 63.176 0.087 7.31 2.5 8.4
5/23/2021 1:15:00 AM 17.29 63.122 0.087 7.31 2.47 8.44
5/23/2021 1:30:00 AM 17.22 62.996 0.087 7.33 2.49 8.46
5/23/2021 1:45:00 AM 17.15 62.87 0.087 7.31 3.21 8.47
5/23/2021 2:00:00 AM 17.12 62.816 0.087 7.32 2.44 8.51
5/23/2021 2:15:00 AM 17.03 62.654 0.087 7.3 2.58 8.49
5/23/2021 2:30:00 AM 16.97 62.546 0.087 7.29 2.47 8.5
5/23/2021 2:45:00 AM 16.91 62.438 0.087 7.31 2.43 8.53
5/23/2021 3:00:00 AM 16.84 62.312 0.087 7.28 2.56 8.53
5/23/2021 3:15:00 AM 16.79 62.222 0.087 7.28 2.41 8.56
5/23/2021 3:30:00 AM 16.73 62.114 0.087 7.29 2.6 8.58
5/23/2021 3:45:00 AM 16.67 62.006 0.087 7.29 2.64 8.59
5/23/2021 4:00:00 AM 16.59 61.862 0.087 7.29 2.36 8.62
5/23/2021 4:15:00 AM 16.51 61.718 0.087 7.28 2.62 8.6
5/23/2021 4:30:00 AM 16.46 61.628 0.087 7.27 2.56 8.64
5/23/2021 4:45:00 AM 16.4 61.52 0.087 7.27 2.61 8.65
5/23/2021 5:00:00 AM 16.36 61.448 0.087 7.29 2.56 8.68
5/23/2021 5:15:00 AM 16.31 61.358 0.088 7.29 2.44 8.7
5/23/2021 5:30:00 AM 16.21 61.178 0.087 7.29 2.62 8.68
5/23/2021 5:45:00 AM 16.17 61.106 0.088 7.29 2.43 8.72
5/23/2021 6:00:00 AM 16.12 61.016 0.088 7.28 2.5 8.74
5/23/2021 6:15:00 AM 16.07 60.926 0.088 7.3 2.55 8.8
5/23/2021 6:30:00 AM 15.98 60.764 0.088 7.29 2.82 8.87
5/23/2021 6:45:00 AM 15.94 60.692 0.088 7.31 2.4 8.96
5/23/2021 7:00:00 AM 15.9 60.62 0.088 7.33 2.41 9.1
5/23/2021 7:15:00 AM 15.89 60.602 0.087 7.38 2.35 9.27
5/23/2021 7:30:00 AM 15.88 60.584 0.087 7.42 2.7 9.41
5/23/2021 7:45:00 AM 15.92 60.656 0.087 7.5 2.34 9.57
5/23/2021 8:00:00 AM 15.91 60.638 0.087 7.49 2.67 9.6
5/23/2021 8:15:00 AM 15.92 60.656 0.087 7.51 2.32 9.68
5/23/2021 8:30:00 AM 16.02 60.836 0.086 7.6 2.56 9.87
5/23/2021 8:45:00 AM 16.08 60.944 0.086 7.68 2.33 9.92
5/23/2021 9:00:00 AM 16.09 60.962 0.086 7.71 2.55 9.97
5/23/2021 9:15:00 AM 16.16 61.088 0.086 7.73 2.57 10.03
5/23/2021 9:30:00 AM 16.28 61.304 0.086 7.82 2.22 10.11
5/23/2021 9:45:00 AM 16.39 61.502 0.085 7.91 2.24 10.15
5/23/2021 10:00:00 AM 16.53 61.754 0.085 7.97 2.37 10.19
5/23/2021 10:15:00 AM 16.65 61.97 0.085 7.95 2.45 10.22
5/23/2021 10:30:00 AM 16.92 62.456 0.085 8.21 2.46 10.25
5/23/2021 10:45:00 AM 17.07 62.726 0.085 8.27 2.26 10.23
5/23/2021 11:00:00 AM 17.17 62.906 0.085 8.33 2.39 10.2
5/23/2021 11:15:00 AM 17.37 63.266 0.085 8.41 2.22 10.21
5/23/2021 11:30:00 AM 17.49 63.482 0.085 8.46 2.34 10.15
5/23/2021 11:45:00 AM 17.65 63.77 0.085 8.48 2.23 10.16
5/23/2021 12:00:00 PM 17.89 64.202 0.085 8.63 2.32 10.19
5/23/2021 12:15:00 PM 18 64.4 0.085 8.64 2.25 10.08
5/23/2021 12:30:00 PM 18.18 64.724 0.085 8.65 2.36 9.98
5/23/2021 12:45:00 PM 18.4 65.12 0.084 8.74 2.49 10.06
5/23/2021 1:00:00 PM 18.65 65.57 0.084 8.79 2.34 10.05
5/23/2021 1:15:00 PM 18.89 66.002 0.084 8.86 2.27 10.01
5/23/2021 1:30:00 PM 19.24 66.632 0.084 8.93 2.53 10.07
5/23/2021 1:45:00 PM 19.38 66.884 0.084 8.92 2.21 9.9
5/23/2021 2:00:00 PM 19.43 66.974 0.084 8.88 2.44 9.84
5/23/2021 2:15:00 PM 19.5 67.1 0.084 8.88 2.34 9.7
5/23/2021 2:30:00 PM 19.5 67.1 0.084 8.78 2.23 9.54
5/23/2021 2:45:00 PM 19.5 67.1 0.084 8.74 2.3 9.43
5/23/2021 3:00:00 PM 19.59 67.262 0.084 8.63 2.34 9.3
5/23/2021 3:15:00 PM 19.66 67.388 0.084 8.64 2.25 9.4
5/23/2021 3:30:00 PM 19.8 67.64 0.084 8.67 2.22 9.45
5/23/2021 3:45:00 PM 19.92 67.856 0.084 8.7 2.17 9.56
5/23/2021 4:00:00 PM 20 68 0.084 8.77 2.15 9.6
5/23/2021 4:15:00 PM 20.05 68.09 0.085 8.79 2.28 9.62
5/23/2021 4:30:00 PM 19.98 67.964 0.085 8.69 2.29 9.46
5/23/2021 4:45:00 PM 19.97 67.946 0.085 8.72 2.3 9.51
5/23/2021 5:00:00 PM 19.95 67.91 0.085 8.73 2.29 9.5
5/23/2021 5:15:00 PM 19.91 67.838 0.085 8.55 2.2 9.27
5/23/2021 5:30:00 PM 19.86 67.748 0.085 8.34 2.24 9.15
5/23/2021 5:45:00 PM 19.83 67.694 0.085 8.25 2.23 9.06
5/23/2021 6:00:00 PM 19.76 67.568 0.085 8.04 3.17 8.89
5/23/2021 6:15:00 PM 19.67 67.406 0.086 7.84 2.07 8.69
5/23/2021 6:30:00 PM 19.55 67.19 0.086 7.69 2.29 8.57
5/23/2021 6:45:00 PM 19.48 67.064 0.087 7.67 3.29 8.49
5/23/2021 7:00:00 PM 19.34 66.812 0.087 7.58 2.15 8.39
5/23/2021 7:15:00 PM 19.26 66.668 0.087 7.55 2.32 8.38
5/23/2021 7:30:00 PM 19.17 66.506 0.087 7.54 2.44 8.42
5/23/2021 7:45:00 PM 19.04 66.272 0.088 7.53 2.31 8.39
5/23/2021 8:00:00 PM 18.93 66.074 0.088 7.5 2.31 8.38
5/23/2021 8:15:00 PM 18.8 65.84 0.088 7.48 2.14 8.35
5/23/2021 8:30:00 PM 18.68 65.624 0.088 7.43 2.22 8.32
5/23/2021 8:45:00 PM 18.53 65.354 0.088 7.43 2.44 8.3
5/23/2021 9:00:00 PM 18.39 65.102 0.088 7.43 3.48 8.28
5/23/2021 9:15:00 PM 18.23 64.814 0.088 7.39 2.72 8.21
5/23/2021 9:30:00 PM 18.11 64.598 0.088 7.39 2.36 8.29
5/23/2021 9:45:00 PM 18 64.4 0.088 7.37 2.79 8.32
5/23/2021 10:00:00 PM 17.87 64.166 0.087 7.37 2.29 8.32
5/23/2021 10:15:00 PM 17.78 64.004 0.088 7.39 2.45 8.37
5/23/2021 10:30:00 PM 17.65 63.77 0.088 7.38 2.51 8.37
5/23/2021 10:45:00 PM 17.54 63.572 0.088 7.38 2.26 8.41
5/23/2021 11:00:00 PM 17.41 63.338 0.088 7.38 2.52 8.44
5/23/2021 11:15:00 PM 17.25 63.05 0.088 7.36 2.42 8.44
5/23/2021 11:30:00 PM 17.16 62.888 0.088 7.38 2.3 8.51
5/23/2021 11:45:00 PM 17.01 62.618 0.088 7.36 2.5 8.53
5/24/2021 12:00:00 AM 16.9 62.42 0.088 7.37 2.51 8.56
5/24/2021 12:15:00 AM 16.77 62.186 0.088 7.37 2.38 8.6
5/24/2021 12:30:00 AM 16.64 61.952 0.088 7.37 2.87 8.61
5/24/2021 12:45:00 AM 16.5 61.7 0.088 7.33 2.32 8.65
5/24/2021 1:00:00 AM 16.37 61.466 0.088 7.34 2.49 8.69
5/24/2021 1:15:00 AM 16.25 61.25 0.088 7.33 2.57 8.72
5/24/2021 1:30:00 AM 16.14 61.052 0.088 7.35 2.45 8.76
5/24/2021 1:45:00 AM 16.01 60.818 0.088 7.35 2.87 8.77
5/24/2021 2:00:00 AM 15.89 60.602 0.088 7.35 2.37 8.79
5/24/2021 2:15:00 AM 15.78 60.404 0.088 7.32 2.75 8.84
5/24/2021 2:30:00 AM 15.67 60.206 0.088 7.35 3.61 8.87
5/24/2021 2:45:00 AM 15.53 59.954 0.088 7.32 2.62 8.89
5/24/2021 3:00:00 AM 15.43 59.774 0.088 7.36 2.36 8.92
5/24/2021 3:15:00 AM 15.3 59.54 0.088 7.36 2.45 8.97
5/24/2021 3:30:00 AM 15.16 59.288 0.088 7.34 2.36 9.01
5/24/2021 3:45:00 AM 15.02 59.036 0.088 7.35 2.53 9.01
5/24/2021 4:00:00 AM 14.94 58.892 0.089 7.34 2.68 9.09
5/24/2021 4:15:00 AM 14.81 58.658 0.088 7.36 2.36 9.09
5/24/2021 4:30:00 AM 14.69 58.442 0.089 7.34 2.39 9.13
5/24/2021 4:45:00 AM 14.59 58.262 0.088 7.35 2.29 9.15
5/24/2021 5:00:00 AM 14.49 58.082 0.089 7.33 2.68 9.19
5/24/2021 5:15:00 AM 14.4 57.92 0.089 7.36 2.38 9.21
5/24/2021 5:30:00 AM 14.31 57.758 0.089 7.34 2.41 9.23
5/24/2021 5:45:00 AM 14.23 57.614 0.089 7.34 2.75 9.25
5/24/2021 6:00:00 AM 14.16 57.488 0.089 7.36 2.41 9.31
5/24/2021 6:15:00 AM 14.1 57.38 0.089 7.36 2.36 9.39
5/24/2021 6:30:00 AM 14.06 57.308 0.089 7.39 2.29 9.48
5/24/2021 6:45:00 AM 14.05 57.29 0.088 7.42 2.53 9.57
5/24/2021 7:00:00 AM 14 57.2 0.088 7.42 2.53 9.73
5/24/2021 7:15:00 AM 13.98 57.164 0.088 7.49 2.38 9.92
5/24/2021 7:30:00 AM 14 57.2 0.088 7.55 2.47 10.1
5/24/2021 7:45:00 AM 14.02 57.236 0.087 7.61 2.23 10.26
5/24/2021 8:00:00 AM 14.03 57.254 0.087 7.64 2.37 10.34
5/24/2021 8:15:00 AM 14.09 57.362 0.087 7.65 2.22 10.42
5/24/2021 8:30:00 AM 14.14 57.452 0.087 7.73 2.24 10.54
5/24/2021 8:45:00 AM 14.19 57.542 0.086 7.81 2.45 10.66
5/24/2021 9:00:00 AM 14.29 57.722 0.086 7.93 2.3 10.72
5/24/2021 9:15:00 AM 14.34 57.812 0.086 7.97 2.25 10.75
5/24/2021 9:30:00 AM 14.44 57.992 0.086 8.12 2.58 10.81
5/24/2021 9:45:00 AM 14.49 58.082 0.085 8.2 2.35 10.8
5/24/2021 10:00:00 AM 14.59 58.262 0.085 8.23 2.19 10.83
5/24/2021 10:15:00 AM 14.8 58.64 0.085 8.4 2.23 10.87
5/24/2021 10:30:00 AM 14.97 58.946 0.085 8.41 2.16 10.81
5/24/2021 10:45:00 AM 15.25 59.45 0.085 8.52 2.18 10.78
5/24/2021 11:00:00 AM 15.55 59.99 0.085 8.65 2.27 10.78
5/24/2021 11:15:00 AM 15.73 60.314 0.085 8.67 2.39 10.75
5/24/2021 11:30:00 AM 15.99 60.782 0.085 8.8 2.26 10.78
5/24/2021 11:45:00 AM 16.14 61.052 0.085 8.85 2.34 10.73
5/24/2021 12:00:00 PM 16.37 61.466 0.085 8.88 2.54 10.65
5/24/2021 12:15:00 PM 16.68 62.024 0.085 8.91 2.16 10.58
5/24/2021 12:30:00 PM 17.03 62.654 0.085 8.98 2.38 10.57
5/24/2021 12:45:00 PM 17.38 63.284 0.085 9 2.3 10.48
5/24/2021 1:00:00 PM 17.68 63.824 0.085 9.02 2.34 10.35
5/24/2021 1:15:00 PM 18.03 64.454 0.085 9.06 2.44 10.34
5/24/2021 1:30:00 PM 18.26 64.868 0.085 9.04 2.3 10.21
5/24/2021 1:45:00 PM 18.54 65.372 0.085 9.06 2.3 10.16
5/24/2021 2:00:00 PM 18.76 65.768 0.085 9.01 2.16 10.06
5/24/2021 2:15:00 PM 18.96 66.128 0.085 9.02 2.25 9.97
5/24/2021 2:30:00 PM 19.17 66.506 0.085 9.04 2.48 9.92
5/24/2021 2:45:00 PM 19.27 66.686 0.085 8.98 2.24 9.83
5/24/2021 3:00:00 PM 19.45 67.01 0.086 9 2.01 9.79
5/24/2021 3:15:00 PM 19.48 67.064 0.086 8.93 2.22 9.69
5/24/2021 3:30:00 PM 19.53 67.154 0.086 8.9 2.33 9.62
5/24/2021 3:45:00 PM 19.66 67.388 0.086 8.88 2.18 9.64
5/24/2021 4:00:00 PM 19.66 67.388 0.086 8.85 2.39 9.5
5/24/2021 4:15:00 PM 19.64 67.352 0.086 8.77 2.71 9.42
5/24/2021 4:30:00 PM 19.57 67.226 0.086 8.63 2.43 9.33
5/24/2021 4:45:00 PM 19.51 67.118 0.086 8.63 2.39 9.39
5/24/2021 5:00:00 PM 19.42 66.956 0.086 8.61 2.3 9.44
5/24/2021 5:15:00 PM 19.31 66.758 0.087 8.54 2.31 9.46
5/24/2021 5:30:00 PM 19.13 66.434 0.086 8.52 2.31 9.51
5/24/2021 5:45:00 PM 19.06 66.308 0.086 8.42 2 9.43
5/24/2021 6:00:00 PM 19.01 66.218 0.086 8.36 2.17 9.36
5/24/2021 6:15:00 PM 18.89 66.002 0.086 8.22 2.17 9.21
5/24/2021 6:30:00 PM 18.76 65.768 0.087 8.01 2.08 9.09
5/24/2021 6:45:00 PM 18.64 65.552 0.087 7.9 2.09 9.03
5/24/2021 7:00:00 PM 18.51 65.318 0.087 7.81 2.41 8.95
5/24/2021 7:15:00 PM 18.38 65.084 0.087 7.72 2.06 8.83
5/24/2021 7:30:00 PM 18.28 64.904 0.088 7.67 2.05 8.77
5/24/2021 7:45:00 PM 18.11 64.598 0.088 7.58 2.49 8.66
5/24/2021 8:00:00 PM 18.03 64.454 0.089 7.58 2.35 8.63
5/24/2021 8:15:00 PM 17.89 64.202 0.089 7.52 2.09 8.57
5/24/2021 8:30:00 PM 17.76 63.968 0.089 7.49 2.21 8.51
5/24/2021 8:45:00 PM 17.67 63.806 0.089 7.49 2.33 8.5
5/24/2021 9:00:00 PM 17.54 63.572 0.089 7.45 2.19 8.45
5/24/2021 9:15:00 PM 17.43 63.374 0.089 7.44 2.21 8.45
5/24/2021 9:30:00 PM 17.31 63.158 0.089 7.42 2.23 8.45
5/24/2021 9:45:00 PM 17.22 62.996 0.089 7.41 2.26 8.47
5/24/2021 10:00:00 PM 17.13 62.834 0.089 7.4 2.28 8.49
5/24/2021 10:15:00 PM 17.03 62.654 0.089 7.4 2.65 8.52
5/24/2021 10:30:00 PM 16.93 62.474 0.089 7.4 2.26 8.54
5/24/2021 10:45:00 PM 16.82 62.276 0.089 7.38 2.16 8.56
5/24/2021 11:00:00 PM 16.71 62.078 0.089 7.38 2.17 8.57
5/24/2021 11:15:00 PM 16.61 61.898 0.089 7.39 2.73 8.62
5/24/2021 11:30:00 PM 16.52 61.736 0.089 7.39 2.57 8.65
5/24/2021 11:45:00 PM 16.4 61.52 0.089 7.38 2.12 8.66
5/25/2021 12:00:00 AM 16.28 61.304 0.089 7.37 2.11 8.68
5/25/2021 12:15:00 AM 16.19 61.142 0.089 7.36 2.18 8.73
5/25/2021 12:30:00 AM 16.1 60.98 0.089 7.37 2.33 8.75
5/25/2021 12:45:00 AM 16 60.8 0.089 7.37 2.14 8.78
5/25/2021 1:00:00 AM 15.92 60.656 0.089 7.38 2.28 8.81
5/25/2021 1:15:00 AM 15.82 60.476 0.089 7.37 2.2 8.83
5/25/2021 1:30:00 AM 15.7 60.26 0.089 7.34 2.06 8.83
5/25/2021 1:45:00 AM 15.62 60.116 0.089 7.35 2.55 8.86
5/25/2021 2:00:00 AM 15.55 59.99 0.09 7.36 2.12 8.91
5/25/2021 2:15:00 AM 15.45 59.81 0.09 7.36 2.44 8.92
5/25/2021 2:30:00 AM 15.37 59.666 0.09 7.36 2.24 8.96
5/25/2021 2:45:00 AM 15.28 59.504 0.09 7.36 2.26 8.97
5/25/2021 3:00:00 AM 15.21 59.378 0.09 7.39 3.32 9
5/25/2021 3:15:00 AM 15.1 59.18 0.09 7.34 2.21 9.02
5/25/2021 3:30:00 AM 15.03 59.054 0.09 7.34 2.38 9.02
5/25/2021 3:45:00 AM 14.96 58.928 0.09 7.36 5.01 9.06
5/25/2021 4:00:00 AM 14.88 58.784 0.09 7.37 2.29 9.09
5/25/2021 4:15:00 AM 14.8 58.64 0.09 7.35 2.11 9.1
5/25/2021 4:30:00 AM 14.73 58.514 0.09 7.37 2.08 9.13
5/25/2021 4:45:00 AM 14.66 58.388 0.09 7.36 2.77 9.13
5/25/2021 5:00:00 AM 14.6 58.28 0.09 7.35 2.18 9.16
5/25/2021 5:15:00 AM 14.55 58.19 0.09 7.37 3.11 9.18
5/25/2021 5:30:00 AM 14.49 58.082 0.09 7.35 2.53 9.2
5/25/2021 5:45:00 AM 14.43 57.974 0.09 7.37 3.17 9.18
5/25/2021 6:00:00 AM 14.38 57.884 0.09 7.37 2.21 9.23
5/25/2021 6:15:00 AM 14.34 57.812 0.09 7.35 2.15 9.23
5/25/2021 6:30:00 AM 14.31 57.758 0.09 7.39 5.65 9.3
5/25/2021 6:45:00 AM 14.27 57.686 0.09 7.4 2.28 9.38
5/25/2021 7:00:00 AM 14.24 57.632 0.09 7.39 2.56 9.42
5/25/2021 7:15:00 AM 14.24 57.632 0.09 7.45 2.06 9.59
5/25/2021 7:30:00 AM 14.23 57.614 0.09 7.48 2.05 9.72
5/25/2021 7:45:00 AM 14.21 57.578 0.09 7.5 2.37 9.84
5/25/2021 8:00:00 AM 14.22 57.596 0.089 7.57 2.12 10.06
5/25/2021 8:15:00 AM 14.24 57.632 0.089 7.64 1.93 10.27
5/25/2021 8:30:00 AM 14.3 57.74 0.089 7.72 2.3 10.43
5/25/2021 8:45:00 AM 14.33 57.794 0.089 7.75 2 10.52
5/25/2021 9:00:00 AM 14.38 57.884 0.088 7.82 1.99 10.66
5/25/2021 9:15:00 AM 14.44 57.992 0.088 7.93 2.09 10.74
5/25/2021 9:30:00 AM 14.54 58.172 0.088 7.97 2.22 10.77
5/25/2021 9:45:00 AM 14.72 58.496 0.088 8.2 1.98 10.87
5/25/2021 10:00:00 AM 14.89 58.802 0.087 8.25 2.36 10.87
5/25/2021 10:15:00 AM 15.09 59.162 0.087 8.36 2.06 10.88
5/25/2021 10:30:00 AM 15.32 59.576 0.087 8.49 2.17 10.85
5/25/2021 10:45:00 AM 15.63 60.134 0.087 8.63 2.29 10.88
5/25/2021 11:00:00 AM 15.89 60.602 0.087 8.78 2.11 10.9
5/25/2021 11:15:00 AM 16.02 60.836 0.087 8.8 3.08 10.8
5/25/2021 11:30:00 AM 16.43 61.574 0.086 8.88 2.08 10.78
5/25/2021 11:45:00 AM 16.77 62.186 0.086 9.03 2.08 10.83
5/25/2021 12:00:00 PM 16.95 62.51 0.087 9.1 2.13 10.83
5/25/2021 12:15:00 PM 17.06 62.708 0.087 9.16 2.02 10.8
5/25/2021 12:30:00 PM 17.17 62.906 0.086 9.2 2.11 10.65
5/25/2021 12:45:00 PM 17.35 63.23 0.086 9.21 2.03 10.6
5/25/2021 1:00:00 PM 17.61 63.698 0.087 9.23 2.23 10.55
5/25/2021 1:15:00 PM 17.83 64.094 0.087 9.22 2.38 10.48
5/25/2021 1:30:00 PM 18.14 64.652 0.087 9.24 2.16 10.4
5/25/2021 1:45:00 PM 18.42 65.156 0.087 9.23 2.23 10.31
5/25/2021 2:00:00 PM 18.72 65.696 0.087 9.25 2.53 10.21
5/25/2021 2:15:00 PM 18.98 66.164 0.087 9.24 2.22 10.08
5/25/2021 2:30:00 PM 19.32 66.776 0.087 9.24 1.98 10.03
5/25/2021 2:45:00 PM 19.59 67.262 0.087 9.22 2.14 9.94
5/25/2021 3:00:00 PM 19.81 67.658 0.087 9.2 2.25 9.83
5/25/2021 3:15:00 PM 20 68 0.087 9.17 2.15 9.69
5/25/2021 3:30:00 PM 20.19 68.342 0.087 9.16 2.14 9.61
5/25/2021 3:45:00 PM 20.3 68.54 0.087 9.12 2.33 9.56
5/25/2021 4:00:00 PM 20.4 68.72 0.087 9.08 2.11 9.46
5/25/2021 4:15:00 PM 20.5 68.9 0.088 9.04 2.08 9.41
5/25/2021 4:30:00 PM 20.54 68.972 0.088 8.98 2.28 9.35
5/25/2021 4:45:00 PM 20.58 69.044 0.088 8.92 2.15 9.28
5/25/2021 5:00:00 PM 20.56 69.008 0.088 8.83 2.01 9.18
5/25/2021 5:15:00 PM 20.52 68.936 0.088 8.7 2 9.1
5/25/2021 5:30:00 PM 20.51 68.918 0.088 8.62 2.31 9.05
5/25/2021 5:45:00 PM 20.46 68.828 0.088 8.47 2.68 8.94
5/25/2021 6:00:00 PM 20.4 68.72 0.089 8.32 2.2 8.88
5/25/2021 6:15:00 PM 20.34 68.612 0.089 8.2 2.19 8.78
5/25/2021 6:30:00 PM 20.25 68.45 0.089 8.03 2.19 8.67
5/25/2021 6:45:00 PM 20.11 68.198 0.089 7.88 2.08 8.57
5/25/2021 7:00:00 PM 20.04 68.07201 0.09 7.79 2.17 8.51
5/25/2021 7:15:00 PM 19.91 67.838 0.09 7.7 1.89 8.44
5/25/2021 7:30:00 PM 19.82 67.676 0.09 7.64 1.97 8.36
5/25/2021 7:45:00 PM 19.73 67.514 0.09 7.63 1.93 8.32
5/25/2021 8:00:00 PM 19.64 67.352 0.091 7.58 1.87 8.27
5/25/2021 8:15:00 PM 19.5 67.1 0.091 7.52 2.21 8.19
5/25/2021 8:30:00 PM 19.41 66.938 0.091 7.5 2.32 8.18
5/25/2021 8:45:00 PM 19.3 66.74 0.091 7.48 2.08 8.09
5/25/2021 9:00:00 PM 19.17 66.506 0.091 7.45 2.21 8.1
5/25/2021 9:15:00 PM 19 66.2 0.091 7.39 2.78 8.03
5/25/2021 9:30:00 PM 18.95 66.11 0.091 7.42 2.4 8.08
5/25/2021 9:45:00 PM 18.83 65.894 0.091 7.39 2.24 8.08
5/25/2021 10:00:00 PM 18.75 65.75 0.092 7.4 2.46 8.11
5/25/2021 10:15:00 PM 18.64 65.552 0.091 7.39 2.69 8.11
5/25/2021 10:30:00 PM 18.55 65.39 0.091 7.38 3.3 8.11
5/25/2021 10:45:00 PM 18.47 65.246 0.091 7.39 2.65 8.16
5/25/2021 11:00:00 PM 18.4 65.12 0.091 7.38 2.22 8.16
5/25/2021 11:15:00 PM 18.3 64.94 0.091 7.38 2.09 8.2
5/25/2021 11:30:00 PM 18.21 64.778 0.091 7.36 2.32 8.21
5/25/2021 11:45:00 PM 18.1 64.58 0.091 7.36 2.24 8.23
5/26/2021 12:00:00 AM 18.05 64.49 0.091 7.38 2.19 8.25
5/26/2021 12:15:00 AM 17.96 64.328 0.091 7.37 2.13 8.28
5/26/2021 12:30:00 AM 17.86 64.148 0.091 7.35 2.06 8.28
5/26/2021 12:45:00 AM 17.77 63.986 0.091 7.36 2.15 8.31
5/26/2021 1:00:00 AM 17.69 63.842 0.091 7.36 2.3 8.33
5/26/2021 1:15:00 AM 17.6 63.68 0.091 7.35 2.47 8.37
5/26/2021 1:30:00 AM 17.52 63.536 0.092 7.36 2.09 8.39
5/26/2021 1:45:00 AM 17.43 63.374 0.092 7.36 2.1 8.43
5/26/2021 2:00:00 AM 17.32 63.176 0.091 7.35 2.17 8.43
5/26/2021 2:15:00 AM 17.23 63.014 0.091 7.36 2.21 8.47
5/26/2021 2:30:00 AM 17.1 62.78 0.091 7.34 2.46 8.47
5/26/2021 2:45:00 AM 17.02 62.636 0.091 7.34 2.15 8.49
5/26/2021 3:00:00 AM 16.91 62.438 0.091 7.34 2.16 8.52
5/26/2021 3:15:00 AM 16.81 62.258 0.091 7.34 3.12 8.55
5/26/2021 3:30:00 AM 16.7 62.06 0.091 7.34 2.04 8.58
5/26/2021 3:45:00 AM 16.64 61.952 0.091 7.36 2.68 8.62
5/26/2021 4:00:00 AM 16.52 61.736 0.091 7.34 2.47 8.63
5/26/2021 4:15:00 AM 16.42 61.556 0.091 7.33 2.14 8.67
5/26/2021 4:30:00 AM 16.32 61.376 0.091 7.34 2.25 8.68
5/26/2021 4:45:00 AM 16.21 61.178 0.091 7.33 2.48 8.72
5/26/2021 5:00:00 AM 16.11 60.998 0.091 7.32 2.1 8.74
5/26/2021 5:15:00 AM 16.02 60.836 0.091 7.35 2.09 8.76
5/26/2021 5:30:00 AM 15.92 60.656 0.091 7.34 2.01 8.78
5/26/2021 5:45:00 AM 15.83 60.494 0.091 7.34 4.02 8.82
5/26/2021 6:00:00 AM 15.74 60.332 0.091 7.35 2.25 8.89
5/26/2021 6:15:00 AM 15.66 60.188 0.091 7.36 2.04 8.94
5/26/2021 6:30:00 AM 15.58 60.044 0.091 7.36 2.21 9.02
5/26/2021 6:45:00 AM 15.54 59.972 0.091 7.41 2.12 9.19
5/26/2021 7:00:00 AM 15.53 59.954 0.091 7.44 1.96 9.34
5/26/2021 7:15:00 AM 15.5 59.9 0.091 7.47 2.22 9.45
5/26/2021 7:30:00 AM 15.53 59.954 0.09 7.51 1.97 9.68
5/26/2021 7:45:00 AM 15.54 59.972 0.09 7.55 2.01 9.78
5/26/2021 8:00:00 AM 15.58 60.044 0.09 7.59 2.02 9.89
5/26/2021 8:15:00 AM 15.65 60.17 0.09 7.66 2.08 10.02
5/26/2021 8:30:00 AM 15.73 60.314 0.089 7.71 1.98 10.11
5/26/2021 8:45:00 AM 15.83 60.494 0.089 7.78 1.94 10.19
5/26/2021 9:00:00 AM 15.96 60.728 0.089 7.86 2.22 10.25
5/26/2021 9:15:00 AM 16.15 61.07 0.089 7.94 1.93 10.31
5/26/2021 9:30:00 AM 16.34 61.412 0.088 8.05 2.05 10.37
5/26/2021 9:45:00 AM 16.57 61.826 0.088 8.21 2.25 10.42
5/26/2021 10:00:00 AM 16.81 62.258 0.088 8.39 2.12 10.45
5/26/2021 10:15:00 AM 17.04 62.672 0.087 8.47 2.04 10.44
5/26/2021 10:30:00 AM 17.37 63.266 0.087 8.69 1.93 10.5
5/26/2021 10:45:00 AM 17.68 63.824 0.087 8.81 2.42 10.49
5/26/2021 11:00:00 AM 18.04 64.472 0.087 8.89 2.14 10.47
5/26/2021 11:15:00 AM 18.35 65.03 0.087 8.99 2.05 10.42
5/26/2021 11:30:00 AM 18.77 65.786 0.087 9.08 2.09 10.4
5/26/2021 11:45:00 AM 19.1 66.38 0.087 9.11 1.99 10.25
5/26/2021 12:00:00 PM 19.5 67.1 0.087 9.18 1.98 10.21
5/26/2021 12:15:00 PM 19.78 67.604 0.087 9.18 1.93 10.09
5/26/2021 12:30:00 PM 20.04 68.07201 0.087 9.17 2.02 9.98
5/26/2021 12:45:00 PM 20.44 68.792 0.087 9.25 2.09 9.98
5/26/2021 1:00:00 PM 20.73 69.314 0.087 9.24 2.44 9.87
5/26/2021 1:15:00 PM 21.01 69.818 0.088 9.26 2.15 9.85
5/26/2021 1:30:00 PM 21.28 70.304 0.088 9.29 2.27 9.78
5/26/2021 1:45:00 PM 21.51 70.718 0.088 9.3 2.02 9.67
5/26/2021 2:00:00 PM 21.65 70.97 0.088 9.27 2.18 9.57
5/26/2021 2:15:00 PM 21.75 71.15 0.088 9.24 2.18 9.46
5/26/2021 2:30:00 PM 21.86 71.348 0.088 9.24 1.9 9.39
5/26/2021 2:45:00 PM 22 71.6 0.088 9.25 1.87 9.38
5/26/2021 3:00:00 PM 22.07 71.726 0.088 9.23 2.14 9.38
5/26/2021 3:15:00 PM 22.17 71.906 0.088 9.24 2.73 9.33
5/26/2021 3:30:00 PM 22.07 71.726 0.088 9.16 1.84 9.15
5/26/2021 3:45:00 PM 22.06 71.708 0.088 9.1 1.89 8.97
5/26/2021 4:00:00 PM 22.06 71.708 0.088 9.05 2.24 8.86
5/26/2021 4:15:00 PM 21.91 71.438 0.088 8.81 2.04 8.54
5/26/2021 4:30:00 PM 21.84 71.312 0.088 8.58 2.23 8.29
5/26/2021 4:45:00 PM 21.72 71.096 0.089 8.28 2.06 8.18
5/26/2021 5:00:00 PM 21.63 70.934 0.09 8.02 2.1 8.02
5/26/2021 5:15:00 PM 21.49 70.682 0.09 7.81 1.94 7.95
5/26/2021 5:30:00 PM 21.42 70.556 0.09 7.79 2.02 8.18
5/26/2021 5:45:00 PM 21.43 70.574 0.09 7.85 1.98 8.37
5/26/2021 6:00:00 PM 21.36 70.448 0.09 7.83 2.21 8.4
5/26/2021 6:15:00 PM 21.32 70.376 0.09 7.8 1.97 8.39
5/26/2021 6:30:00 PM 21.23 70.214 0.091 7.75 1.86 8.32
5/26/2021 6:45:00 PM 21.13 70.034 0.091 7.73 1.93 8.33
5/26/2021 7:00:00 PM 20.97 69.746 0.091 7.67 2.27 8.18
5/26/2021 7:15:00 PM 20.61 69.098 0.087 7.49 3.68 7.99
5/26/2021 7:30:00 PM 20.56 69.008 0.089 7.5 2.22 7.87
5/26/2021 7:45:00 PM 20.47 68.846 0.092 7.48 8.47 7.82
5/26/2021 8:00:00 PM 20.45 68.81 0.091 7.47 6.25 7.77
5/26/2021 8:15:00 PM 20.38 68.684 0.09 7.41 4.8 7.66
5/26/2021 8:30:00 PM 20.32 68.576 0.09 7.39 4.24 7.59
5/26/2021 8:45:00 PM 20.26 68.468 0.091 7.4 3.11 7.65
5/26/2021 9:00:00 PM 20.14 68.252 0.091 7.39 2.84 7.66
5/26/2021 9:15:00 PM 20.01 68.018 0.091 7.36 2.36 7.69
5/26/2021 9:30:00 PM 19.95 67.91 0.091 7.39 9.21 7.75
5/26/2021 9:45:00 PM 19.86 67.748 0.091 7.37 2.18 7.75
5/26/2021 10:00:00 PM 19.77 67.586 0.091 7.37 2.02 7.78
5/26/2021 10:15:00 PM 19.68 67.424 0.091 7.37 2.26 7.8
5/26/2021 10:30:00 PM 19.58 67.244 0.091 7.36 2.7 7.84
5/26/2021 10:45:00 PM 19.51 67.118 0.091 7.37 2.38 7.89
5/26/2021 11:00:00 PM 19.38 66.884 0.091 7.36 2.51 7.93
5/26/2021 11:15:00 PM 19.27 66.686 0.091 7.36 2.23 7.94
5/26/2021 11:30:00 PM 19.17 66.506 0.091 7.36 2.62 7.96
5/26/2021 11:45:00 PM 19.11 66.398 0.091 7.37 2.52 8.05
5/27/2021 12:00:00 AM 19.02 66.236 0.091 7.37 2.54 8.07
5/27/2021 12:15:00 AM 18.89 66.002 0.091 7.35 3.07 8.07
5/27/2021 12:30:00 AM 18.81 65.858 0.091 7.36 2.58 8.11
5/27/2021 12:45:00 AM 18.71 65.67799 0.092 7.36 2.8 8.16
5/27/2021 1:00:00 AM 18.63 65.534 0.092 7.36 2.41 8.19
5/27/2021 1:15:00 AM 18.53 65.354 0.092 7.37 3.64 8.22
5/27/2021 1:30:00 AM 18.41 65.138 0.092 7.36 2.88 8.22
5/27/2021 1:45:00 AM 18.33 64.994 0.092 7.36 2.82 8.25
5/27/2021 2:00:00 AM 18.24 64.832 0.092 7.36 2.43 8.28
5/27/2021 2:15:00 AM 18.12 64.616 0.092 7.35 2.62 8.31
5/27/2021 2:30:00 AM 18.04 64.472 0.092 7.36 2.49 8.36
5/27/2021 2:45:00 AM 17.95 64.31 0.092 7.38 2.48 8.37
5/27/2021 3:00:00 AM 17.84 64.112 0.092 7.36 2.27 8.37
5/27/2021 3:15:00 AM 17.77 63.986 0.092 7.37 2.84 8.4
5/27/2021 3:30:00 AM 17.69 63.842 0.092 7.38 3.23 8.44
5/27/2021 3:45:00 AM 17.6 63.68 0.092 7.38 2.84 8.44
5/27/2021 4:00:00 AM 17.51 63.518 0.092 7.38 2.73 8.47
5/27/2021 4:15:00 AM 17.41 63.338 0.092 7.38 2.53 8.48
5/27/2021 4:30:00 AM 17.32 63.176 0.092 7.38 2.53 8.49
5/27/2021 4:45:00 AM 17.23 63.014 0.092 7.37 2.42 8.54
5/27/2021 5:00:00 AM 17.14 62.852 0.092 7.39 3.03 8.54
5/27/2021 5:15:00 AM 17.04 62.672 0.092 7.38 2.5 8.56
5/27/2021 5:30:00 AM 16.95 62.51 0.092 7.38 2.51 8.57
5/27/2021 5:45:00 AM 16.84 62.312 0.092 7.38 2.54 8.62
5/27/2021 6:00:00 AM 16.76 62.168 0.092 7.38 2.38 8.66
5/27/2021 6:15:00 AM 16.65 61.97 0.092 7.39 2.52 8.74
5/27/2021 6:30:00 AM 16.54 61.772 0.091 7.41 2.4 8.8
5/27/2021 6:45:00 AM 16.46 61.628 0.091 7.42 2.57 8.89
5/27/2021 7:00:00 AM 16.36 61.448 0.091 7.44 2.86 9.04
5/27/2021 7:15:00 AM 16.32 61.376 0.091 7.5 2.27 9.19
5/27/2021 7:30:00 AM 16.29 61.322 0.091 7.54 2.13 9.32
5/27/2021 7:45:00 AM 16.25 61.25 0.09 7.55 2.19 9.41
5/27/2021 8:00:00 AM 16.22 61.196 0.09 7.55 2.08 9.49
5/27/2021 8:15:00 AM 16.21 61.178 0.09 7.62 2.21 9.67
5/27/2021 8:30:00 AM 16.21 61.178 0.09 7.68 2.05 9.77
5/27/2021 8:45:00 AM 16.2 61.16 0.09 7.71 2.3 9.83
5/27/2021 9:00:00 AM 16.23 61.214 0.09 7.75 2.07 9.88
5/27/2021 9:15:00 AM 16.32 61.376 0.09 7.84 2.08 10.04
5/27/2021 9:30:00 AM 16.36 61.448 0.09 7.8 2.68 10.01
5/27/2021 9:45:00 AM 16.43 61.574 0.09 7.9 2.18 10.05
5/27/2021 10:00:00 AM 16.53 61.754 0.09 7.97 2.33 10.08
5/27/2021 10:15:00 AM 16.72 62.096 0.09 8.03 2.23 10.14
5/27/2021 10:30:00 AM 16.96 62.528 0.089 8.09 2.38 10.07
5/27/2021 10:45:00 AM 17.18 62.924 0.089 8.19 2 10.09
5/27/2021 11:00:00 AM 17.33 63.194 0.089 8.25 2.11 10.1
5/27/2021 11:15:00 AM 17.54 63.572 0.089 8.38 2.12 10.13
5/27/2021 11:30:00 AM 17.67 63.806 0.089 8.4 2 10.08
5/27/2021 11:45:00 AM 17.95 64.31 0.089 8.55 1.92 10.09
5/27/2021 12:00:00 PM 18.27 64.886 0.089 8.72 2.28 10.19
5/27/2021 12:15:00 PM 18.55 65.39 0.089 8.76 2.01 10.12
5/27/2021 12:30:00 PM 18.93 66.074 0.089 8.88 2.04 10.11
5/27/2021 12:45:00 PM 19.22 66.596 0.089 8.92 1.92 10.04
5/27/2021 1:00:00 PM 19.5 67.1 0.089 8.98 1.9 9.97
5/27/2021 1:15:00 PM 19.76 67.568 0.089 9 1.87 9.92
5/27/2021 1:30:00 PM 19.97 67.946 0.089 9.03 1.91 9.88
5/27/2021 1:45:00 PM 20.2 68.36 0.089 9.08 1.83 9.84
5/27/2021 2:00:00 PM 20.27 68.486 0.09 9.05 2.06 9.79
5/27/2021 2:15:00 PM 20.37 68.666 0.089 9.05 1.95 9.77
5/27/2021 2:30:00 PM 20.36 68.648 0.09 9.04 2.11 9.66
5/27/2021 2:45:00 PM 20.42 68.756 0.09 9.01 2.23 9.6
5/27/2021 3:00:00 PM 20.48 68.864 0.09 8.99 1.83 9.54
5/27/2021 3:15:00 PM 20.48 68.864 0.09 8.99 2.14 9.5
5/27/2021 3:30:00 PM 20.59 69.062 0.09 9 1.91 9.52
5/27/2021 3:45:00 PM 20.65 69.17 0.09 8.98 1.97 9.53
5/27/2021 4:00:00 PM 20.6 69.08 0.09 8.91 1.76 9.41
5/27/2021 4:15:00 PM 20.51 68.918 0.09 8.85 1.89 9.33
5/27/2021 4:30:00 PM 20.43 68.774 0.09 8.77 1.88 9.31
5/27/2021 4:45:00 PM 20.31 68.558 0.09 8.71 2.42 9.28
5/27/2021 5:00:00 PM 20.25 68.45 0.091 8.69 1.94 9.28
5/27/2021 5:15:00 PM 20.08 68.144 0.091 8.51 1.96 9.13
5/27/2021 5:30:00 PM 19.94 67.892 0.091 8.35 1.97 9.06
5/27/2021 5:45:00 PM 19.81 67.658 0.091 8.2 2.47 8.98
5/27/2021 6:00:00 PM 19.67 67.406 0.091 8.07 1.9 8.94
5/27/2021 6:15:00 PM 19.58 67.244 0.091 7.97 2 8.88
5/27/2021 6:30:00 PM 19.47 67.046 0.091 7.9 1.84 8.8
5/27/2021 6:45:00 PM 19.35 66.83 0.091 7.83 2.07 8.79
5/27/2021 7:00:00 PM 19.2 66.56 0.091 7.78 1.92 8.74
5/27/2021 7:15:00 PM 19.03 66.254 0.092 7.73 1.7 8.67
5/27/2021 7:30:00 PM 18.88 65.984 0.092 7.69 1.82 8.64
5/27/2021 7:45:00 PM 18.68 65.624 0.092 7.62 1.62 8.57
5/27/2021 8:00:00 PM 18.56 65.408 0.092 7.58 1.78 8.53
5/27/2021 8:15:00 PM 18.38 65.084 0.092 7.56 1.82 8.48
5/27/2021 8:30:00 PM 18.26 64.868 0.092 7.53 1.9 8.46
5/27/2021 8:45:00 PM 18.1 64.58 0.093 7.51 2.06 8.42
5/27/2021 9:00:00 PM 17.92 64.256 0.092 7.47 1.97 8.37
5/27/2021 9:15:00 PM 17.75 63.95 0.093 7.45 1.94 8.38
5/27/2021 9:30:00 PM 17.58 63.644 0.093 7.43 2.21 8.38
5/27/2021 9:45:00 PM 17.41 63.338 0.093 7.44 1.97 8.4
5/27/2021 10:00:00 PM 17.24 63.032 0.093 7.42 1.88 8.43
5/27/2021 10:15:00 PM 17.08 62.744 0.093 7.43 2.46 8.47
5/27/2021 10:30:00 PM 16.91 62.438 0.093 7.41 2.45 8.49
5/27/2021 10:45:00 PM 16.75 62.15 0.093 7.41 2.18 8.55
5/27/2021 11:00:00 PM 16.58 61.844 0.093 7.41 2.04 8.58
5/27/2021 11:15:00 PM 16.39 61.502 0.093 7.4 2.01 8.6
5/27/2021 11:30:00 PM 16.23 61.214 0.093 7.39 4.68 8.66
5/27/2021 11:45:00 PM 16.05 60.89 0.093 7.39 2.24 8.7
5/28/2021 12:00:00 AM 15.89 60.602 0.093 7.4 1.92 8.74
5/28/2021 12:15:00 AM 15.71 60.278 0.093 7.37 2.07 8.75
5/28/2021 12:30:00 AM 15.55 59.99 0.093 7.39 2.27 8.83
5/28/2021 12:45:00 AM 15.41 59.738 0.093 7.39 1.95 8.85
5/28/2021 1:00:00 AM 15.26 59.468 0.093 7.36 2.12 8.91
5/28/2021 1:15:00 AM 15.13 59.234 0.093 7.39 2.13 8.93
5/28/2021 1:30:00 AM 15.01 59.018 0.093 7.4 2.09 8.96
5/28/2021 1:45:00 AM 14.88 58.784 0.093 7.38 1.98 8.99
5/28/2021 2:00:00 AM 14.77 58.586 0.093 7.39 1.99 9.04
5/28/2021 2:15:00 AM 14.66 58.388 0.093 7.37 1.79 9.06
5/28/2021 2:30:00 AM 14.54 58.172 0.093 7.35 1.84 9.07
5/28/2021 2:45:00 AM 14.47 58.046 0.093 7.39 1.84 9.11
5/28/2021 3:00:00 AM 14.38 57.884 0.093 7.38 1.89 9.13
5/28/2021 3:15:00 AM 14.3 57.74 0.093 7.38 3.09 9.14
5/28/2021 3:30:00 AM 14.23 57.614 0.093 7.38 1.82 9.15
5/28/2021 3:45:00 AM 14.17 57.506 0.093 7.38 2.14 9.19
5/28/2021 4:00:00 AM 14.11 57.398 0.093 7.38 1.75 9.21
5/28/2021 4:15:00 AM 14.07 57.326 0.093 7.37 1.8 9.19
5/28/2021 4:30:00 AM 14 57.2 0.093 7.38 1.87 9.22
5/28/2021 4:45:00 AM 13.93 57.074 0.093 7.4 1.92 9.27
5/28/2021 5:00:00 AM 13.83 56.894 0.093 7.36 2.02 9.26
5/28/2021 5:15:00 AM 13.75 56.75 0.093 7.38 1.82 9.28
5/28/2021 5:30:00 AM 13.66 56.588 0.093 7.37 2.24 9.31
5/28/2021 5:45:00 AM 13.59 56.462 0.093 7.4 1.78 9.35
5/28/2021 6:00:00 AM 13.5 56.3 0.093 7.37 2.02 9.4
5/28/2021 6:15:00 AM 13.41 56.138 0.093 7.4 2.22 9.47
5/28/2021 6:30:00 AM 13.35 56.03 0.093 7.41 2.41 9.57
5/28/2021 6:45:00 AM 13.3 55.94 0.093 7.45 2.08 9.79
5/28/2021 7:00:00 AM 13.27 55.886 0.093 7.5 1.79 9.93
5/28/2021 7:15:00 AM 13.25 55.85 0.093 7.52 2.04 10.07
5/28/2021 7:30:00 AM 13.21 55.778 0.092 7.54 1.97 10.23
5/28/2021 7:45:00 AM 13.21 55.778 0.092 7.63 1.75 10.4
5/28/2021 8:00:00 AM 13.24 55.832 0.092 7.69 1.64 10.56
5/28/2021 8:15:00 AM 13.26 55.868 0.092 7.73 1.72 10.65
5/28/2021 8:30:00 AM 13.27 55.886 0.091 7.78 1.72 10.72
5/28/2021 8:45:00 AM 13.27 55.886 0.091 7.75 1.83 10.72
5/28/2021 9:00:00 AM 13.3 55.94 0.091 7.86 1.89 10.79
5/28/2021 9:15:00 AM 13.32 55.976 0.091 7.94 1.75 10.87
5/28/2021 9:30:00 AM 13.33 55.994 0.09 7.95 1.66 10.87
5/28/2021 9:45:00 AM 13.37 56.066 0.09 8.11 1.62 10.93
5/28/2021 10:00:00 AM 13.38 56.084 0.09 8.1 1.86 10.96
5/28/2021 10:15:00 AM 13.4 56.12